Time,TemperatureF,DewpointF,PressureIn,WindDirection,WindDirectionDegrees,WindSpeedMPH,WindSpeedGustMPH,Humidity,HourlyPrecipIn,Conditions,Clouds,dailyrainin,SoftwareType,DateUTC
2013-02-11 00:00:00,40.0,27.2,29.98,NNW,338,0.0,0.0,60,0.00,,SKC,0.00,VWS V14.01,2013-02-11 07:00:00,
2013-02-11 00:01:00,40.0,27.2,29.98,NNW,338,0.0,0.0,60,0.00,,SKC,0.00,VWS V14.01,2013-02-11 07:01:00,
2013-02-11 00:02:00,40.0,27.2,29.98,NNW,338,0.0,0.0,60,0.00,,SKC,0.00,VWS V14.01,2013-02-11 07:02:00,
2013-02-11 00:03:00,40.0,27.2,29.98,NNW,338,0.0,0.0,60,0.00,,SKC,0.00,VWS V14.01,2013-02-11 07:03:00,
2013-02-11 00:04:00,40.0,27.2,29.98,NNW,338,0.0,0.0,60,0.00,,SKC,0.00,VWS V14.01,2013-02-11 07:04:00,
2013-02-11 00:05:00,40.0,27.2,29.98,NNW,338,0.0,0.0,60,0.00,,SKC,0.00,VWS V14.01,2013-02-11 07:05:00,
2013-02-11 00:06:00,40.0,27.2,29.98,NNW,338,0.0,0.0,60,0.00,,SKC,0.00,VWS V14.01,2013-02-11 07:06:00,
2013-02-11 00:07:00,40.0,27.2,29.98,NNW,338,0.0,0.0,60,0.00,,SKC,0.00,VWS V14.01,2013-02-11 07:07:00,
2013-02-11 00:08:00,40.0,27.2,29.98,NNW,338,0.0,0.0,60,0.00,,SKC,0.00,VWS V14.01,2013-02-11 07:08:00,
2013-02-11 00:09:00,40.0,27.2,29.98,NNW,338,0.0,0.0,60,0.00,,SKC,0.00,VWS V14.01,2013-02-11 07:09:00,
2013-02-11 00:10:00,40.0,27.2,29.98,North,0,0.0,0.0,60,0.00,,SKC,0.00,VWS V14.01,2013-02-11 07:10:00,
2013-02-11 00:11:00,40.0,27.6,29.98,North,0,0.0,0.0,61,0.00,,SKC,0.00,VWS V14.01,2013-02-11 07:11:00,
2013-02-11 00:12:00,40.0,27.2,29.98,North,0,0.0,0.0,60,0.00,,SKC,0.00,VWS V14.01,2013-02-11 07:12:00,
2013-02-11 00:13:00,40.0,27.2,29.98,North,0,0.0,0.0,60,0.00,,SKC,0.00,VWS V14.01,2013-02-11 07:13:00,
2013-02-11 00:14:00,40.0,27.2,29.98,North,0,0.0,0.0,60,0.00,,SKC,0.00,VWS V14.01,2013-02-11 07:14:00,
2013-02-11 00:15:00,40.0,27.6,29.98,North,0,0.0,0.0,61,0.00,,SKC,0.00,VWS V14.01,2013-02-11 07:15:00,
2013-02-11 00:16:00,40.0,27.2,29.98,North,0,0.0,0.0,60,0.00,,SKC,0.00,VWS V14.01,2013-02-11 07:16:00,
2013-02-11 00:17:00,40.0,27.2,29.98,North,0,0.0,0.0,60,0.00,,SKC,0.00,VWS V14.01,2013-02-11 07:17:00,
2013-02-11 00:18:00,40.0,27.6,29.98,North,0,0.0,0.0,61,0.00,,SKC,0.00,VWS V14.01,2013-02-11 07:18:00,
2013-02-11 00:19:00,40.0,27.6,29.98,North,0,0.0,0.0,61,0.00,,SKC,0.00,VWS V14.01,2013-02-11 07:19:00,
2013-02-11 00:20:00,39.0,27.1,29.98,NNE,22,0.0,1.0,62,0.00,,SKC,0.00,VWS V14.01,2013-02-11 07:20:00,
2013-02-11 00:21:00,39.0,26.7,29.98,North,0,0.0,1.0,61,0.00,,SKC,0.00,VWS V14.01,2013-02-11 07:21:00,
2013-02-11 00:22:00,39.0,26.7,29.98,North,0,0.0,0.0,61,0.00,,SKC,0.00,VWS V14.01,2013-02-11 07:22:00,
2013-02-11 00:23:00,39.0,27.1,29.98,North,0,2.0,2.0,62,0.00,,SKC,0.00,VWS V14.01,2013-02-11 07:23:00,
2013-02-11 00:24:00,39.0,27.1,29.98,North,0,3.0,3.0,62,0.00,,SKC,0.00,VWS V14.01,2013-02-11 07:24:00,
2013-02-11 00:25:00,38.0,26.9,29.98,WNW,292,1.0,2.0,64,0.00,,SKC,0.00,VWS V14.01,2013-02-11 07:25:00,
2013-02-11 00:26:00,39.0,27.5,29.98,SW,225,5.0,6.0,63,0.00,,SKC,0.00,VWS V14.01,2013-02-11 07:26:00,
2013-02-11 00:27:00,38.0,26.9,29.98,West,270,4.0,5.0,64,0.00,,SKC,0.00,VWS V14.01,2013-02-11 07:27:00,
2013-02-11 00:28:00,38.0,27.3,29.98,WNW,292,2.0,2.0,65,0.00,,SKC,0.00,VWS V14.01,2013-02-11 07:28:00,
2013-02-11 00:29:00,38.0,27.3,29.98,NW,315,3.0,3.0,65,0.00,,SKC,0.00,VWS V14.01,2013-02-11 07:29:00,
2013-02-11 00:30:00,39.0,27.9,29.98,NNW,338,1.0,2.0,64,0.00,,SKC,0.00,VWS V14.01,2013-02-11 07:30:00,
2013-02-11 00:31:00,38.0,27.3,29.98,NNW,338,1.0,2.0,65,0.00,,SKC,0.00,VWS V14.01,2013-02-11 07:31:00,
2013-02-11 00:32:00,39.0,27.9,29.98,NNW,338,1.0,3.0,64,0.00,,SKC,0.00,VWS V14.01,2013-02-11 07:32:00,
2013-02-11 00:33:00,39.0,27.9,29.98,NNW,338,1.0,2.0,64,0.00,,SKC,0.00,VWS V14.01,2013-02-11 07:33:00,
2013-02-11 00:34:00,39.0,27.9,29.98,NNW,338,0.0,0.0,64,0.00,,SKC,0.00,VWS V14.01,2013-02-11 07:34:00,
2013-02-11 00:35:00,38.0,27.3,29.98,WNW,292,0.0,0.0,65,0.00,,SKC,0.00,VWS V14.01,2013-02-11 07:35:00,
2013-02-11 00:36:00,38.0,27.3,29.98,NNW,338,0.0,0.0,65,0.00,,SKC,0.00,VWS V14.01,2013-02-11 07:36:00,
2013-02-11 00:37:00,38.0,27.3,29.98,West,270,0.0,0.0,65,0.00,,SKC,0.00,VWS V14.01,2013-02-11 07:37:00,
2013-02-11 00:38:00,38.0,27.3,29.98,WNW,292,0.0,0.0,65,0.00,,SKC,0.00,VWS V14.01,2013-02-11 07:38:00,
2013-02-11 00:39:00,38.0,27.3,29.98,WNW,292,0.0,0.0,65,0.00,,SKC,0.00,VWS V14.01,2013-02-11 07:39:00,
2013-02-11 00:40:00,38.0,27.7,29.98,West,270,0.0,0.0,66,0.00,,SKC,0.00,VWS V14.01,2013-02-11 07:40:00,
2013-02-11 00:41:00,38.0,27.3,29.98,SE,135,3.0,3.0,65,0.00,,SKC,0.00,VWS V14.01,2013-02-11 07:41:00,
2013-02-11 00:42:00,38.0,27.3,29.98,SE,135,0.0,1.0,65,0.00,,SKC,0.00,VWS V14.01,2013-02-11 07:42:00,
2013-02-11 00:43:00,38.0,27.7,29.98,West,270,0.0,0.0,66,0.00,,SKC,0.00,VWS V14.01,2013-02-11 07:43:00,
2013-02-11 00:44:00,38.0,28.0,29.98,West,270,0.0,0.0,67,0.00,,SKC,0.00,VWS V14.01,2013-02-11 07:44:00,
2013-02-11 00:45:00,38.0,27.7,29.98,SW,225,1.0,1.0,66,0.00,,SKC,0.00,VWS V14.01,2013-02-11 07:45:00,
2013-02-11 00:46:00,38.0,28.0,29.98,West,270,0.0,0.0,67,0.00,,SKC,0.00,VWS V14.01,2013-02-11 07:46:00,
2013-02-11 00:47:00,38.0,28.0,29.98,WSW,248,1.0,1.0,67,0.00,,SKC,0.00,VWS V14.01,2013-02-11 07:47:00,
2013-02-11 00:48:00,38.0,27.7,29.98,SW,225,1.0,1.0,66,0.00,,SKC,0.00,VWS V14.01,2013-02-11 07:48:00,
2013-02-11 00:49:00,38.0,27.7,29.98,SW,225,0.0,0.0,66,0.00,,SKC,0.00,VWS V14.01,2013-02-11 07:49:00,
2013-02-11 00:50:00,38.0,27.3,29.98,WSW,248,2.0,3.0,65,0.00,,SKC,0.00,VWS V14.01,2013-02-11 07:50:00,
2013-02-11 00:51:00,38.0,27.7,29.98,WSW,248,3.0,3.0,66,0.00,,SKC,0.00,VWS V14.01,2013-02-11 07:51:00,
2013-02-11 00:52:00,38.0,27.3,29.98,WSW,248,2.0,3.0,65,0.00,,SKC,0.00,VWS V14.01,2013-02-11 07:52:00,
2013-02-11 00:53:00,38.0,27.3,29.98,WSW,248,3.0,3.0,65,0.00,,SKC,0.00,VWS V14.01,2013-02-11 07:53:00,
2013-02-11 00:54:00,39.0,28.2,29.98,WSW,248,4.0,4.0,65,0.00,,SKC,0.00,VWS V14.01,2013-02-11 07:54:00,
2013-02-11 00:55:00,39.0,27.1,29.98,SW,225,1.0,3.0,62,0.00,,SKC,0.00,VWS V14.01,2013-02-11 07:55:00,
2013-02-11 00:56:00,39.0,27.9,29.98,SW,225,2.0,3.0,64,0.00,,SKC,0.00,VWS V14.01,2013-02-11 07:56:00,
2013-02-11 00:57:00,39.0,27.5,29.98,SW,225,3.0,3.0,63,0.00,,SKC,0.00,VWS V14.01,2013-02-11 07:57:00,
2013-02-11 00:58:00,39.0,27.1,29.98,SW,225,1.0,3.0,62,0.00,,SKC,0.00,VWS V14.01,2013-02-11 07:58:00,
2013-02-11 00:59:00,39.0,27.1,29.98,SW,225,2.0,2.0,62,0.00,,SKC,0.00,VWS V14.01,2013-02-11 07:59:00,
2013-02-11 01:00:00,39.0,27.1,29.98,SW,225,1.0,1.0,62,0.00,,SKC,0.00,VWS V14.01,2013-02-11 08:00:00,
2013-02-11 01:01:00,40.0,27.6,29.98,SSE,158,1.0,1.0,61,0.00,,SKC,0.00,VWS V14.01,2013-02-11 08:01:00,
2013-02-11 01:02:00,40.0,27.6,29.98,SW,225,1.0,1.0,61,0.00,,SKC,0.00,VWS V14.01,2013-02-11 08:02:00,
2013-02-11 01:03:00,40.0,27.6,29.98,SSE,158,1.0,1.0,61,0.00,,SKC,0.00,VWS V14.01,2013-02-11 08:03:00,
2013-02-11 01:04:00,40.0,27.6,29.98,South,180,0.0,0.0,61,0.00,,SKC,0.00,VWS V14.01,2013-02-11 08:04:00,
2013-02-11 01:05:00,40.0,28.0,29.98,ESE,112,0.0,0.0,62,0.00,,SKC,0.00,VWS V14.01,2013-02-11 08:05:00,
2013-02-11 01:06:00,39.0,27.9,29.98,ESE,112,2.0,2.0,64,0.00,,SKC,0.00,VWS V14.01,2013-02-11 08:06:00,
2013-02-11 01:07:00,39.0,27.5,29.98,SSE,158,0.0,0.0,63,0.00,,SKC,0.00,VWS V14.01,2013-02-11 08:07:00,
2013-02-11 01:08:00,39.0,27.9,29.98,ESE,112,1.0,2.0,64,0.00,,SKC,0.00,VWS V14.01,2013-02-11 08:08:00,
2013-02-11 01:09:00,39.0,28.2,29.98,ESE,112,0.0,0.0,65,0.00,,SKC,0.00,VWS V14.01,2013-02-11 08:09:00,
2013-02-11 01:10:00,39.0,28.2,29.98,ESE,112,0.0,0.0,65,0.00,,SKC,0.00,VWS V14.01,2013-02-11 08:10:00,
2013-02-11 01:11:00,38.0,28.0,29.98,ESE,112,0.0,0.0,67,0.00,,SKC,0.00,VWS V14.01,2013-02-11 08:11:00,
2013-02-11 01:12:00,38.0,27.7,29.98,ESE,112,0.0,0.0,66,0.00,,SKC,0.00,VWS V14.01,2013-02-11 08:12:00,
2013-02-11 01:13:00,38.0,28.0,29.98,ESE,112,0.0,0.0,67,0.00,,SKC,0.00,VWS V14.01,2013-02-11 08:13:00,
2013-02-11 01:14:00,38.0,28.0,29.98,ESE,112,0.0,0.0,67,0.00,,SKC,0.00,VWS V14.01,2013-02-11 08:14:00,
2013-02-11 01:15:00,38.0,28.4,29.98,ESE,112,0.0,0.0,68,0.00,,SKC,0.00,VWS V14.01,2013-02-11 08:15:00,
2013-02-11 01:16:00,37.0,28.1,29.98,ESE,112,0.0,0.0,70,0.00,,SKC,0.00,VWS V14.01,2013-02-11 08:16:00,
2013-02-11 01:17:00,37.0,27.8,29.98,ESE,112,0.0,0.0,69,0.00,,SKC,0.00,VWS V14.01,2013-02-11 08:17:00,
2013-02-11 01:18:00,37.0,28.1,29.98,ESE,112,0.0,0.0,70,0.00,,SKC,0.00,VWS V14.01,2013-02-11 08:18:00,
2013-02-11 01:19:00,37.0,28.1,29.98,ESE,112,0.0,0.0,70,0.00,,SKC,0.00,VWS V14.01,2013-02-11 08:19:00,
2013-02-11 01:20:00,37.0,28.5,29.98,ESE,112,0.0,0.0,71,0.00,,SKC,0.00,VWS V14.01,2013-02-11 08:20:00,
2013-02-11 01:21:00,36.0,27.5,29.98,ESE,112,0.0,0.0,71,0.00,,SKC,0.00,VWS V14.01,2013-02-11 08:21:00,
2013-02-11 01:22:00,37.0,28.5,29.98,ESE,112,0.0,0.0,71,0.00,,SKC,0.00,VWS V14.01,2013-02-11 08:22:00,
2013-02-11 01:23:00,37.0,28.5,29.98,ESE,112,0.0,0.0,71,0.00,,SKC,0.00,VWS V14.01,2013-02-11 08:23:00,
2013-02-11 01:24:00,36.0,27.5,29.98,ESE,112,0.0,0.0,71,0.00,,SKC,0.00,VWS V14.01,2013-02-11 08:24:00,
2013-02-11 01:25:00,36.0,27.5,29.98,ESE,112,0.0,0.0,71,0.00,,SKC,0.00,VWS V14.01,2013-02-11 08:25:00,
2013-02-11 01:26:00,37.0,28.5,29.98,ESE,112,0.0,0.0,71,0.00,,SKC,0.00,VWS V14.01,2013-02-11 08:26:00,
2013-02-11 01:27:00,37.0,28.5,29.98,ESE,112,0.0,0.0,71,0.00,,SKC,0.00,VWS V14.01,2013-02-11 08:27:00,
2013-02-11 01:28:00,36.0,27.5,29.98,ESE,112,0.0,0.0,71,0.00,,SKC,0.00,VWS V14.01,2013-02-11 08:28:00,
2013-02-11 01:29:00,37.0,28.5,29.98,ESE,112,0.0,0.0,71,0.00,,SKC,0.00,VWS V14.01,2013-02-11 08:29:00,
2013-02-11 01:30:00,37.0,28.5,29.98,ESE,112,0.0,0.0,71,0.00,,SKC,0.00,VWS V14.01,2013-02-11 08:30:00,
2013-02-11 01:31:00,36.0,27.5,29.98,ESE,112,0.0,0.0,71,0.00,,SKC,0.00,VWS V14.01,2013-02-11 08:31:00,
2013-02-11 01:32:00,36.0,27.5,29.98,ESE,112,0.0,0.0,71,0.00,,SKC,0.00,VWS V14.01,2013-02-11 08:32:00,
2013-02-11 01:33:00,36.0,27.5,29.98,ESE,112,0.0,0.0,71,0.00,,SKC,0.00,VWS V14.01,2013-02-11 08:33:00,
2013-02-11 01:34:00,36.0,27.5,29.98,ESE,112,0.0,0.0,71,0.00,,SKC,0.00,VWS V14.01,2013-02-11 08:34:00,
2013-02-11 01:35:00,36.0,27.2,29.98,ESE,112,0.0,0.0,70,0.00,,SKC,0.00,VWS V14.01,2013-02-11 08:35:00,
2013-02-11 01:36:00,36.0,27.2,29.98,ESE,112,0.0,0.0,70,0.00,,SKC,0.00,VWS V14.01,2013-02-11 08:36:00,
2013-02-11 01:37:00,36.0,27.2,29.98,ESE,112,0.0,0.0,70,0.00,,SKC,0.00,VWS V14.01,2013-02-11 08:37:00,
2013-02-11 01:38:00,36.0,27.2,29.98,ESE,112,0.0,0.0,70,0.00,,SKC,0.00,VWS V14.01,2013-02-11 08:38:00,
2013-02-11 01:39:00,36.0,27.2,29.98,ESE,112,0.0,0.0,70,0.00,,SKC,0.00,VWS V14.01,2013-02-11 08:39:00,
2013-02-11 01:40:00,36.0,27.2,29.98,ESE,112,0.0,0.0,70,0.00,,SKC,0.00,VWS V14.01,2013-02-11 08:40:00,
2013-02-11 01:41:00,36.0,27.5,29.98,ESE,112,0.0,0.0,71,0.00,,SKC,0.00,VWS V14.01,2013-02-11 08:41:00,
2013-02-11 01:42:00,36.0,27.5,29.98,ESE,112,0.0,0.0,71,0.00,,SKC,0.00,VWS V14.01,2013-02-11 08:42:00,
2013-02-11 01:43:00,36.0,27.5,29.98,ESE,112,0.0,0.0,71,0.00,,SKC,0.00,VWS V14.01,2013-02-11 08:43:00,
2013-02-11 01:44:00,36.0,27.5,29.98,ESE,112,0.0,0.0,71,0.00,,SKC,0.00,VWS V14.01,2013-02-11 08:44:00,
2013-02-11 01:45:00,37.0,28.5,29.98,ESE,112,0.0,0.0,71,0.00,,SKC,0.00,VWS V14.01,2013-02-11 08:45:00,
2013-02-11 01:46:00,37.0,28.1,29.98,NNE,22,0.0,0.0,70,0.00,,SKC,0.00,VWS V14.01,2013-02-11 08:46:00,
2013-02-11 01:47:00,37.0,28.1,29.98,NNE,22,0.0,0.0,70,0.00,,SKC,0.00,VWS V14.01,2013-02-11 08:47:00,
2013-02-11 01:48:00,37.0,28.1,29.98,NNE,22,0.0,0.0,70,0.00,,SKC,0.00,VWS V14.01,2013-02-11 08:48:00,
2013-02-11 01:49:00,37.0,27.8,29.98,NNE,22,0.0,0.0,69,0.00,,SKC,0.00,VWS V14.01,2013-02-11 08:49:00,
2013-02-11 01:50:00,37.0,27.8,29.98,NNE,22,0.0,0.0,69,0.00,,SKC,0.00,VWS V14.01,2013-02-11 08:50:00,
2013-02-11 01:51:00,37.0,27.8,29.98,NNE,22,3.0,3.0,69,0.00,,SKC,0.00,VWS V14.01,2013-02-11 08:51:00,
2013-02-11 01:52:00,37.0,27.8,29.98,NNE,22,0.0,1.0,69,0.00,,SKC,0.00,VWS V14.01,2013-02-11 08:52:00,
2013-02-11 01:53:00,37.0,27.8,29.98,NNE,22,1.0,1.0,69,0.00,,SKC,0.00,VWS V14.01,2013-02-11 08:53:00,
2013-02-11 01:54:00,37.0,27.8,29.98,NNE,22,3.0,3.0,69,0.00,,SKC,0.00,VWS V14.01,2013-02-11 08:54:00,
2013-02-11 01:55:00,37.0,27.8,29.98,North,0,2.0,3.0,69,0.00,,SKC,0.00,VWS V14.01,2013-02-11 08:55:00,
2013-02-11 01:56:00,37.0,27.4,29.98,North,0,0.0,0.0,68,0.00,,SKC,0.00,VWS V14.01,2013-02-11 08:56:00,
2013-02-11 01:57:00,37.0,27.4,29.98,North,0,0.0,1.0,68,0.00,,SKC,0.00,VWS V14.01,2013-02-11 08:57:00,
2013-02-11 01:58:00,37.0,27.4,29.98,North,0,0.0,0.0,68,0.00,,SKC,0.00,VWS V14.01,2013-02-11 08:58:00,
2013-02-11 01:59:00,37.0,27.4,29.98,NNE,22,1.0,1.0,68,0.00,,SKC,0.00,VWS V14.01,2013-02-11 08:59:00,
2013-02-11 02:00:00,37.0,27.4,29.98,North,0,0.0,1.0,68,0.00,,SKC,0.00,VWS V14.01,2013-02-11 09:00:00,
2013-02-11 02:01:00,37.0,27.4,29.98,North,0,0.0,0.0,68,0.00,,SKC,0.00,VWS V14.01,2013-02-11 09:01:00,
2013-02-11 02:02:00,37.0,27.4,29.98,North,0,0.0,0.0,68,0.00,,SKC,0.00,VWS V14.01,2013-02-11 09:02:00,
2013-02-11 02:03:00,37.0,27.4,29.98,North,0,0.0,1.0,68,0.00,,SKC,0.00,VWS V14.01,2013-02-11 09:03:00,
2013-02-11 02:04:00,37.0,27.4,29.98,North,0,0.0,1.0,68,0.00,,SKC,0.00,VWS V14.01,2013-02-11 09:04:00,
2013-02-11 02:05:00,37.0,27.4,29.98,North,0,0.0,1.0,68,0.00,,SKC,0.00,VWS V14.01,2013-02-11 09:05:00,
2013-02-11 02:06:00,37.0,27.4,29.98,North,0,4.0,4.0,68,0.00,,SKC,0.00,VWS V14.01,2013-02-11 09:06:00,
2013-02-11 02:07:00,37.0,27.4,29.98,North,0,1.0,3.0,68,0.00,,SKC,0.00,VWS V14.01,2013-02-11 09:07:00,
2013-02-11 02:08:00,37.0,27.4,29.98,North,0,1.0,1.0,68,0.00,,SKC,0.00,VWS V14.01,2013-02-11 09:08:00,
2013-02-11 02:09:00,37.0,27.4,29.98,North,0,3.0,3.0,68,0.00,,SKC,0.00,VWS V14.01,2013-02-11 09:09:00,
2013-02-11 02:10:00,37.0,27.4,29.98,North,0,2.0,3.0,68,0.00,,SKC,0.00,VWS V14.01,2013-02-11 09:10:00,
2013-02-11 02:11:00,37.0,27.4,29.98,North,0,0.0,0.0,68,0.00,,SKC,0.00,VWS V14.01,2013-02-11 09:11:00,
2013-02-11 02:12:00,37.0,27.4,29.98,North,0,2.0,3.0,68,0.00,,SKC,0.00,VWS V14.01,2013-02-11 09:12:00,
2013-02-11 02:13:00,37.0,27.4,29.98,North,0,0.0,1.0,68,0.00,,SKC,0.00,VWS V14.01,2013-02-11 09:13:00,
2013-02-11 02:14:00,37.0,27.4,29.98,North,0,0.0,0.0,68,0.00,,SKC,0.00,VWS V14.01,2013-02-11 09:14:00,
2013-02-11 02:15:00,37.0,27.4,29.98,North,0,3.0,3.0,68,0.00,,SKC,0.00,VWS V14.01,2013-02-11 09:15:00,
2013-02-11 02:16:00,37.0,27.4,29.98,North,0,0.0,0.0,68,0.00,,SKC,0.00,VWS V14.01,2013-02-11 09:16:00,
2013-02-11 02:17:00,37.0,27.4,29.98,North,0,0.0,0.0,68,0.00,,SKC,0.00,VWS V14.01,2013-02-11 09:17:00,
2013-02-11 02:18:00,37.0,27.4,29.98,North,0,0.0,0.0,68,0.00,,SKC,0.00,VWS V14.01,2013-02-11 09:18:00,
2013-02-11 02:19:00,37.0,27.4,29.98,North,0,1.0,1.0,68,0.00,,SKC,0.00,VWS V14.01,2013-02-11 09:19:00,
2013-02-11 02:20:00,37.0,27.4,29.98,North,0,1.0,1.0,68,0.00,,SKC,0.00,VWS V14.01,2013-02-11 09:20:00,
2013-02-11 02:21:00,37.0,27.8,29.97,North,0,3.0,4.0,69,0.00,,SKC,0.00,VWS V14.01,2013-02-11 09:21:00,
2013-02-11 02:22:00,37.0,27.8,29.97,North,0,2.0,3.0,69,0.00,,SKC,0.00,VWS V14.01,2013-02-11 09:22:00,
2013-02-11 02:23:00,37.0,27.8,29.97,North,0,5.0,5.0,69,0.00,,SKC,0.00,VWS V14.01,2013-02-11 09:23:00,
2013-02-11 02:24:00,37.0,27.8,29.97,North,0,3.0,3.0,69,0.00,,SKC,0.00,VWS V14.01,2013-02-11 09:24:00,
2013-02-11 02:25:00,37.0,27.8,29.97,North,0,3.0,4.0,69,0.00,,SKC,0.00,VWS V14.01,2013-02-11 09:25:00,
2013-02-11 02:26:00,37.0,27.4,29.97,North,0,1.0,1.0,68,0.00,,SKC,0.00,VWS V14.01,2013-02-11 09:26:00,
2013-02-11 02:27:00,37.0,27.4,29.97,North,0,0.0,1.0,68,0.00,,SKC,0.00,VWS V14.01,2013-02-11 09:27:00,
2013-02-11 02:28:00,37.0,27.4,29.97,North,0,2.0,2.0,68,0.00,,SKC,0.00,VWS V14.01,2013-02-11 09:28:00,
2013-02-11 02:29:00,37.0,27.4,29.97,NNE,22,1.0,3.0,68,0.00,,SKC,0.00,VWS V14.01,2013-02-11 09:29:00,
2013-02-11 02:30:00,37.0,27.4,29.97,North,0,1.0,2.0,68,0.00,,SKC,0.00,VWS V14.01,2013-02-11 09:30:00,
2013-02-11 02:31:00,37.0,27.4,29.97,North,0,0.0,0.0,68,0.00,,SKC,0.00,VWS V14.01,2013-02-11 09:31:00,
2013-02-11 02:32:00,37.0,27.4,29.97,North,0,0.0,0.0,68,0.00,,SKC,0.00,VWS V14.01,2013-02-11 09:32:00,
2013-02-11 02:33:00,37.0,27.4,29.97,North,0,0.0,0.0,68,0.00,,SKC,0.00,VWS V14.01,2013-02-11 09:33:00,
2013-02-11 02:34:00,37.0,27.4,29.97,North,0,2.0,2.0,68,0.00,,SKC,0.00,VWS V14.01,2013-02-11 09:34:00,
2013-02-11 02:35:00,37.0,27.4,29.97,NNE,22,4.0,5.0,68,0.00,,SKC,0.00,VWS V14.01,2013-02-11 09:35:00,
2013-02-11 02:36:00,37.0,27.1,29.97,NNE,22,1.0,2.0,67,0.00,,SKC,0.00,VWS V14.01,2013-02-11 09:36:00,
2013-02-11 02:37:00,37.0,27.1,29.97,NNE,22,3.0,3.0,67,0.00,,SKC,0.00,VWS V14.01,2013-02-11 09:37:00,
2013-02-11 02:38:00,37.0,27.1,29.97,NNE,22,3.0,3.0,67,0.00,,SKC,0.00,VWS V14.01,2013-02-11 09:38:00,
2013-02-11 02:39:00,37.0,27.1,29.97,NNE,22,3.0,3.0,67,0.00,,SKC,0.00,VWS V14.01,2013-02-11 09:39:00,
2013-02-11 02:40:00,37.0,27.1,29.97,NNE,22,1.0,1.0,67,0.00,,SKC,0.00,VWS V14.01,2013-02-11 09:40:00,
2013-02-11 02:41:00,37.0,27.1,29.97,NNW,338,1.0,1.0,67,0.00,,SKC,0.00,VWS V14.01,2013-02-11 09:41:00,
2013-02-11 02:42:00,37.0,27.1,29.97,NNW,338,2.0,3.0,67,0.00,,SKC,0.00,VWS V14.01,2013-02-11 09:42:00,
2013-02-11 02:43:00,37.0,27.1,29.97,NNW,338,1.0,1.0,67,0.00,,SKC,0.00,VWS V14.01,2013-02-11 09:43:00,
2013-02-11 02:44:00,37.0,27.1,29.97,NNW,338,0.0,0.0,67,0.00,,SKC,0.00,VWS V14.01,2013-02-11 09:44:00,
2013-02-11 02:45:00,37.0,27.4,29.97,NNW,338,0.0,0.0,68,0.00,,SKC,0.00,VWS V14.01,2013-02-11 09:45:00,
2013-02-11 02:46:00,37.0,27.1,29.97,North,0,0.0,0.0,67,0.00,,SKC,0.00,VWS V14.01,2013-02-11 09:46:00,
2013-02-11 02:47:00,37.0,27.1,29.97,North,0,1.0,2.0,67,0.00,,SKC,0.00,VWS V14.01,2013-02-11 09:47:00,
2013-02-11 02:48:00,37.0,27.1,29.97,North,0,0.0,0.0,67,0.00,,SKC,0.00,VWS V14.01,2013-02-11 09:48:00,
2013-02-11 02:49:00,37.0,27.1,29.97,North,0,0.0,0.0,67,0.00,,SKC,0.00,VWS V14.01,2013-02-11 09:49:00,
2013-02-11 02:50:00,37.0,27.1,29.97,North,0,0.0,0.0,67,0.00,,SKC,0.00,VWS V14.01,2013-02-11 09:50:00,
2013-02-11 02:51:00,37.0,27.1,29.97,NW,315,0.0,0.0,67,0.00,,SKC,0.00,VWS V14.01,2013-02-11 09:51:00,
2013-02-11 02:52:00,37.0,27.1,29.97,NW,315,2.0,3.0,67,0.00,,SKC,0.00,VWS V14.01,2013-02-11 09:52:00,
2013-02-11 02:53:00,37.0,27.1,29.97,NW,315,0.0,1.0,67,0.00,,SKC,0.00,VWS V14.01,2013-02-11 09:53:00,
2013-02-11 02:54:00,37.0,27.1,29.97,NW,315,0.0,0.0,67,0.00,,SKC,0.00,VWS V14.01,2013-02-11 09:54:00,
2013-02-11 02:55:00,37.0,27.1,29.97,NW,315,0.0,0.0,67,0.00,,SKC,0.00,VWS V14.01,2013-02-11 09:55:00,
2013-02-11 02:56:00,37.0,27.1,29.97,North,0,1.0,1.0,67,0.00,,SKC,0.00,VWS V14.01,2013-02-11 09:56:00,
2013-02-11 02:57:00,37.0,27.1,29.97,North,0,0.0,1.0,67,0.00,,SKC,0.00,VWS V14.01,2013-02-11 09:57:00,
2013-02-11 02:58:00,37.0,27.1,29.97,NNE,22,0.0,0.0,67,0.00,,SKC,0.00,VWS V14.01,2013-02-11 09:58:00,
2013-02-11 02:59:00,37.0,27.1,29.97,NNE,22,0.0,1.0,67,0.00,,SKC,0.00,VWS V14.01,2013-02-11 09:59:00,
2013-02-11 03:00:00,37.0,27.1,29.97,NNE,22,2.0,2.0,67,0.00,,SKC,0.00,VWS V14.01,2013-02-11 10:00:00,
2013-02-11 03:01:00,37.0,27.1,29.97,North,0,3.0,3.0,67,0.00,,SKC,0.00,VWS V14.01,2013-02-11 10:01:00,
2013-02-11 03:02:00,37.0,27.1,29.97,North,0,2.0,3.0,67,0.00,,SKC,0.00,VWS V14.01,2013-02-11 10:02:00,
2013-02-11 03:03:00,37.0,27.1,29.97,North,0,3.0,4.0,67,0.00,,SKC,0.00,VWS V14.01,2013-02-11 10:03:00,
2013-02-11 03:04:00,37.0,26.7,29.97,NNE,22,3.0,3.0,66,0.00,,SKC,0.00,VWS V14.01,2013-02-11 10:04:00,
2013-02-11 03:05:00,37.0,26.7,29.97,North,0,2.0,2.0,66,0.00,,SKC,0.00,VWS V14.01,2013-02-11 10:05:00,
2013-02-11 03:06:00,36.0,26.5,29.97,NNW,338,3.0,3.0,68,0.00,,SKC,0.00,VWS V14.01,2013-02-11 10:06:00,
2013-02-11 03:07:00,37.0,27.1,29.97,NW,315,3.0,3.0,67,0.00,,SKC,0.00,VWS V14.01,2013-02-11 10:07:00,
2013-02-11 03:08:00,36.0,26.1,29.97,NW,315,2.0,3.0,67,0.00,,SKC,0.00,VWS V14.01,2013-02-11 10:08:00,
2013-02-11 03:09:00,36.0,26.5,29.97,NW,315,3.0,3.0,68,0.00,,SKC,0.00,VWS V14.01,2013-02-11 10:09:00,
2013-02-11 03:10:00,36.0,26.5,29.97,NNW,338,3.0,3.0,68,0.00,,SKC,0.00,VWS V14.01,2013-02-11 10:10:00,
2013-02-11 03:11:00,36.0,26.5,29.97,NNW,338,0.0,1.0,68,0.00,,SKC,0.00,VWS V14.01,2013-02-11 10:11:00,
2013-02-11 03:12:00,36.0,26.8,29.97,NNW,338,1.0,2.0,69,0.00,,SKC,0.00,VWS V14.01,2013-02-11 10:12:00,
2013-02-11 03:13:00,36.0,26.8,29.97,NNW,338,1.0,1.0,69,0.00,,SKC,0.00,VWS V14.01,2013-02-11 10:13:00,
2013-02-11 03:14:00,36.0,26.5,29.97,NNW,338,0.0,0.0,68,0.00,,SKC,0.00,VWS V14.01,2013-02-11 10:14:00,
2013-02-11 03:15:00,36.0,26.5,29.97,North,0,0.0,0.0,68,0.00,,SKC,0.00,VWS V14.01,2013-02-11 10:15:00,
2013-02-11 03:16:00,36.0,26.5,29.97,North,0,0.0,0.0,68,0.00,,SKC,0.00,VWS V14.01,2013-02-11 10:16:00,
2013-02-11 03:17:00,36.0,26.5,29.96,NNE,22,3.0,3.0,68,0.00,,SKC,0.00,VWS V14.01,2013-02-11 10:17:00,
2013-02-11 03:18:00,36.0,26.1,29.96,NNE,22,1.0,1.0,67,0.00,,SKC,0.00,VWS V14.01,2013-02-11 10:18:00,
2013-02-11 03:19:00,36.0,26.5,29.97,NNW,338,0.0,1.0,68,0.00,,SKC,0.00,VWS V14.01,2013-02-11 10:19:00,
2013-02-11 03:20:00,36.0,26.5,29.96,NW,315,0.0,0.0,68,0.00,,SKC,0.00,VWS V14.01,2013-02-11 10:20:00,
2013-02-11 03:21:00,36.0,26.5,29.96,North,0,0.0,0.0,68,0.00,,SKC,0.00,VWS V14.01,2013-02-11 10:21:00,
2013-02-11 03:22:00,36.0,26.5,29.96,NNW,338,0.0,0.0,68,0.00,,SKC,0.00,VWS V14.01,2013-02-11 10:22:00,
2013-02-11 03:23:00,36.0,26.5,29.96,NNE,22,0.0,1.0,68,0.00,,SKC,0.00,VWS V14.01,2013-02-11 10:23:00,
2013-02-11 03:24:00,36.0,26.5,29.96,North,0,0.0,0.0,68,0.00,,SKC,0.00,VWS V14.01,2013-02-11 10:24:00,
2013-02-11 03:25:00,36.0,26.5,29.96,North,0,0.0,0.0,68,0.00,,SKC,0.00,VWS V14.01,2013-02-11 10:25:00,
2013-02-11 03:26:00,37.0,26.7,29.96,North,0,3.0,3.0,66,0.00,,SKC,0.00,VWS V14.01,2013-02-11 10:26:00,
2013-02-11 03:27:00,37.0,27.1,29.96,North,0,1.0,2.0,67,0.00,,SKC,0.00,VWS V14.01,2013-02-11 10:27:00,
2013-02-11 03:28:00,37.0,27.1,29.96,North,0,3.0,3.0,67,0.00,,SKC,0.00,VWS V14.01,2013-02-11 10:28:00,
2013-02-11 03:29:00,37.0,26.7,29.96,NNW,338,1.0,2.0,66,0.00,,SKC,0.00,VWS V14.01,2013-02-11 10:29:00,
2013-02-11 03:30:00,37.0,26.7,29.96,North,0,0.0,0.0,66,0.00,,SKC,0.00,VWS V14.01,2013-02-11 10:30:00,
2013-02-11 03:31:00,37.0,26.7,29.96,SE,135,0.0,0.0,66,0.00,,SKC,0.00,VWS V14.01,2013-02-11 10:31:00,
2013-02-11 03:32:00,37.0,26.7,29.96,North,0,0.0,0.0,66,0.00,,SKC,0.00,VWS V14.01,2013-02-11 10:32:00,
2013-02-11 03:33:00,37.0,26.7,29.96,North,0,0.0,0.0,66,0.00,,SKC,0.00,VWS V14.01,2013-02-11 10:33:00,
2013-02-11 03:34:00,37.0,27.1,29.96,SE,135,2.0,2.0,67,0.00,,SKC,0.00,VWS V14.01,2013-02-11 10:34:00,
2013-02-11 03:35:00,36.0,26.1,29.96,ENE,68,2.0,2.0,67,0.00,,SKC,0.00,VWS V14.01,2013-02-11 10:35:00,
2013-02-11 03:36:00,36.0,26.8,29.96,ENE,68,0.0,0.0,69,0.00,,SKC,0.00,VWS V14.01,2013-02-11 10:36:00,
2013-02-11 03:37:00,36.0,26.5,29.96,ENE,68,0.0,0.0,68,0.00,,SKC,0.00,VWS V14.01,2013-02-11 10:37:00,
2013-02-11 03:38:00,36.0,26.5,29.96,ENE,68,0.0,0.0,68,0.00,,SKC,0.00,VWS V14.01,2013-02-11 10:38:00,
2013-02-11 03:39:00,36.0,26.8,29.96,ENE,68,0.0,0.0,69,0.00,,SKC,0.00,VWS V14.01,2013-02-11 10:39:00,
2013-02-11 03:40:00,36.0,26.8,29.96,ENE,68,0.0,0.0,69,0.00,,SKC,0.00,VWS V14.01,2013-02-11 10:40:00,
2013-02-11 03:41:00,35.0,26.2,29.96,North,0,3.0,3.0,70,0.00,,SKC,0.00,VWS V14.01,2013-02-11 10:41:00,
2013-02-11 03:42:00,35.0,26.2,29.96,ENE,68,0.0,0.0,70,0.00,,SKC,0.00,VWS V14.01,2013-02-11 10:42:00,
2013-02-11 03:43:00,35.0,26.2,29.96,NNE,22,3.0,3.0,70,0.00,,SKC,0.00,VWS V14.01,2013-02-11 10:43:00,
2013-02-11 03:44:00,35.0,26.2,29.96,North,0,3.0,3.0,70,0.00,,SKC,0.00,VWS V14.01,2013-02-11 10:44:00,
2013-02-11 03:45:00,35.0,26.2,29.96,North,0,3.0,3.0,70,0.00,,SKC,0.00,VWS V14.01,2013-02-11 10:45:00,
2013-02-11 03:46:00,35.0,26.2,29.96,North,0,4.0,4.0,70,0.00,,SKC,0.00,VWS V14.01,2013-02-11 10:46:00,
2013-02-11 03:47:00,35.0,26.2,29.96,North,0,3.0,3.0,70,0.00,,SKC,0.00,VWS V14.01,2013-02-11 10:47:00,
2013-02-11 03:48:00,35.0,26.2,29.96,North,0,3.0,3.0,70,0.00,,SKC,0.00,VWS V14.01,2013-02-11 10:48:00,
2013-02-11 03:49:00,35.0,26.2,29.96,NNE,22,3.0,4.0,70,0.00,,SKC,0.00,VWS V14.01,2013-02-11 10:49:00,
2013-02-11 03:50:00,35.0,26.2,29.96,North,0,3.0,4.0,70,0.00,,SKC,0.00,VWS V14.01,2013-02-11 10:50:00,
2013-02-11 03:51:00,36.0,26.8,29.96,North,0,0.0,0.0,69,0.00,,SKC,0.00,VWS V14.01,2013-02-11 10:51:00,
2013-02-11 03:52:00,36.0,26.8,29.96,North,0,1.0,1.0,69,0.00,,SKC,0.00,VWS V14.01,2013-02-11 10:52:00,
2013-02-11 03:53:00,36.0,26.8,29.96,North,0,1.0,1.0,69,0.00,,SKC,0.00,VWS V14.01,2013-02-11 10:53:00,
2013-02-11 03:54:00,36.0,26.8,29.96,North,0,0.0,0.0,69,0.00,,SKC,0.00,VWS V14.01,2013-02-11 10:54:00,
2013-02-11 03:55:00,36.0,26.8,29.96,NNW,338,0.0,0.0,69,0.00,,SKC,0.00,VWS V14.01,2013-02-11 10:55:00,
2013-02-11 03:56:00,36.0,26.5,29.96,North,0,1.0,1.0,68,0.00,,SKC,0.00,VWS V14.01,2013-02-11 10:56:00,
2013-02-11 03:57:00,36.0,26.8,29.96,North,0,5.0,5.0,69,0.00,,SKC,0.00,VWS V14.01,2013-02-11 10:57:00,
2013-02-11 03:58:00,36.0,26.5,29.96,NNE,22,2.0,3.0,68,0.00,,SKC,0.00,VWS V14.01,2013-02-11 10:58:00,
2013-02-11 03:59:00,36.0,26.5,29.96,North,0,1.0,1.0,68,0.00,,SKC,0.00,VWS V14.01,2013-02-11 10:59:00,
2013-02-11 04:00:00,36.0,26.1,29.96,North,0,1.0,1.0,67,0.00,,SKC,0.00,VWS V14.01,2013-02-11 11:00:00,
2013-02-11 04:01:00,37.0,26.7,29.96,North,0,3.0,3.0,66,0.00,,SKC,0.00,VWS V14.01,2013-02-11 11:01:00,
2013-02-11 04:02:00,37.0,27.1,29.96,NNE,22,3.0,5.0,67,0.00,,SKC,0.00,VWS V14.01,2013-02-11 11:02:00,
2013-02-11 04:03:00,37.0,26.7,29.96,North,0,3.0,4.0,66,0.00,,SKC,0.00,VWS V14.01,2013-02-11 11:03:00,
2013-02-11 04:04:00,37.0,26.7,29.96,North,0,3.0,3.0,66,0.00,,SKC,0.00,VWS V14.01,2013-02-11 11:04:00,
2013-02-11 04:05:00,37.0,26.7,29.96,North,0,2.0,3.0,66,0.00,,SKC,0.00,VWS V14.01,2013-02-11 11:05:00,
2013-02-11 04:06:00,37.0,26.7,29.96,North,0,0.0,0.0,66,0.00,,SKC,0.00,VWS V14.01,2013-02-11 11:06:00,
2013-02-11 04:07:00,37.0,26.3,29.96,North,0,0.0,0.0,65,0.00,,SKC,0.00,VWS V14.01,2013-02-11 11:07:00,
2013-02-11 04:08:00,37.0,26.3,29.96,North,0,0.0,0.0,65,0.00,,SKC,0.00,VWS V14.01,2013-02-11 11:08:00,
2013-02-11 04:09:00,37.0,26.7,29.96,North,0,0.0,0.0,66,0.00,,SKC,0.00,VWS V14.01,2013-02-11 11:09:00,
2013-02-11 04:10:00,37.0,26.7,29.96,North,0,0.0,0.0,66,0.00,,SKC,0.00,VWS V14.01,2013-02-11 11:10:00,
2013-02-11 04:11:00,36.0,26.1,29.96,NNE,22,0.0,0.0,67,0.00,,SKC,0.00,VWS V14.01,2013-02-11 11:11:00,
2013-02-11 04:12:00,37.0,27.1,29.96,North,0,0.0,0.0,67,0.00,,SKC,0.00,VWS V14.01,2013-02-11 11:12:00,
2013-02-11 04:13:00,36.0,26.1,29.96,NNE,22,0.0,0.0,67,0.00,,SKC,0.00,VWS V14.01,2013-02-11 11:13:00,
2013-02-11 04:14:00,36.0,26.1,29.96,NNE,22,0.0,0.0,67,0.00,,SKC,0.00,VWS V14.01,2013-02-11 11:14:00,
2013-02-11 04:15:00,36.0,26.1,29.96,North,0,0.0,0.0,67,0.00,,SKC,0.00,VWS V14.01,2013-02-11 11:15:00,
2013-02-11 04:16:00,36.0,26.5,29.96,North,0,0.0,0.0,68,0.00,,SKC,0.00,VWS V14.01,2013-02-11 11:16:00,
2013-02-11 04:17:00,36.0,26.5,29.96,North,0,0.0,0.0,68,0.00,,SKC,0.00,VWS V14.01,2013-02-11 11:17:00,
2013-02-11 04:18:00,36.0,26.5,29.96,North,0,0.0,0.0,68,0.00,,SKC,0.00,VWS V14.01,2013-02-11 11:18:00,
2013-02-11 04:19:00,36.0,26.5,29.96,North,0,0.0,0.0,68,0.00,,SKC,0.00,VWS V14.01,2013-02-11 11:19:00,
2013-02-11 04:20:00,35.0,25.9,29.96,North,0,0.0,0.0,69,0.00,,SKC,0.00,VWS V14.01,2013-02-11 11:20:00,
2013-02-11 04:21:00,35.0,26.2,29.96,NNE,22,0.0,0.0,70,0.00,,SKC,0.00,VWS V14.01,2013-02-11 11:21:00,
2013-02-11 04:22:00,35.0,25.9,29.96,North,0,0.0,0.0,69,0.00,,SKC,0.00,VWS V14.01,2013-02-11 11:22:00,
2013-02-11 04:23:00,35.0,26.2,29.96,NNE,22,0.0,0.0,70,0.00,,SKC,0.00,VWS V14.01,2013-02-11 11:23:00,
2013-02-11 04:24:00,35.0,26.2,29.96,NNE,22,0.0,0.0,70,0.00,,SKC,0.00,VWS V14.01,2013-02-11 11:24:00,
2013-02-11 04:25:00,35.0,26.2,29.96,NNE,22,0.0,0.0,70,0.00,,SKC,0.00,VWS V14.01,2013-02-11 11:25:00,
2013-02-11 04:26:00,35.0,26.6,29.96,NNE,22,0.0,0.0,71,0.00,,SKC,0.00,VWS V14.01,2013-02-11 11:26:00,
2013-02-11 04:27:00,35.0,26.6,29.96,NNE,22,0.0,0.0,71,0.00,,SKC,0.00,VWS V14.01,2013-02-11 11:27:00,
2013-02-11 04:28:00,35.0,26.6,29.96,NNE,22,0.0,0.0,71,0.00,,SKC,0.00,VWS V14.01,2013-02-11 11:28:00,
2013-02-11 04:29:00,35.0,26.6,29.96,NNE,22,0.0,0.0,71,0.00,,SKC,0.00,VWS V14.01,2013-02-11 11:29:00,
2013-02-11 04:30:00,35.0,26.6,29.96,NNE,22,0.0,0.0,71,0.00,,SKC,0.00,VWS V14.01,2013-02-11 11:30:00,
2013-02-11 04:31:00,35.0,26.6,29.96,NNE,22,0.0,1.0,71,0.00,,SKC,0.00,VWS V14.01,2013-02-11 11:31:00,
2013-02-11 04:32:00,35.0,26.6,29.96,NNE,22,0.0,0.0,71,0.00,,SKC,0.00,VWS V14.01,2013-02-11 11:32:00,
2013-02-11 04:33:00,35.0,26.6,29.96,NNE,22,0.0,0.0,71,0.00,,SKC,0.00,VWS V14.01,2013-02-11 11:33:00,
2013-02-11 04:34:00,35.0,26.6,29.96,NNE,22,0.0,1.0,71,0.00,,SKC,0.00,VWS V14.01,2013-02-11 11:34:00,
2013-02-11 04:35:00,35.0,26.6,29.96,NNE,22,0.0,0.0,71,0.00,,SKC,0.00,VWS V14.01,2013-02-11 11:35:00,
2013-02-11 04:36:00,35.0,26.6,29.96,North,0,3.0,3.0,71,0.00,,SKC,0.00,VWS V14.01,2013-02-11 11:36:00,
2013-02-11 04:37:00,35.0,26.6,29.96,NNE,22,3.0,3.0,71,0.00,,SKC,0.00,VWS V14.01,2013-02-11 11:37:00,
2013-02-11 04:38:00,35.0,26.6,29.96,North,0,3.0,3.0,71,0.00,,SKC,0.00,VWS V14.01,2013-02-11 11:38:00,
2013-02-11 04:39:00,35.0,26.6,29.96,North,0,3.0,3.0,71,0.00,,SKC,0.00,VWS V14.01,2013-02-11 11:39:00,
2013-02-11 04:40:00,35.0,26.6,29.96,NNE,22,4.0,4.0,71,0.00,,SKC,0.00,VWS V14.01,2013-02-11 11:40:00,
2013-02-11 04:41:00,35.0,26.6,29.96,East,90,0.0,0.0,71,0.00,,SKC,0.00,VWS V14.01,2013-02-11 11:41:00,
2013-02-11 04:42:00,35.0,26.6,29.96,North,0,1.0,3.0,71,0.00,,SKC,0.00,VWS V14.01,2013-02-11 11:42:00,
2013-02-11 04:43:00,35.0,26.6,29.96,North,0,0.0,0.0,71,0.00,,SKC,0.00,VWS V14.01,2013-02-11 11:43:00,
2013-02-11 04:44:00,35.0,26.6,29.96,South,180,1.0,1.0,71,0.00,,SKC,0.00,VWS V14.01,2013-02-11 11:44:00,
2013-02-11 04:45:00,35.0,26.6,29.96,SE,135,0.0,1.0,71,0.00,,SKC,0.00,VWS V14.01,2013-02-11 11:45:00,
2013-02-11 04:46:00,34.0,25.9,29.96,SE,135,0.0,0.0,72,0.00,,SKC,0.00,VWS V14.01,2013-02-11 11:46:00,
2013-02-11 04:47:00,35.0,26.9,29.96,SE,135,0.0,0.0,72,0.00,,SKC,0.00,VWS V14.01,2013-02-11 11:47:00,
2013-02-11 04:48:00,35.0,26.9,29.96,SE,135,0.0,0.0,72,0.00,,SKC,0.00,VWS V14.01,2013-02-11 11:48:00,
2013-02-11 04:49:00,34.0,25.9,29.96,SE,135,0.0,0.0,72,0.00,,SKC,0.00,VWS V14.01,2013-02-11 11:49:00,
2013-02-11 04:50:00,34.0,25.9,29.96,SE,135,0.0,0.0,72,0.00,,SKC,0.00,VWS V14.01,2013-02-11 11:50:00,
2013-02-11 04:51:00,34.0,26.3,29.96,SE,135,0.0,0.0,73,0.00,,SKC,0.00,VWS V14.01,2013-02-11 11:51:00,
2013-02-11 04:52:00,34.0,25.9,29.96,SE,135,0.0,0.0,72,0.00,,SKC,0.00,VWS V14.01,2013-02-11 11:52:00,
2013-02-11 04:53:00,34.0,26.3,29.96,SE,135,0.0,0.0,73,0.00,,SKC,0.00,VWS V14.01,2013-02-11 11:53:00,
2013-02-11 04:54:00,34.0,26.3,29.96,SE,135,0.0,0.0,73,0.00,,SKC,0.00,VWS V14.01,2013-02-11 11:54:00,
2013-02-11 04:55:00,34.0,26.3,29.96,NNE,22,0.0,0.0,73,0.00,,SKC,0.00,VWS V14.01,2013-02-11 11:55:00,
2013-02-11 04:56:00,34.0,26.3,29.96,NNE,22,0.0,1.0,73,0.00,,SKC,0.00,VWS V14.01,2013-02-11 11:56:00,
2013-02-11 04:57:00,34.0,26.3,29.96,NNE,22,3.0,4.0,73,0.00,,SKC,0.00,VWS V14.01,2013-02-11 11:57:00,
2013-02-11 04:58:00,34.0,26.3,29.96,NNE,22,3.0,4.0,73,0.00,,SKC,0.00,VWS V14.01,2013-02-11 11:58:00,
2013-02-11 04:59:00,34.0,26.3,29.96,NNE,22,3.0,4.0,73,0.00,,SKC,0.00,VWS V14.01,2013-02-11 11:59:00,
2013-02-11 05:00:00,34.0,26.3,29.96,NNE,22,4.0,4.0,73,0.00,,SKC,0.00,VWS V14.01,2013-02-11 12:00:00,
2013-02-11 05:01:00,34.0,25.9,29.96,North,0,2.0,3.0,72,0.00,,SKC,0.00,VWS V14.01,2013-02-11 12:01:00,
2013-02-11 05:02:00,35.0,26.9,29.96,North,0,3.0,4.0,72,0.00,,SKC,0.00,VWS V14.01,2013-02-11 12:02:00,
2013-02-11 05:03:00,35.0,26.9,29.96,North,0,2.0,3.0,72,0.00,,SKC,0.00,VWS V14.01,2013-02-11 12:03:00,
2013-02-11 05:04:00,35.0,26.9,29.96,North,0,3.0,4.0,72,0.00,,SKC,0.00,VWS V14.01,2013-02-11 12:04:00,
2013-02-11 05:05:00,35.0,26.6,29.96,NNW,338,2.0,3.0,71,0.00,,SKC,0.00,VWS V14.01,2013-02-11 12:05:00,
2013-02-11 05:06:00,35.0,26.6,29.96,NNW,338,3.0,5.0,71,0.00,,SKC,0.00,VWS V14.01,2013-02-11 12:06:00,
2013-02-11 05:07:00,35.0,26.6,29.96,North,0,3.0,5.0,71,0.00,,SKC,0.00,VWS V14.01,2013-02-11 12:07:00,
2013-02-11 05:08:00,35.0,26.6,29.96,NNE,22,1.0,2.0,71,0.00,,SKC,0.00,VWS V14.01,2013-02-11 12:08:00,
2013-02-11 05:09:00,35.0,26.6,29.96,North,0,3.0,5.0,71,0.00,,SKC,0.00,VWS V14.01,2013-02-11 12:09:00,
2013-02-11 05:10:00,35.0,26.6,29.96,NNE,22,5.0,5.0,71,0.00,,SKC,0.00,VWS V14.01,2013-02-11 12:10:00,
2013-02-11 05:11:00,35.0,26.2,29.96,NNE,22,5.0,5.0,70,0.00,,SKC,0.00,VWS V14.01,2013-02-11 12:11:00,
2013-02-11 05:12:00,36.0,26.8,29.96,North,0,3.0,3.0,69,0.00,,SKC,0.00,VWS V14.01,2013-02-11 12:12:00,
2013-02-11 05:13:00,35.0,26.2,29.96,North,0,4.0,5.0,70,0.00,,SKC,0.00,VWS V14.01,2013-02-11 12:13:00,
2013-02-11 05:14:00,36.0,26.8,29.96,North,0,3.0,3.0,69,0.00,,SKC,0.00,VWS V14.01,2013-02-11 12:14:00,
2013-02-11 05:15:00,36.0,26.8,29.96,North,0,1.0,1.0,69,0.00,,SKC,0.00,VWS V14.01,2013-02-11 12:15:00,
2013-02-11 05:16:00,36.0,26.8,29.96,North,0,2.0,3.0,69,0.00,,SKC,0.00,VWS V14.01,2013-02-11 12:16:00,
2013-02-11 05:17:00,36.0,26.5,29.96,North,0,1.0,1.0,68,0.00,,SKC,0.00,VWS V14.01,2013-02-11 12:17:00,
2013-02-11 05:18:00,36.0,26.8,29.96,North,0,2.0,3.0,69,0.00,,SKC,0.00,VWS V14.01,2013-02-11 12:18:00,
2013-02-11 05:19:00,36.0,26.5,29.96,North,0,1.0,1.0,68,0.00,,SKC,0.00,VWS V14.01,2013-02-11 12:19:00,
2013-02-11 05:20:00,36.0,26.5,29.96,North,0,2.0,2.0,68,0.00,,SKC,0.00,VWS V14.01,2013-02-11 12:20:00,
2013-02-11 05:21:00,35.0,25.9,29.96,NNE,22,1.0,1.0,69,0.00,,SKC,0.00,VWS V14.01,2013-02-11 12:21:00,
2013-02-11 05:22:00,36.0,26.8,29.96,North,0,0.0,1.0,69,0.00,,SKC,0.00,VWS V14.01,2013-02-11 12:22:00,
2013-02-11 05:23:00,36.0,26.8,29.96,North,0,3.0,3.0,69,0.00,,SKC,0.00,VWS V14.01,2013-02-11 12:23:00,
2013-02-11 05:24:00,36.0,26.8,29.96,North,0,2.0,2.0,69,0.00,,SKC,0.00,VWS V14.01,2013-02-11 12:24:00,
2013-02-11 05:25:00,36.0,26.8,29.96,North,0,0.0,0.0,69,0.00,,SKC,0.00,VWS V14.01,2013-02-11 12:25:00,
2013-02-11 05:26:00,36.0,26.8,29.96,North,0,2.0,2.0,69,0.00,,SKC,0.00,VWS V14.01,2013-02-11 12:26:00,
2013-02-11 05:27:00,36.0,26.1,29.96,North,0,0.0,0.0,67,0.00,,SKC,0.00,VWS V14.01,2013-02-11 12:27:00,
2013-02-11 05:28:00,36.0,26.5,29.96,North,0,3.0,3.0,68,0.00,,SKC,0.00,VWS V14.01,2013-02-11 12:28:00,
2013-02-11 05:29:00,36.0,26.1,29.96,North,0,1.0,1.0,67,0.00,,SKC,0.00,VWS V14.01,2013-02-11 12:29:00,
2013-02-11 05:30:00,36.0,26.1,29.97,North,0,0.0,0.0,67,0.00,,SKC,0.00,VWS V14.01,2013-02-11 12:30:00,
2013-02-11 05:31:00,36.0,25.8,29.97,North,0,0.0,0.0,66,0.00,,SKC,0.00,VWS V14.01,2013-02-11 12:31:00,
2013-02-11 05:32:00,36.0,26.5,29.97,SE,135,0.0,0.0,68,0.00,,SKC,0.00,VWS V14.01,2013-02-11 12:32:00,
2013-02-11 05:33:00,36.0,26.1,29.97,SSE,158,0.0,0.0,67,0.00,,SKC,0.00,VWS V14.01,2013-02-11 12:33:00,
2013-02-11 05:34:00,36.0,26.1,29.97,SSE,158,0.0,0.0,67,0.00,,SKC,0.00,VWS V14.01,2013-02-11 12:34:00,
2013-02-11 05:35:00,36.0,26.5,29.97,ENE,68,1.0,2.0,68,0.00,,SKC,0.00,VWS V14.01,2013-02-11 12:35:00,
2013-02-11 05:36:00,35.0,25.5,29.97,ENE,68,2.0,3.0,68,0.00,,SKC,0.00,VWS V14.01,2013-02-11 12:36:00,
2013-02-11 05:37:00,34.0,25.3,29.97,ENE,68,3.0,3.0,70,0.00,,SKC,0.00,VWS V14.01,2013-02-11 12:37:00,
2013-02-11 05:38:00,35.0,25.9,29.97,ESE,112,1.0,2.0,69,0.00,,SKC,0.00,VWS V14.01,2013-02-11 12:38:00,
2013-02-11 05:39:00,35.0,26.2,29.97,ENE,68,2.0,3.0,70,0.00,,SKC,0.00,VWS V14.01,2013-02-11 12:39:00,
2013-02-11 05:40:00,34.0,25.6,29.97,NE,45,1.0,1.0,71,0.00,,SKC,0.00,VWS V14.01,2013-02-11 12:40:00,
2013-02-11 05:41:00,34.0,25.6,29.97,NE,45,0.0,1.0,71,0.00,,SKC,0.00,VWS V14.01,2013-02-11 12:41:00,
2013-02-11 05:42:00,33.0,25.3,29.97,NNE,22,0.0,1.0,73,0.00,,SKC,0.00,VWS V14.01,2013-02-11 12:42:00,
2013-02-11 05:43:00,33.0,25.3,29.97,NNE,22,0.0,0.0,73,0.00,,SKC,0.00,VWS V14.01,2013-02-11 12:43:00,
2013-02-11 05:44:00,33.0,25.3,29.97,NNE,22,0.0,0.0,73,0.00,,SKC,0.00,VWS V14.01,2013-02-11 12:44:00,
2013-02-11 05:45:00,33.0,25.6,29.97,NE,45,0.0,0.0,74,0.00,,SKC,0.00,VWS V14.01,2013-02-11 12:45:00,
2013-02-11 05:46:00,33.0,25.6,29.97,NE,45,0.0,0.0,74,0.00,,SKC,0.00,VWS V14.01,2013-02-11 12:46:00,
2013-02-11 05:47:00,33.0,26.0,29.97,NNE,22,4.0,5.0,75,0.00,,SKC,0.00,VWS V14.01,2013-02-11 12:47:00,
2013-02-11 05:48:00,33.0,25.6,29.97,North,0,2.0,3.0,74,0.00,,SKC,0.00,VWS V14.01,2013-02-11 12:48:00,
2013-02-11 05:49:00,33.0,26.0,29.97,North,0,3.0,5.0,75,0.00,,SKC,0.00,VWS V14.01,2013-02-11 12:49:00,
2013-02-11 05:50:00,33.0,26.0,29.97,North,0,3.0,3.0,75,0.00,,SKC,0.00,VWS V14.01,2013-02-11 12:50:00,
2013-02-11 05:51:00,33.0,26.0,29.98,NNE,22,3.0,5.0,75,0.00,,SKC,0.00,VWS V14.01,2013-02-11 12:51:00,
2013-02-11 05:52:00,33.0,26.0,29.98,NW,315,3.0,3.0,75,0.00,,SKC,0.00,VWS V14.01,2013-02-11 12:52:00,
2013-02-11 05:53:00,33.0,26.0,29.98,NNE,22,3.0,3.0,75,0.00,,SKC,0.00,VWS V14.01,2013-02-11 12:53:00,
2013-02-11 05:54:00,33.0,26.0,29.98,North,0,4.0,5.0,75,0.00,,SKC,0.00,VWS V14.01,2013-02-11 12:54:00,
2013-02-11 05:55:00,33.0,26.3,29.98,North,0,5.0,5.0,76,0.00,,SKC,0.00,VWS V14.01,2013-02-11 12:55:00,
2013-02-11 05:56:00,33.0,26.3,29.98,NNE,22,3.0,3.0,76,0.00,,SKC,0.00,VWS V14.01,2013-02-11 12:56:00,
2013-02-11 05:57:00,33.0,26.3,29.98,North,0,3.0,4.0,76,0.00,,SKC,0.00,VWS V14.01,2013-02-11 12:57:00,
2013-02-11 05:58:00,33.0,26.3,29.98,North,0,3.0,5.0,76,0.00,,SKC,0.00,VWS V14.01,2013-02-11 12:58:00,
2013-02-11 05:59:00,33.0,26.3,29.98,North,0,3.0,3.0,76,0.00,,SKC,0.00,VWS V14.01,2013-02-11 12:59:00,
2013-02-11 06:00:00,33.0,26.3,29.98,North,0,5.0,5.0,76,0.00,,SKC,0.00,VWS V14.01,2013-02-11 13:00:00,
2013-02-11 06:01:00,33.0,26.3,29.98,NNE,22,3.0,3.0,76,0.00,,SKC,0.00,VWS V14.01,2013-02-11 13:01:00,
2013-02-11 06:02:00,33.0,26.6,29.98,NNE,22,4.0,6.0,77,0.00,,SKC,0.00,VWS V14.01,2013-02-11 13:02:00,
2013-02-11 06:03:00,33.0,26.6,29.98,North,0,5.0,5.0,77,0.00,,SKC,0.00,VWS V14.01,2013-02-11 13:03:00,
2013-02-11 06:04:00,33.0,26.6,29.98,NNE,22,5.0,5.0,77,0.00,,SKC,0.00,VWS V14.01,2013-02-11 13:04:00,
2013-02-11 06:05:00,33.0,26.6,29.98,NNE,22,3.0,6.0,77,0.00,,SKC,0.00,VWS V14.01,2013-02-11 13:05:00,
2013-02-11 06:06:00,33.0,26.6,29.98,North,0,3.0,5.0,77,0.00,,SKC,0.00,VWS V14.01,2013-02-11 13:06:00,
2013-02-11 06:07:00,33.0,26.6,29.98,NNW,338,3.0,4.0,77,0.00,,SKC,0.00,VWS V14.01,2013-02-11 13:07:00,
2013-02-11 06:08:00,33.0,26.6,29.98,North,0,4.0,5.0,77,0.00,,SKC,0.00,VWS V14.01,2013-02-11 13:08:00,
2013-02-11 06:09:00,33.0,26.6,29.98,North,0,5.0,5.0,77,0.00,,SKC,0.00,VWS V14.01,2013-02-11 13:09:00,
2013-02-11 06:10:00,33.0,26.6,29.98,North,0,3.0,4.0,77,0.00,,SKC,0.00,VWS V14.01,2013-02-11 13:10:00,
2013-02-11 06:11:00,33.0,26.6,29.98,North,0,5.0,6.0,77,0.00,,SKC,0.00,VWS V14.01,2013-02-11 13:11:00,
2013-02-11 06:12:00,33.0,26.3,29.98,North,0,5.0,6.0,76,0.00,,SKC,0.00,VWS V14.01,2013-02-11 13:12:00,
2013-02-11 06:13:00,33.0,26.6,29.98,NNW,338,5.0,6.0,77,0.00,,SKC,0.00,VWS V14.01,2013-02-11 13:13:00,
2013-02-11 06:14:00,33.0,26.3,29.98,North,0,4.0,5.0,76,0.00,,SKC,0.00,VWS V14.01,2013-02-11 13:14:00,
2013-02-11 06:15:00,33.0,26.3,29.98,NNE,22,6.0,6.0,76,0.00,,SKC,0.00,VWS V14.01,2013-02-11 13:15:00,
2013-02-11 06:16:00,34.0,26.9,29.98,North,0,3.0,5.0,75,0.00,,SKC,0.00,VWS V14.01,2013-02-11 13:16:00,
2013-02-11 06:17:00,34.0,26.6,29.98,NNE,22,0.0,0.0,74,0.00,,SKC,0.00,VWS V14.01,2013-02-11 13:17:00,
2013-02-11 06:18:00,34.0,26.9,29.98,North,0,4.0,5.0,75,0.00,,SKC,0.00,VWS V14.01,2013-02-11 13:18:00,
2013-02-11 06:19:00,34.0,26.6,29.98,NNE,22,1.0,1.0,74,0.00,,SKC,0.00,VWS V14.01,2013-02-11 13:19:00,
2013-02-11 06:20:00,34.0,26.6,29.98,ESE,112,0.0,0.0,74,0.00,,SKC,0.00,VWS V14.01,2013-02-11 13:20:00,
2013-02-11 06:21:00,34.0,26.6,29.98,ESE,112,0.0,0.0,74,0.00,,SKC,0.00,VWS V14.01,2013-02-11 13:21:00,
2013-02-11 06:22:00,34.0,26.6,29.99,East,90,0.0,0.0,74,0.00,,SKC,0.00,VWS V14.01,2013-02-11 13:22:00,
2013-02-11 06:23:00,34.0,26.6,29.98,NE,45,0.0,0.0,74,0.00,,SKC,0.00,VWS V14.01,2013-02-11 13:23:00,
2013-02-11 06:24:00,34.0,26.6,29.99,NE,45,0.0,0.0,74,0.00,,SKC,0.00,VWS V14.01,2013-02-11 13:24:00,
2013-02-11 06:25:00,34.0,26.6,29.99,East,90,0.0,0.0,74,0.00,,SKC,0.00,VWS V14.01,2013-02-11 13:25:00,
2013-02-11 06:26:00,34.0,26.6,29.99,East,90,0.0,0.0,74,0.00,,SKC,0.00,VWS V14.01,2013-02-11 13:26:00,
2013-02-11 06:27:00,34.0,26.6,29.99,East,90,0.0,0.0,74,0.00,,SKC,0.00,VWS V14.01,2013-02-11 13:27:00,
2013-02-11 06:28:00,34.0,26.6,29.99,East,90,0.0,0.0,74,0.00,,SKC,0.00,VWS V14.01,2013-02-11 13:28:00,
2013-02-11 06:29:00,34.0,26.6,29.99,East,90,0.0,0.0,74,0.00,,SKC,0.00,VWS V14.01,2013-02-11 13:29:00,
2013-02-11 06:30:00,33.0,25.6,29.99,East,90,0.0,0.0,74,0.00,,SKC,0.00,VWS V14.01,2013-02-11 13:30:00,
2013-02-11 06:31:00,33.0,26.0,29.99,East,90,0.0,0.0,75,0.00,,SKC,0.00,VWS V14.01,2013-02-11 13:31:00,
2013-02-11 06:32:00,33.0,26.0,29.99,East,90,0.0,0.0,75,0.00,,SKC,0.00,VWS V14.01,2013-02-11 13:32:00,
2013-02-11 06:33:00,33.0,26.0,29.99,East,90,0.0,0.0,75,0.00,,SKC,0.00,VWS V14.01,2013-02-11 13:33:00,
2013-02-11 06:34:00,33.0,26.0,29.99,East,90,0.0,0.0,75,0.00,,SKC,0.00,VWS V14.01,2013-02-11 13:34:00,
2013-02-11 06:35:00,33.0,26.0,29.99,East,90,0.0,0.0,75,0.00,,SKC,0.00,VWS V14.01,2013-02-11 13:35:00,
2013-02-11 06:36:00,33.0,26.0,29.99,East,90,0.0,0.0,75,0.00,,SKC,0.00,VWS V14.01,2013-02-11 13:36:00,
2013-02-11 06:37:00,33.0,26.3,29.99,NNE,22,0.0,1.0,76,0.00,,SKC,0.00,VWS V14.01,2013-02-11 13:37:00,
2013-02-11 06:38:00,33.0,26.0,29.99,East,90,0.0,0.0,75,0.00,,SKC,0.00,VWS V14.01,2013-02-11 13:38:00,
2013-02-11 06:39:00,33.0,26.0,29.99,East,90,0.0,0.0,75,0.00,,SKC,0.00,VWS V14.01,2013-02-11 13:39:00,
2013-02-11 06:40:00,33.0,26.3,29.99,NNE,22,0.0,0.0,76,0.00,,SKC,0.00,VWS V14.01,2013-02-11 13:40:00,
2013-02-11 06:41:00,33.0,26.3,29.99,NNE,22,0.0,0.0,76,0.00,,SKC,0.00,VWS V14.01,2013-02-11 13:41:00,
2013-02-11 06:42:00,33.0,26.3,29.99,NNE,22,0.0,0.0,76,0.00,,SKC,0.00,VWS V14.01,2013-02-11 13:42:00,
2013-02-11 06:43:00,33.0,26.3,29.99,NNE,22,0.0,0.0,76,0.00,,SKC,0.00,VWS V14.01,2013-02-11 13:43:00,
2013-02-11 06:44:00,33.0,26.3,29.99,NNE,22,0.0,0.0,76,0.00,,SKC,0.00,VWS V14.01,2013-02-11 13:44:00,
2013-02-11 06:45:00,33.0,26.3,29.99,NNE,22,0.0,0.0,76,0.00,,SKC,0.00,VWS V14.01,2013-02-11 13:45:00,
2013-02-11 06:46:00,33.0,26.3,29.99,NNE,22,0.0,0.0,76,0.00,,SKC,0.00,VWS V14.01,2013-02-11 13:46:00,
2013-02-11 06:47:00,33.0,26.0,29.99,North,0,0.0,0.0,75,0.00,,SKC,0.00,VWS V14.01,2013-02-11 13:47:00,
2013-02-11 06:48:00,33.0,26.0,29.99,NNE,22,0.0,0.0,75,0.00,,SKC,0.00,VWS V14.01,2013-02-11 13:48:00,
2013-02-11 06:49:00,33.0,26.0,29.99,North,0,0.0,1.0,75,0.00,,SKC,0.00,VWS V14.01,2013-02-11 13:49:00,
2013-02-11 06:50:00,33.0,26.0,29.99,North,0,0.0,0.0,75,0.00,,SKC,0.00,VWS V14.01,2013-02-11 13:50:00,
2013-02-11 06:51:00,34.0,26.9,29.99,NNW,338,0.0,0.0,75,0.00,,SKC,0.00,VWS V14.01,2013-02-11 13:51:00,
2013-02-11 06:52:00,34.0,26.6,29.99,NW,315,3.0,5.0,74,0.00,,SKC,0.00,VWS V14.01,2013-02-11 13:52:00,
2013-02-11 06:53:00,34.0,26.6,29.99,NW,315,0.0,1.0,74,0.00,,SKC,0.00,VWS V14.01,2013-02-11 13:53:00,
2013-02-11 06:54:00,34.0,26.6,29.99,NW,315,4.0,5.0,74,0.00,,SKC,0.00,VWS V14.01,2013-02-11 13:54:00,
2013-02-11 06:55:00,34.0,26.6,29.99,NW,315,3.0,3.0,74,0.00,,SKC,0.00,VWS V14.01,2013-02-11 13:55:00,
2013-02-11 06:56:00,34.0,26.6,29.99,NW,315,3.0,3.0,74,0.00,,SKC,0.00,VWS V14.01,2013-02-11 13:56:00,
2013-02-11 06:57:00,34.0,26.6,29.99,NW,315,4.0,4.0,74,0.00,,SKC,0.00,VWS V14.01,2013-02-11 13:57:00,
2013-02-11 06:58:00,34.0,26.6,29.99,NW,315,3.0,3.0,74,0.00,,SKC,0.00,VWS V14.01,2013-02-11 13:58:00,
2013-02-11 06:59:00,34.0,26.6,29.99,NW,315,4.0,4.0,74,0.00,,SKC,0.00,VWS V14.01,2013-02-11 13:59:00,
2013-02-11 07:00:00,34.0,26.6,29.99,NW,315,3.0,4.0,74,0.00,,SKC,0.00,VWS V14.01,2013-02-11 14:00:00,
2013-02-11 07:01:00,34.0,26.6,29.99,NNW,338,3.0,4.0,74,0.00,,SKC,0.00,VWS V14.01,2013-02-11 14:01:00,
2013-02-11 07:02:00,34.0,26.3,29.99,NW,315,3.0,3.0,73,0.00,,SKC,0.00,VWS V14.01,2013-02-11 14:02:00,
2013-02-11 07:03:00,34.0,26.6,29.99,NW,315,3.0,3.0,74,0.00,,SKC,0.00,VWS V14.01,2013-02-11 14:03:00,
2013-02-11 07:04:00,34.0,26.3,29.99,NW,315,3.0,4.0,73,0.00,,SKC,0.00,VWS V14.01,2013-02-11 14:04:00,
2013-02-11 07:05:00,34.0,26.3,29.99,NW,315,2.0,3.0,73,0.00,,SKC,0.00,VWS V14.01,2013-02-11 14:05:00,
2013-02-11 07:06:00,34.0,26.3,29.99,NW,315,1.0,1.0,73,0.00,,SKC,0.00,VWS V14.01,2013-02-11 14:06:00,
2013-02-11 07:07:00,34.0,26.3,29.99,NW,315,1.0,1.0,73,0.00,,SKC,0.00,VWS V14.01,2013-02-11 14:07:00,
2013-02-11 07:08:00,34.0,26.3,29.99,NW,315,3.0,3.0,73,0.00,,SKC,0.00,VWS V14.01,2013-02-11 14:08:00,
2013-02-11 07:09:00,34.0,26.3,29.99,NW,315,2.0,3.0,73,0.00,,SKC,0.00,VWS V14.01,2013-02-11 14:09:00,
2013-02-11 07:10:00,34.0,26.3,29.99,NW,315,1.0,1.0,73,0.00,,SKC,0.00,VWS V14.01,2013-02-11 14:10:00,
2013-02-11 07:11:00,34.0,26.3,29.99,NW,315,0.0,0.0,73,0.00,,SKC,0.00,VWS V14.01,2013-02-11 14:11:00,
2013-02-11 07:12:00,34.0,26.3,30.00,NW,315,1.0,2.0,73,0.00,,SKC,0.00,VWS V14.01,2013-02-11 14:12:00,
2013-02-11 07:13:00,34.0,26.3,29.99,NW,315,3.0,3.0,73,0.00,,SKC,0.00,VWS V14.01,2013-02-11 14:13:00,
2013-02-11 07:14:00,34.0,26.3,30.00,NW,315,3.0,3.0,73,0.00,,SKC,0.00,VWS V14.01,2013-02-11 14:14:00,
2013-02-11 07:15:00,34.0,26.3,30.00,NW,315,2.0,2.0,73,0.00,,SKC,0.00,VWS V14.01,2013-02-11 14:15:00,
2013-02-11 07:16:00,34.0,26.3,30.00,NW,315,0.0,0.0,73,0.00,,SKC,0.00,VWS V14.01,2013-02-11 14:16:00,
2013-02-11 07:17:00,34.0,25.9,30.00,NW,315,0.0,1.0,72,0.00,,SKC,0.00,VWS V14.01,2013-02-11 14:17:00,
2013-02-11 07:18:00,34.0,25.9,30.00,NNW,338,0.0,0.0,72,0.00,,SKC,0.00,VWS V14.01,2013-02-11 14:18:00,
2013-02-11 07:19:00,34.0,25.9,30.00,NW,315,0.0,0.0,72,0.00,,SKC,0.00,VWS V14.01,2013-02-11 14:19:00,
2013-02-11 07:20:00,34.0,25.9,30.00,NW,315,0.0,0.0,72,0.00,,SKC,0.00,VWS V14.01,2013-02-11 14:20:00,
2013-02-11 07:21:00,34.0,26.3,30.00,NW,315,0.0,0.0,73,0.00,,SKC,0.00,VWS V14.01,2013-02-11 14:21:00,
2013-02-11 07:22:00,34.0,26.3,30.00,NW,315,0.0,0.0,73,0.00,,SKC,0.00,VWS V14.01,2013-02-11 14:22:00,
2013-02-11 07:23:00,34.0,26.3,30.00,NW,315,0.0,0.0,73,0.00,,SKC,0.00,VWS V14.01,2013-02-11 14:23:00,
2013-02-11 07:24:00,34.0,26.3,30.00,NW,315,0.0,0.0,73,0.00,,SKC,0.00,VWS V14.01,2013-02-11 14:24:00,
2013-02-11 07:25:00,34.0,26.3,30.00,NW,315,0.0,0.0,73,0.00,,SKC,0.00,VWS V14.01,2013-02-11 14:25:00,
2013-02-11 07:26:00,34.0,26.3,30.00,NW,315,0.0,0.0,73,0.00,,SKC,0.00,VWS V14.01,2013-02-11 14:26:00,
2013-02-11 07:27:00,34.0,25.9,30.00,NW,315,0.0,0.0,72,0.00,,SKC,0.00,VWS V14.01,2013-02-11 14:27:00,
2013-02-11 07:28:00,34.0,26.3,30.00,NW,315,0.0,0.0,73,0.00,,SKC,0.00,VWS V14.01,2013-02-11 14:28:00,
2013-02-11 07:29:00,34.0,25.9,30.00,NW,315,0.0,0.0,72,0.00,,SKC,0.00,VWS V14.01,2013-02-11 14:29:00,
2013-02-11 07:30:00,34.0,25.9,30.00,NW,315,0.0,0.0,72,0.00,,SKC,0.00,VWS V14.01,2013-02-11 14:30:00,
2013-02-11 07:31:00,34.0,25.9,30.00,NW,315,0.0,0.0,72,0.00,,SKC,0.00,VWS V14.01,2013-02-11 14:31:00,
2013-02-11 07:32:00,34.0,26.3,30.00,SSW,202,0.0,0.0,73,0.00,,SKC,0.00,VWS V14.01,2013-02-11 14:32:00,
2013-02-11 07:33:00,34.0,26.3,30.00,SSW,202,0.0,1.0,73,0.00,,SKC,0.00,VWS V14.01,2013-02-11 14:33:00,
2013-02-11 07:34:00,34.0,26.3,30.00,SSW,202,0.0,0.0,73,0.00,,SKC,0.00,VWS V14.01,2013-02-11 14:34:00,
2013-02-11 07:35:00,34.0,26.3,30.00,SSW,202,0.0,0.0,73,0.00,,SKC,0.00,VWS V14.01,2013-02-11 14:35:00,
2013-02-11 07:36:00,34.0,26.6,30.00,SSW,202,0.0,0.0,74,0.00,,SKC,0.00,VWS V14.01,2013-02-11 14:36:00,
2013-02-11 07:37:00,34.0,26.9,30.01,SSE,158,0.0,0.0,75,0.00,,SKC,0.00,VWS V14.01,2013-02-11 14:37:00,
2013-02-11 07:38:00,34.0,26.6,30.01,SSW,202,0.0,0.0,74,0.00,,SKC,0.00,VWS V14.01,2013-02-11 14:38:00,
2013-02-11 07:39:00,34.0,26.6,30.01,SSE,158,0.0,0.0,74,0.00,,SKC,0.00,VWS V14.01,2013-02-11 14:39:00,
2013-02-11 07:40:00,34.0,26.9,30.01,SSE,158,0.0,0.0,75,0.00,,SKC,0.00,VWS V14.01,2013-02-11 14:40:00,
2013-02-11 07:41:00,33.0,26.0,30.01,SSE,158,0.0,0.0,75,0.00,,SKC,0.00,VWS V14.01,2013-02-11 14:41:00,
2013-02-11 07:42:00,33.0,26.3,30.01,ENE,68,0.0,0.0,76,0.00,,SKC,0.00,VWS V14.01,2013-02-11 14:42:00,
2013-02-11 07:43:00,33.0,26.0,30.01,SE,135,0.0,0.0,75,0.00,,SKC,0.00,VWS V14.01,2013-02-11 14:43:00,
2013-02-11 07:44:00,33.0,26.3,30.01,ENE,68,0.0,0.0,76,0.00,,SKC,0.00,VWS V14.01,2013-02-11 14:44:00,
2013-02-11 07:45:00,33.0,26.3,30.01,ENE,68,0.0,0.0,76,0.00,,SKC,0.00,VWS V14.01,2013-02-11 14:45:00,
2013-02-11 07:46:00,33.0,26.6,30.01,ENE,68,0.0,0.0,77,0.00,,SKC,0.00,VWS V14.01,2013-02-11 14:46:00,
2013-02-11 07:47:00,33.0,26.6,30.01,ENE,68,0.0,0.0,77,0.00,,SKC,0.00,VWS V14.01,2013-02-11 14:47:00,
2013-02-11 07:48:00,33.0,26.6,30.01,ENE,68,0.0,0.0,77,0.00,,SKC,0.00,VWS V14.01,2013-02-11 14:48:00,
2013-02-11 07:49:00,33.0,26.6,30.01,ENE,68,0.0,0.0,77,0.00,,SKC,0.00,VWS V14.01,2013-02-11 14:49:00,
2013-02-11 07:50:00,33.0,26.6,30.01,ENE,68,0.0,0.0,77,0.00,,SKC,0.00,VWS V14.01,2013-02-11 14:50:00,
2013-02-11 07:51:00,33.0,26.9,30.01,NE,45,0.0,0.0,78,0.00,,SKC,0.00,VWS V14.01,2013-02-11 14:51:00,
2013-02-11 07:52:00,33.0,26.9,30.01,NE,45,0.0,0.0,78,0.00,,SKC,0.00,VWS V14.01,2013-02-11 14:52:00,
2013-02-11 07:53:00,33.0,26.9,30.01,NE,45,0.0,0.0,78,0.00,,SKC,0.00,VWS V14.01,2013-02-11 14:53:00,
2013-02-11 07:54:00,33.0,26.9,30.01,NE,45,0.0,0.0,78,0.00,,SKC,0.00,VWS V14.01,2013-02-11 14:54:00,
2013-02-11 07:55:00,33.0,26.9,30.01,NE,45,0.0,0.0,78,0.00,,SKC,0.00,VWS V14.01,2013-02-11 14:55:00,
2013-02-11 07:56:00,33.0,26.9,30.01,SE,135,0.0,0.0,78,0.00,,SKC,0.00,VWS V14.01,2013-02-11 14:56:00,
2013-02-11 07:57:00,33.0,27.2,30.01,NE,45,0.0,0.0,79,0.00,,SKC,0.00,VWS V14.01,2013-02-11 14:57:00,
2013-02-11 07:58:00,33.0,27.2,30.01,SE,135,0.0,0.0,79,0.00,,SKC,0.00,VWS V14.01,2013-02-11 14:58:00,
2013-02-11 07:59:00,33.0,27.2,30.01,ENE,68,0.0,0.0,79,0.00,,SKC,0.00,VWS V14.01,2013-02-11 14:59:00,
2013-02-11 08:00:00,33.0,27.2,30.01,NE,45,0.0,0.0,79,0.00,,SKC,0.00,VWS V14.01,2013-02-11 15:00:00,
2013-02-11 08:01:00,33.0,27.2,30.01,NE,45,0.0,0.0,79,0.00,,SKC,0.00,VWS V14.01,2013-02-11 15:01:00,
2013-02-11 08:02:00,34.0,28.2,30.01,NNE,22,0.0,0.0,79,0.00,,SKC,0.00,VWS V14.01,2013-02-11 15:02:00,
2013-02-11 08:03:00,34.0,28.2,30.01,NE,45,0.0,0.0,79,0.00,,SKC,0.00,VWS V14.01,2013-02-11 15:03:00,
2013-02-11 08:04:00,34.0,28.2,30.01,ENE,68,0.0,0.0,79,0.00,,SKC,0.00,VWS V14.01,2013-02-11 15:04:00,
2013-02-11 08:05:00,34.0,28.2,30.01,NNE,22,0.0,0.0,79,0.00,,SKC,0.00,VWS V14.01,2013-02-11 15:05:00,
2013-02-11 08:06:00,34.0,28.2,30.01,ENE,68,1.0,2.0,79,0.00,,SKC,0.00,VWS V14.01,2013-02-11 15:06:00,
2013-02-11 08:07:00,35.0,28.9,30.02,NE,45,0.0,0.0,78,0.00,,SKC,0.00,VWS V14.01,2013-02-11 15:07:00,
2013-02-11 08:08:00,35.0,28.9,30.02,NE,45,0.0,1.0,78,0.00,,SKC,0.00,VWS V14.01,2013-02-11 15:08:00,
2013-02-11 08:09:00,35.0,28.9,30.02,NE,45,0.0,0.0,78,0.00,,SKC,0.00,VWS V14.01,2013-02-11 15:09:00,
2013-02-11 08:10:00,35.0,28.9,30.02,NE,45,0.0,0.0,78,0.00,,SKC,0.00,VWS V14.01,2013-02-11 15:10:00,
2013-02-11 08:11:00,35.0,28.5,30.02,NE,45,1.0,1.0,77,0.00,,SKC,0.00,VWS V14.01,2013-02-11 15:11:00,
2013-02-11 08:12:00,36.0,29.2,30.02,NE,45,0.0,0.0,76,0.00,,SKC,0.00,VWS V14.01,2013-02-11 15:12:00,
2013-02-11 08:13:00,36.0,29.5,30.02,ESE,112,0.0,1.0,77,0.00,,SKC,0.00,VWS V14.01,2013-02-11 15:13:00,
2013-02-11 08:14:00,36.0,29.5,30.02,NE,45,0.0,0.0,77,0.00,,SKC,0.00,VWS V14.01,2013-02-11 15:14:00,
2013-02-11 08:15:00,36.0,29.2,30.02,NE,45,0.0,0.0,76,0.00,,SKC,0.00,VWS V14.01,2013-02-11 15:15:00,
2013-02-11 08:16:00,36.0,29.2,30.02,NE,45,0.0,0.0,76,0.00,,SKC,0.00,VWS V14.01,2013-02-11 15:16:00,
2013-02-11 08:17:00,37.0,29.5,30.02,North,0,0.0,1.0,74,0.00,,SKC,0.00,VWS V14.01,2013-02-11 15:17:00,
2013-02-11 08:18:00,37.0,29.8,30.02,NE,45,0.0,0.0,75,0.00,,SKC,0.00,VWS V14.01,2013-02-11 15:18:00,
2013-02-11 08:19:00,37.0,29.8,30.02,NE,45,0.0,0.0,75,0.00,,SKC,0.00,VWS V14.01,2013-02-11 15:19:00,
2013-02-11 08:20:00,37.0,29.5,30.02,North,0,0.0,1.0,74,0.00,,SKC,0.00,VWS V14.01,2013-02-11 15:20:00,
2013-02-11 08:21:00,37.0,29.5,30.02,North,0,0.0,1.0,74,0.00,,SKC,0.00,VWS V14.01,2013-02-11 15:21:00,
2013-02-11 08:22:00,38.0,29.5,30.02,NE,45,1.0,2.0,71,0.00,,SKC,0.00,VWS V14.01,2013-02-11 15:22:00,
2013-02-11 08:23:00,38.0,30.1,30.02,NE,45,1.0,1.0,73,0.00,,SKC,0.00,VWS V14.01,2013-02-11 15:23:00,
2013-02-11 08:24:00,38.0,29.8,30.02,ENE,68,2.0,2.0,72,0.00,,SKC,0.00,VWS V14.01,2013-02-11 15:24:00,
2013-02-11 08:25:00,38.0,29.5,30.02,NE,45,1.0,2.0,71,0.00,,SKC,0.00,VWS V14.01,2013-02-11 15:25:00,
2013-02-11 08:26:00,38.0,29.5,30.02,NE,45,0.0,0.0,71,0.00,,SKC,0.00,VWS V14.01,2013-02-11 15:26:00,
2013-02-11 08:27:00,39.0,29.4,30.02,NNE,22,0.0,0.0,68,0.00,,SKC,0.00,VWS V14.01,2013-02-11 15:27:00,
2013-02-11 08:28:00,39.0,30.1,30.02,NE,45,0.0,0.0,70,0.00,,SKC,0.00,VWS V14.01,2013-02-11 15:28:00,
2013-02-11 08:29:00,39.0,29.7,30.02,NNE,22,0.0,0.0,69,0.00,,SKC,0.00,VWS V14.01,2013-02-11 15:29:00,
2013-02-11 08:30:00,39.0,29.4,30.02,NNE,22,0.0,0.0,68,0.00,,SKC,0.00,VWS V14.01,2013-02-11 15:30:00,
2013-02-11 08:31:00,39.0,29.4,30.02,NNE,22,0.0,0.0,68,0.00,,SKC,0.00,VWS V14.01,2013-02-11 15:31:00,
2013-02-11 08:32:00,40.0,29.6,30.03,North,0,0.0,0.0,66,0.00,,SKC,0.00,VWS V14.01,2013-02-11 15:32:00,
2013-02-11 08:33:00,39.0,29.0,30.02,North,0,0.0,0.0,67,0.00,,SKC,0.00,VWS V14.01,2013-02-11 15:33:00,
2013-02-11 08:34:00,40.0,29.9,30.03,North,0,0.0,0.0,67,0.00,,SKC,0.00,VWS V14.01,2013-02-11 15:34:00,
2013-02-11 08:35:00,40.0,29.6,30.03,North,0,0.0,0.0,66,0.00,,SKC,0.00,VWS V14.01,2013-02-11 15:35:00,
2013-02-11 08:36:00,40.0,29.6,30.03,North,0,0.0,0.0,66,0.00,,SKC,0.00,VWS V14.01,2013-02-11 15:36:00,
2013-02-11 08:37:00,41.0,29.8,30.02,NE,45,0.0,0.0,64,0.00,,SKC,0.00,VWS V14.01,2013-02-11 15:37:00,
2013-02-11 08:38:00,40.0,29.2,30.02,NNW,338,0.0,0.0,65,0.00,,SKC,0.00,VWS V14.01,2013-02-11 15:38:00,
2013-02-11 08:39:00,41.0,30.1,30.02,NE,45,0.0,0.0,65,0.00,,SKC,0.00,VWS V14.01,2013-02-11 15:39:00,
2013-02-11 08:40:00,41.0,29.8,30.02,NE,45,0.0,0.0,64,0.00,,SKC,0.00,VWS V14.01,2013-02-11 15:40:00,
2013-02-11 08:41:00,41.0,29.8,30.03,ESE,112,0.0,0.0,64,0.00,,SKC,0.00,VWS V14.01,2013-02-11 15:41:00,
2013-02-11 08:42:00,42.0,29.5,30.02,ESE,112,0.0,0.0,61,0.00,,SKC,0.00,VWS V14.01,2013-02-11 15:42:00,
2013-02-11 08:43:00,41.0,29.0,30.02,ESE,112,0.0,0.0,62,0.00,,SKC,0.00,VWS V14.01,2013-02-11 15:43:00,
2013-02-11 08:44:00,41.0,28.6,30.02,ESE,112,0.0,0.0,61,0.00,,SKC,0.00,VWS V14.01,2013-02-11 15:44:00,
2013-02-11 08:45:00,42.0,29.5,30.02,ESE,112,0.0,0.0,61,0.00,,SKC,0.00,VWS V14.01,2013-02-11 15:45:00,
2013-02-11 08:46:00,42.0,29.5,30.02,ESE,112,0.0,1.0,61,0.00,,SKC,0.00,VWS V14.01,2013-02-11 15:46:00,
2013-02-11 08:47:00,43.0,29.2,30.03,SSE,158,1.0,1.0,58,0.00,,SKC,0.00,VWS V14.01,2013-02-11 15:47:00,
2013-02-11 08:48:00,42.0,28.7,30.02,ESE,112,0.0,0.0,59,0.00,,SKC,0.00,VWS V14.01,2013-02-11 15:48:00,
2013-02-11 08:49:00,43.0,29.2,30.03,ESE,112,0.0,0.0,58,0.00,,SKC,0.00,VWS V14.01,2013-02-11 15:49:00,
2013-02-11 08:50:00,43.0,29.2,30.03,SSE,158,1.0,1.0,58,0.00,,SKC,0.00,VWS V14.01,2013-02-11 15:50:00,
2013-02-11 08:51:00,43.0,29.2,30.03,SSW,202,1.0,3.0,58,0.00,,SKC,0.00,VWS V14.01,2013-02-11 15:51:00,
2013-02-11 08:52:00,44.0,29.8,30.03,SSW,202,0.0,1.0,57,0.00,,SKC,0.00,VWS V14.01,2013-02-11 15:52:00,
2013-02-11 08:53:00,44.0,30.2,30.03,South,180,2.0,4.0,58,0.00,,SKC,0.00,VWS V14.01,2013-02-11 15:53:00,
2013-02-11 08:54:00,44.0,30.2,30.03,SSE,158,1.0,2.0,58,0.00,,SKC,0.00,VWS V14.01,2013-02-11 15:54:00,
2013-02-11 08:55:00,44.0,29.8,30.03,SSW,202,0.0,1.0,57,0.00,,SKC,0.00,VWS V14.01,2013-02-11 15:55:00,
2013-02-11 08:56:00,44.0,29.8,30.03,SE,135,2.0,3.0,57,0.00,,SKC,0.00,VWS V14.01,2013-02-11 15:56:00,
2013-02-11 08:57:00,45.0,28.9,30.03,SSE,158,3.0,3.0,53,0.00,,SKC,0.00,VWS V14.01,2013-02-11 15:57:00,
2013-02-11 08:58:00,45.0,29.8,30.03,SSW,202,3.0,4.0,55,0.00,,SKC,0.00,VWS V14.01,2013-02-11 15:58:00,
2013-02-11 08:59:00,45.0,28.9,30.03,SSE,158,3.0,3.0,53,0.00,,SKC,0.00,VWS V14.01,2013-02-11 15:59:00,
2013-02-11 09:00:00,45.0,28.9,30.03,SSE,158,3.0,3.0,53,0.00,,SKC,0.00,VWS V14.01,2013-02-11 16:00:00,
2013-02-11 09:01:00,45.0,28.9,30.03,SSW,202,1.0,2.0,53,0.00,,SKC,0.00,VWS V14.01,2013-02-11 16:01:00,
2013-02-11 09:02:00,45.0,29.4,30.03,ESE,112,3.0,3.0,54,0.00,,SKC,0.00,VWS V14.01,2013-02-11 16:02:00,
2013-02-11 09:03:00,45.0,29.4,30.03,SSE,158,1.0,3.0,54,0.00,,SKC,0.00,VWS V14.01,2013-02-11 16:03:00,
2013-02-11 09:04:00,45.0,29.4,30.03,SSW,202,3.0,3.0,54,0.00,,SKC,0.00,VWS V14.01,2013-02-11 16:04:00,
2013-02-11 09:05:00,45.0,29.4,30.03,ESE,112,3.0,3.0,54,0.00,,SKC,0.00,VWS V14.01,2013-02-11 16:05:00,
2013-02-11 09:06:00,45.0,28.9,30.03,South,180,2.0,3.0,53,0.00,,SKC,0.00,VWS V14.01,2013-02-11 16:06:00,
2013-02-11 09:07:00,44.0,28.0,30.03,South,180,3.0,3.0,53,0.00,,SKC,0.00,VWS V14.01,2013-02-11 16:07:00,
2013-02-11 09:08:00,45.0,28.9,30.03,SE,135,2.0,2.0,53,0.00,,SKC,0.00,VWS V14.01,2013-02-11 16:08:00,
2013-02-11 09:09:00,45.0,28.9,30.03,SSE,158,5.0,5.0,53,0.00,,SKC,0.00,VWS V14.01,2013-02-11 16:09:00,
2013-02-11 09:10:00,44.0,28.0,30.03,South,180,3.0,3.0,53,0.00,,SKC,0.00,VWS V14.01,2013-02-11 16:10:00,
2013-02-11 09:11:00,44.0,28.0,30.03,South,180,3.0,3.0,53,0.00,,SKC,0.00,VWS V14.01,2013-02-11 16:11:00,
2013-02-11 09:12:00,44.0,28.4,30.03,South,180,3.0,4.0,54,0.00,,SKC,0.00,VWS V14.01,2013-02-11 16:12:00,
2013-02-11 09:13:00,44.0,28.0,30.03,SSE,158,3.0,3.0,53,0.00,,SKC,0.00,VWS V14.01,2013-02-11 16:13:00,
2013-02-11 09:14:00,44.0,28.4,30.03,SSE,158,3.0,3.0,54,0.00,,SKC,0.00,VWS V14.01,2013-02-11 16:14:00,
2013-02-11 09:15:00,44.0,28.4,30.03,South,180,2.0,3.0,54,0.00,,SKC,0.00,VWS V14.01,2013-02-11 16:15:00,
2013-02-11 09:16:00,44.0,28.9,30.03,South,180,2.0,2.0,55,0.00,,SKC,0.00,VWS V14.01,2013-02-11 16:16:00,
2013-02-11 09:17:00,44.0,28.9,30.03,SSW,202,1.0,3.0,55,0.00,,SKC,0.00,VWS V14.01,2013-02-11 16:17:00,
2013-02-11 09:18:00,44.0,28.9,30.03,South,180,0.0,0.0,55,0.00,,SKC,0.00,VWS V14.01,2013-02-11 16:18:00,
2013-02-11 09:19:00,44.0,28.9,30.03,South,180,0.0,0.0,55,0.00,,SKC,0.00,VWS V14.01,2013-02-11 16:19:00,
2013-02-11 09:20:00,44.0,28.9,30.03,SSW,202,1.0,3.0,55,0.00,,SKC,0.00,VWS V14.01,2013-02-11 16:20:00,
2013-02-11 09:21:00,44.0,28.9,30.03,SW,225,4.0,4.0,55,0.00,,SKC,0.00,VWS V14.01,2013-02-11 16:21:00,
2013-02-11 09:22:00,44.0,28.9,30.04,SW,225,3.0,3.0,55,0.00,,SKC,0.00,VWS V14.01,2013-02-11 16:22:00,
2013-02-11 09:23:00,44.0,28.4,30.03,SW,225,4.0,4.0,54,0.00,,SKC,0.00,VWS V14.01,2013-02-11 16:23:00,
2013-02-11 09:24:00,44.0,28.9,30.03,SSW,202,3.0,3.0,55,0.00,,SKC,0.00,VWS V14.01,2013-02-11 16:24:00,
2013-02-11 09:25:00,44.0,28.9,30.04,SW,225,3.0,3.0,55,0.00,,SKC,0.00,VWS V14.01,2013-02-11 16:25:00,
2013-02-11 09:26:00,44.0,28.9,30.03,SW,225,1.0,3.0,55,0.00,,SKC,0.00,VWS V14.01,2013-02-11 16:26:00,
2013-02-11 09:27:00,45.0,28.5,30.04,SSE,158,8.0,8.0,52,0.00,,SKC,0.00,VWS V14.01,2013-02-11 16:27:00,
2013-02-11 09:28:00,44.0,28.9,30.04,SSW,202,2.0,3.0,55,0.00,,SKC,0.00,VWS V14.01,2013-02-11 16:28:00,
2013-02-11 09:29:00,45.0,28.9,30.04,South,180,3.0,3.0,53,0.00,,SKC,0.00,VWS V14.01,2013-02-11 16:29:00,
2013-02-11 09:30:00,45.0,28.5,30.04,SSE,158,8.0,8.0,52,0.00,,SKC,0.00,VWS V14.01,2013-02-11 16:30:00,
2013-02-11 09:31:00,45.0,27.5,30.03,SE,135,4.0,7.0,50,0.00,,SKC,0.00,VWS V14.01,2013-02-11 16:31:00,
2013-02-11 09:32:00,46.0,26.4,30.03,SE,135,5.0,6.0,46,0.00,,SKC,0.00,VWS V14.01,2013-02-11 16:32:00,
2013-02-11 09:33:00,46.0,26.9,30.03,SSE,158,5.0,6.0,47,0.00,,SKC,0.00,VWS V14.01,2013-02-11 16:33:00,
2013-02-11 09:34:00,46.0,26.9,30.03,SSE,158,6.0,7.0,47,0.00,,SKC,0.00,VWS V14.01,2013-02-11 16:34:00,
2013-02-11 09:35:00,46.0,26.4,30.03,SE,135,5.0,6.0,46,0.00,,SKC,0.00,VWS V14.01,2013-02-11 16:35:00,
2013-02-11 09:36:00,46.0,26.4,30.03,SSW,202,1.0,3.0,46,0.00,,SKC,0.00,VWS V14.01,2013-02-11 16:36:00,
2013-02-11 09:37:00,47.0,26.2,30.03,SSE,158,8.0,8.0,44,0.00,,SKC,0.00,VWS V14.01,2013-02-11 16:37:00,
2013-02-11 09:38:00,47.0,26.8,30.04,SSE,158,10.0,10.0,45,0.00,,SKC,0.00,VWS V14.01,2013-02-11 16:38:00,
2013-02-11 09:39:00,47.0,26.8,30.03,SE,135,5.0,5.0,45,0.00,,SKC,0.00,VWS V14.01,2013-02-11 16:39:00,
2013-02-11 09:40:00,47.0,26.2,30.03,SSE,158,8.0,8.0,44,0.00,,SKC,0.00,VWS V14.01,2013-02-11 16:40:00,
2013-02-11 09:41:00,47.0,26.2,30.04,SSE,158,6.0,10.0,44,0.00,,SKC,0.00,VWS V14.01,2013-02-11 16:41:00,
2013-02-11 09:42:00,47.0,25.7,30.04,SE,135,5.0,10.0,43,0.00,,SKC,0.00,VWS V14.01,2013-02-11 16:42:00,
2013-02-11 09:43:00,47.0,25.7,30.04,SSW,202,5.0,10.0,43,0.00,,SKC,0.00,VWS V14.01,2013-02-11 16:43:00,
2013-02-11 09:44:00,47.0,25.7,30.04,SSE,158,8.0,10.0,43,0.00,,SKC,0.00,VWS V14.01,2013-02-11 16:44:00,
2013-02-11 09:45:00,47.0,25.7,30.04,SE,135,5.0,10.0,43,0.00,,SKC,0.00,VWS V14.01,2013-02-11 16:45:00,
2013-02-11 09:46:00,47.0,25.7,30.04,SSE,158,6.0,6.0,43,0.00,,SKC,0.00,VWS V14.01,2013-02-11 16:46:00,
2013-02-11 09:47:00,48.0,26.0,30.04,SSE,158,8.0,10.0,42,0.00,,SKC,0.00,VWS V14.01,2013-02-11 16:47:00,
2013-02-11 09:48:00,48.0,26.6,30.04,SSE,158,4.0,4.0,43,0.00,,SKC,0.00,VWS V14.01,2013-02-11 16:48:00,
2013-02-11 09:49:00,48.0,26.6,30.04,SSE,158,8.0,9.0,43,0.00,,SKC,0.00,VWS V14.01,2013-02-11 16:49:00,
2013-02-11 09:50:00,48.0,26.0,30.04,SSE,158,8.0,10.0,42,0.00,,SKC,0.00,VWS V14.01,2013-02-11 16:50:00,
2013-02-11 09:51:00,48.0,26.0,30.04,ESE,112,6.0,6.0,42,0.00,,SKC,0.00,VWS V14.01,2013-02-11 16:51:00,
2013-02-11 09:52:00,48.0,26.0,30.04,SSE,158,3.0,3.0,42,0.00,,SKC,0.00,VWS V14.01,2013-02-11 16:52:00,
2013-02-11 09:53:00,48.0,26.0,30.04,SE,135,6.0,6.0,42,0.00,,SKC,0.00,VWS V14.01,2013-02-11 16:53:00,
2013-02-11 09:54:00,48.0,26.0,30.04,SE,135,5.0,5.0,42,0.00,,SKC,0.00,VWS V14.01,2013-02-11 16:54:00,
2013-02-11 09:55:00,48.0,26.0,30.04,SW,225,4.0,4.0,42,0.00,,SKC,0.00,VWS V14.01,2013-02-11 16:55:00,
2013-02-11 09:56:00,48.0,26.0,30.04,SSE,158,5.0,8.0,42,0.00,,SKC,0.00,VWS V14.01,2013-02-11 16:56:00,
2013-02-11 09:57:00,48.0,26.0,30.04,SE,135,7.0,10.0,42,0.00,,SKC,0.00,VWS V14.01,2013-02-11 16:57:00,
2013-02-11 09:58:00,48.0,26.0,30.04,SE,135,8.0,8.0,42,0.00,,SKC,0.00,VWS V14.01,2013-02-11 16:58:00,
2013-02-11 09:59:00,48.0,26.0,30.04,SE,135,5.0,6.0,42,0.00,,SKC,0.00,VWS V14.01,2013-02-11 16:59:00,
2013-02-11 10:00:00,48.0,26.0,30.04,SE,135,7.0,10.0,42,0.00,,SKC,0.00,VWS V14.01,2013-02-11 17:00:00,
2013-02-11 10:01:00,48.0,26.0,30.04,SSE,158,7.0,9.0,42,0.00,,SKC,0.00,VWS V14.01,2013-02-11 17:01:00,
2013-02-11 10:02:00,49.0,26.3,30.04,SSE,158,9.0,9.0,41,0.00,,SKC,0.00,VWS V14.01,2013-02-11 17:02:00,
2013-02-11 10:03:00,49.0,26.3,30.04,SSE,158,3.0,4.0,41,0.00,,SKC,0.00,VWS V14.01,2013-02-11 17:03:00,
2013-02-11 10:04:00,49.0,26.3,30.04,SSE,158,5.0,5.0,41,0.00,,SKC,0.00,VWS V14.01,2013-02-11 17:04:00,
2013-02-11 10:05:00,49.0,26.3,30.04,SSE,158,9.0,9.0,41,0.00,,SKC,0.00,VWS V14.01,2013-02-11 17:05:00,
2013-02-11 10:06:00,49.0,26.3,30.04,SSE,158,7.0,10.0,41,0.00,,SKC,0.00,VWS V14.01,2013-02-11 17:06:00,
2013-02-11 10:07:00,49.0,26.3,30.04,SSE,158,8.0,8.0,41,0.00,,SKC,0.00,VWS V14.01,2013-02-11 17:07:00,
2013-02-11 10:08:00,50.0,27.2,30.04,SSE,158,5.0,5.0,41,0.00,,SKC,0.00,VWS V14.01,2013-02-11 17:08:00,
2013-02-11 10:09:00,49.0,26.3,30.04,South,180,4.0,5.0,41,0.00,,SKC,0.00,VWS V14.01,2013-02-11 17:09:00,
2013-02-11 10:10:00,50.0,27.2,30.04,SSE,158,5.0,5.0,41,0.00,,SKC,0.00,VWS V14.01,2013-02-11 17:10:00,
2013-02-11 10:11:00,50.0,26.6,30.04,SSE,158,5.0,8.0,40,0.00,,SKC,0.00,VWS V14.01,2013-02-11 17:11:00,
2013-02-11 10:12:00,50.0,26.6,30.04,SSE,158,7.0,8.0,40,0.00,,SKC,0.00,VWS V14.01,2013-02-11 17:12:00,
2013-02-11 10:13:00,49.0,26.3,30.04,WSW,248,2.0,5.0,41,0.00,,SKC,0.00,VWS V14.01,2013-02-11 17:13:00,
2013-02-11 10:14:00,49.0,25.8,30.04,ESE,112,4.0,8.0,40,0.00,,SKC,0.00,VWS V14.01,2013-02-11 17:14:00,
2013-02-11 10:15:00,49.0,26.3,30.04,WSW,248,2.0,5.0,41,0.00,,SKC,0.00,VWS V14.01,2013-02-11 17:15:00,
2013-02-11 10:16:00,50.0,27.2,30.04,South,180,5.0,5.0,41,0.00,,SKC,0.00,VWS V14.01,2013-02-11 17:16:00,
2013-02-11 10:17:00,50.0,27.2,30.04,South,180,5.0,6.0,41,0.00,,SKC,0.00,VWS V14.01,2013-02-11 17:17:00,
2013-02-11 10:18:00,50.0,26.6,30.04,SW,225,3.0,4.0,40,0.00,,SKC,0.00,VWS V14.01,2013-02-11 17:18:00,
2013-02-11 10:19:00,50.0,27.2,30.04,SSW,202,3.0,5.0,41,0.00,,SKC,0.00,VWS V14.01,2013-02-11 17:19:00,
2013-02-11 10:20:00,50.0,26.6,30.04,SSE,158,4.0,5.0,40,0.00,,SKC,0.00,VWS V14.01,2013-02-11 17:20:00,
2013-02-11 10:21:00,50.0,26.6,30.04,SSE,158,2.0,3.0,40,0.00,,SKC,0.00,VWS V14.01,2013-02-11 17:21:00,
2013-02-11 10:22:00,50.0,27.2,30.04,SSE,158,7.0,8.0,41,0.00,,SKC,0.00,VWS V14.01,2013-02-11 17:22:00,
2013-02-11 10:23:00,50.0,27.2,30.04,SSE,158,6.0,8.0,41,0.00,,SKC,0.00,VWS V14.01,2013-02-11 17:23:00,
2013-02-11 10:24:00,50.0,27.2,30.04,SSE,158,7.0,9.0,41,0.00,,SKC,0.00,VWS V14.01,2013-02-11 17:24:00,
2013-02-11 10:25:00,50.0,27.2,30.04,SSW,202,8.0,8.0,41,0.00,,SKC,0.00,VWS V14.01,2013-02-11 17:25:00,
2013-02-11 10:26:00,49.0,26.3,30.04,SSE,158,10.0,12.0,41,0.00,,SKC,0.00,VWS V14.01,2013-02-11 17:26:00,
2013-02-11 10:27:00,49.0,26.3,30.04,SSE,158,3.0,4.0,41,0.00,,SKC,0.00,VWS V14.01,2013-02-11 17:27:00,
2013-02-11 10:28:00,49.0,26.9,30.04,SW,225,2.0,3.0,42,0.00,,SKC,0.00,VWS V14.01,2013-02-11 17:28:00,
2013-02-11 10:29:00,49.0,26.9,30.04,SSW,202,5.0,5.0,42,0.00,,SKC,0.00,VWS V14.01,2013-02-11 17:29:00,
2013-02-11 10:30:00,49.0,26.9,30.04,SW,225,2.0,3.0,42,0.00,,SKC,0.00,VWS V14.01,2013-02-11 17:30:00,
2013-02-11 10:31:00,49.0,26.9,30.04,SE,135,5.0,6.0,42,0.00,,SKC,0.00,VWS V14.01,2013-02-11 17:31:00,
2013-02-11 10:32:00,49.0,26.9,30.04,SSE,158,5.0,8.0,42,0.00,,SKC,0.00,VWS V14.01,2013-02-11 17:32:00,
2013-02-11 10:33:00,49.0,27.5,30.04,SSE,158,2.0,3.0,43,0.00,,SKC,0.00,VWS V14.01,2013-02-11 17:33:00,
2013-02-11 10:34:00,49.0,26.9,30.04,SSE,158,6.0,9.0,42,0.00,,SKC,0.00,VWS V14.01,2013-02-11 17:34:00,
2013-02-11 10:35:00,49.0,27.5,30.04,SSE,158,3.0,3.0,43,0.00,,SKC,0.00,VWS V14.01,2013-02-11 17:35:00,
2013-02-11 10:36:00,49.0,27.5,30.03,SSW,202,5.0,5.0,43,0.00,,SKC,0.00,VWS V14.01,2013-02-11 17:36:00,
2013-02-11 10:37:00,49.0,28.0,30.04,SSW,202,3.0,3.0,44,0.00,,SKC,0.00,VWS V14.01,2013-02-11 17:37:00,
2013-02-11 10:38:00,49.0,27.5,30.04,SSE,158,1.0,3.0,43,0.00,,SKC,0.00,VWS V14.01,2013-02-11 17:38:00,
2013-02-11 10:39:00,49.0,28.0,30.04,SE,135,3.0,5.0,44,0.00,,SKC,0.00,VWS V14.01,2013-02-11 17:39:00,
2013-02-11 10:40:00,49.0,27.5,30.03,SSW,202,1.0,3.0,43,0.00,,SKC,0.00,VWS V14.01,2013-02-11 17:40:00,
2013-02-11 10:41:00,49.0,27.5,30.04,ESE,112,3.0,3.0,43,0.00,,SKC,0.00,VWS V14.01,2013-02-11 17:41:00,
2013-02-11 10:42:00,49.0,27.5,30.04,SE,135,6.0,8.0,43,0.00,,SKC,0.00,VWS V14.01,2013-02-11 17:42:00,
2013-02-11 10:43:00,49.0,27.5,30.04,SSE,158,4.0,8.0,43,0.00,,SKC,0.00,VWS V14.01,2013-02-11 17:43:00,
2013-02-11 10:44:00,49.0,27.5,30.04,SSW,202,5.0,6.0,43,0.00,,SKC,0.00,VWS V14.01,2013-02-11 17:44:00,
2013-02-11 10:45:00,49.0,27.5,30.04,South,180,7.0,8.0,43,0.00,,SKC,0.00,VWS V14.01,2013-02-11 17:45:00,
2013-02-11 10:46:00,49.0,26.9,30.04,SSW,202,2.0,3.0,42,0.00,,SKC,0.00,VWS V14.01,2013-02-11 17:46:00,
2013-02-11 10:47:00,49.0,27.5,30.04,SSE,158,5.0,5.0,43,0.00,,SKC,0.00,VWS V14.01,2013-02-11 17:47:00,
2013-02-11 10:48:00,49.0,27.5,30.04,SSE,158,8.0,9.0,43,0.00,,SKC,0.00,VWS V14.01,2013-02-11 17:48:00,
2013-02-11 10:49:00,49.0,27.5,30.04,SE,135,7.0,8.0,43,0.00,,SKC,0.00,VWS V14.01,2013-02-11 17:49:00,
2013-02-11 10:50:00,49.0,27.5,30.04,SSE,158,8.0,10.0,43,0.00,,SKC,0.00,VWS V14.01,2013-02-11 17:50:00,
2013-02-11 10:51:00,49.0,27.5,30.04,South,180,8.0,10.0,43,0.00,,SKC,0.00,VWS V14.01,2013-02-11 17:51:00,
2013-02-11 10:52:00,49.0,27.5,30.04,SW,225,5.0,9.0,43,0.00,,SKC,0.00,VWS V14.01,2013-02-11 17:52:00,
2013-02-11 10:53:00,49.0,27.5,30.04,SSE,158,5.0,6.0,43,0.00,,SKC,0.00,VWS V14.01,2013-02-11 17:53:00,
2013-02-11 10:54:00,49.0,27.5,30.04,SSE,158,6.0,6.0,43,0.00,,SKC,0.00,VWS V14.01,2013-02-11 17:54:00,
2013-02-11 10:55:00,49.0,27.5,30.04,SSE,158,5.0,6.0,43,0.00,,SKC,0.00,VWS V14.01,2013-02-11 17:55:00,
2013-02-11 10:56:00,49.0,27.5,30.04,SW,225,4.0,5.0,43,0.00,,SKC,0.00,VWS V14.01,2013-02-11 17:56:00,
2013-02-11 10:57:00,49.0,27.5,30.04,SSW,202,5.0,6.0,43,0.00,,SKC,0.00,VWS V14.01,2013-02-11 17:57:00,
2013-02-11 10:58:00,49.0,28.0,30.04,SW,225,6.0,6.0,44,0.00,,SKC,0.00,VWS V14.01,2013-02-11 17:58:00,
2013-02-11 10:59:00,49.0,28.0,30.03,SW,225,1.0,2.0,44,0.00,,SKC,0.00,VWS V14.01,2013-02-11 17:59:00,
2013-02-11 11:00:00,49.0,28.0,30.04,SW,225,6.0,6.0,44,0.00,,SKC,0.00,VWS V14.01,2013-02-11 18:00:00,
2013-02-11 11:01:00,49.0,28.0,30.03,SSE,158,5.0,5.0,44,0.00,,SKC,0.00,VWS V14.01,2013-02-11 18:01:00,
2013-02-11 11:02:00,49.0,28.0,30.04,SSW,202,6.0,6.0,44,0.00,,SKC,0.00,VWS V14.01,2013-02-11 18:02:00,
2013-02-11 11:03:00,50.0,29.0,30.03,ESE,112,3.0,3.0,44,0.00,,SKC,0.00,VWS V14.01,2013-02-11 18:03:00,
2013-02-11 11:04:00,50.0,29.0,30.03,SSW,202,2.0,2.0,44,0.00,,SKC,0.00,VWS V14.01,2013-02-11 18:04:00,
2013-02-11 11:05:00,50.0,29.0,30.04,SSW,202,3.0,3.0,44,0.00,,SKC,0.00,VWS V14.01,2013-02-11 18:05:00,
2013-02-11 11:06:00,50.0,29.0,30.03,South,180,2.0,2.0,44,0.00,,SKC,0.00,VWS V14.01,2013-02-11 18:06:00,
2013-02-11 11:07:00,50.0,28.4,30.03,SSE,158,7.0,10.0,43,0.00,,SKC,0.00,VWS V14.01,2013-02-11 18:07:00,
2013-02-11 11:08:00,50.0,28.4,30.03,SSE,158,5.0,8.0,43,0.00,,SKC,0.00,VWS V14.01,2013-02-11 18:08:00,
2013-02-11 11:09:00,50.0,28.4,30.03,SSE,158,4.0,7.0,43,0.00,,SKC,0.00,VWS V14.01,2013-02-11 18:09:00,
2013-02-11 11:10:00,50.0,28.4,30.03,SSE,158,8.0,8.0,43,0.00,,SKC,0.00,VWS V14.01,2013-02-11 18:10:00,
2013-02-11 11:11:00,50.0,28.4,30.03,SSE,158,8.0,8.0,43,0.00,,SKC,0.00,VWS V14.01,2013-02-11 18:11:00,
2013-02-11 11:12:00,49.0,27.5,30.03,SW,225,4.0,4.0,43,0.00,,SKC,0.00,VWS V14.01,2013-02-11 18:12:00,
2013-02-11 11:13:00,50.0,28.4,30.03,SSE,158,6.0,6.0,43,0.00,,SKC,0.00,VWS V14.01,2013-02-11 18:13:00,
2013-02-11 11:14:00,50.0,28.4,30.03,South,180,5.0,6.0,43,0.00,,SKC,0.00,VWS V14.01,2013-02-11 18:14:00,
2013-02-11 11:15:00,50.0,28.4,30.03,SSE,158,4.0,5.0,43,0.00,,SKC,0.00,VWS V14.01,2013-02-11 18:15:00,
2013-02-11 11:16:00,50.0,28.4,30.03,SSE,158,8.0,10.0,43,0.00,,SKC,0.00,VWS V14.01,2013-02-11 18:16:00,
2013-02-11 11:17:00,50.0,28.4,30.03,SSE,158,13.0,13.0,43,0.00,,SKC,0.00,VWS V14.01,2013-02-11 18:17:00,
2013-02-11 11:18:00,50.0,28.4,30.03,SW,225,5.0,7.0,43,0.00,,SKC,0.00,VWS V14.01,2013-02-11 18:18:00,
2013-02-11 11:19:00,50.0,28.4,30.03,South,180,3.0,5.0,43,0.00,,SKC,0.00,VWS V14.01,2013-02-11 18:19:00,
2013-02-11 11:20:00,50.0,28.4,30.03,SSE,158,4.0,5.0,43,0.00,,SKC,0.00,VWS V14.01,2013-02-11 18:20:00,
2013-02-11 11:21:00,50.0,28.4,30.03,SSW,202,5.0,6.0,43,0.00,,SKC,0.00,VWS V14.01,2013-02-11 18:21:00,
2013-02-11 11:22:00,50.0,28.4,30.03,SW,225,6.0,7.0,43,0.00,,SKC,0.00,VWS V14.01,2013-02-11 18:22:00,
2013-02-11 11:23:00,50.0,27.8,30.03,SSW,202,8.0,10.0,42,0.00,,SKC,0.00,VWS V14.01,2013-02-11 18:23:00,
2013-02-11 11:24:00,50.0,27.8,30.03,West,270,4.0,7.0,42,0.00,,SKC,0.00,VWS V14.01,2013-02-11 18:24:00,
2013-02-11 11:25:00,50.0,27.8,30.03,SSW,202,11.0,11.0,42,0.00,,SKC,0.00,VWS V14.01,2013-02-11 18:25:00,
2013-02-11 11:26:00,50.0,27.2,30.03,SSE,158,8.0,12.0,41,0.00,,SKC,0.00,VWS V14.01,2013-02-11 18:26:00,
2013-02-11 11:27:00,50.0,27.2,30.03,SSE,158,6.0,10.0,41,0.00,,SKC,0.00,VWS V14.01,2013-02-11 18:27:00,
2013-02-11 11:28:00,50.0,27.8,30.03,SE,135,8.0,10.0,42,0.00,,SKC,0.00,VWS V14.01,2013-02-11 18:28:00,
2013-02-11 11:29:00,50.0,27.8,30.03,SW,225,6.0,6.0,42,0.00,,SKC,0.00,VWS V14.01,2013-02-11 18:29:00,
2013-02-11 11:30:00,50.0,27.8,30.03,SSE,158,5.0,5.0,42,0.00,,SKC,0.00,VWS V14.01,2013-02-11 18:30:00,
2013-02-11 11:31:00,50.0,27.8,30.03,SSE,158,5.0,9.0,42,0.00,,SKC,0.00,VWS V14.01,2013-02-11 18:31:00,
2013-02-11 11:32:00,50.0,27.8,30.03,SSW,202,4.0,6.0,42,0.00,,SKC,0.00,VWS V14.01,2013-02-11 18:32:00,
2013-02-11 11:33:00,50.0,28.4,30.03,South,180,9.0,9.0,43,0.00,,SKC,0.00,VWS V14.01,2013-02-11 18:33:00,
2013-02-11 11:34:00,50.0,27.8,30.03,NE,45,8.0,10.0,42,0.00,,SKC,0.00,VWS V14.01,2013-02-11 18:34:00,
2013-02-11 11:35:00,50.0,27.8,30.03,SSE,158,6.0,11.0,42,0.00,,SKC,0.00,VWS V14.01,2013-02-11 18:35:00,
2013-02-11 11:36:00,50.0,28.4,30.03,WSW,248,4.0,5.0,43,0.00,,SKC,0.00,VWS V14.01,2013-02-11 18:36:00,
2013-02-11 11:37:00,50.0,28.4,30.03,SSW,202,5.0,6.0,43,0.00,,SKC,0.00,VWS V14.01,2013-02-11 18:37:00,
2013-02-11 11:38:00,50.0,27.8,30.03,SSW,202,8.0,10.0,42,0.00,,SKC,0.00,VWS V14.01,2013-02-11 18:38:00,
2013-02-11 11:39:00,50.0,28.4,30.03,SSE,158,9.0,11.0,43,0.00,,SKC,0.00,VWS V14.01,2013-02-11 18:39:00,
2013-02-11 11:40:00,50.0,27.8,30.03,SSE,158,8.0,8.0,42,0.00,,SKC,0.00,VWS V14.01,2013-02-11 18:40:00,
2013-02-11 11:41:00,50.0,28.4,30.03,South,180,6.0,8.0,43,0.00,,SKC,0.00,VWS V14.01,2013-02-11 18:41:00,
2013-02-11 11:42:00,50.0,28.4,30.03,SSW,202,9.0,10.0,43,0.00,,SKC,0.00,VWS V14.01,2013-02-11 18:42:00,
2013-02-11 11:43:00,50.0,28.4,30.03,SSE,158,5.0,5.0,43,0.00,,SKC,0.00,VWS V14.01,2013-02-11 18:43:00,
2013-02-11 11:44:00,50.0,28.4,30.03,SSW,202,5.0,8.0,43,0.00,,SKC,0.00,VWS V14.01,2013-02-11 18:44:00,
2013-02-11 11:45:00,50.0,28.4,30.03,SSW,202,7.0,7.0,43,0.00,,SKC,0.00,VWS V14.01,2013-02-11 18:45:00,
2013-02-11 11:46:00,50.0,28.4,30.03,SSE,158,2.0,5.0,43,0.00,,SKC,0.00,VWS V14.01,2013-02-11 18:46:00,
2013-02-11 11:47:00,50.0,28.4,30.03,SE,135,8.0,8.0,43,0.00,,SKC,0.00,VWS V14.01,2013-02-11 18:47:00,
2013-02-11 11:48:00,50.0,28.4,30.03,SSW,202,8.0,11.0,43,0.00,,SKC,0.00,VWS V14.01,2013-02-11 18:48:00,
2013-02-11 11:49:00,50.0,27.8,30.03,SSE,158,8.0,8.0,42,0.00,,SKC,0.00,VWS V14.01,2013-02-11 18:49:00,
2013-02-11 11:50:00,50.0,28.4,30.03,SSE,158,6.0,8.0,43,0.00,,SKC,0.00,VWS V14.01,2013-02-11 18:50:00,
2013-02-11 11:51:00,50.0,28.4,30.03,SSW,202,5.0,7.0,43,0.00,,SKC,0.00,VWS V14.01,2013-02-11 18:51:00,
2013-02-11 11:52:00,50.0,27.8,30.03,SSE,158,5.0,5.0,42,0.00,,SKC,0.00,VWS V14.01,2013-02-11 18:52:00,
2013-02-11 11:53:00,49.0,27.5,30.03,SSE,158,3.0,4.0,43,0.00,,SKC,0.00,VWS V14.01,2013-02-11 18:53:00,
2013-02-11 11:54:00,49.0,26.9,30.03,SW,225,10.0,10.0,42,0.00,,SKC,0.00,VWS V14.01,2013-02-11 18:54:00,
2013-02-11 11:55:00,49.0,27.5,30.03,WSW,248,6.0,10.0,43,0.00,,SKC,0.00,VWS V14.01,2013-02-11 18:55:00,
2013-02-11 11:56:00,49.0,27.5,30.03,South,180,3.0,3.0,43,0.00,,SKC,0.00,VWS V14.01,2013-02-11 18:56:00,
2013-02-11 11:57:00,49.0,27.5,30.03,WSW,248,2.0,3.0,43,0.00,,SKC,0.00,VWS V14.01,2013-02-11 18:57:00,
2013-02-11 11:58:00,49.0,28.0,30.03,SSW,202,1.0,2.0,44,0.00,,SKC,0.00,VWS V14.01,2013-02-11 18:58:00,
2013-02-11 11:59:00,49.0,28.0,30.03,SW,225,5.0,6.0,44,0.00,,SKC,0.00,VWS V14.01,2013-02-11 18:59:00,
2013-02-11 12:00:00,49.0,28.0,30.03,WSW,248,2.0,3.0,44,0.00,,SKC,0.00,VWS V14.01,2013-02-11 19:00:00,
2013-02-11 12:01:00,49.0,28.0,30.03,WSW,248,3.0,3.0,44,0.00,,SKC,0.00,VWS V14.01,2013-02-11 19:01:00,
2013-02-11 12:02:00,49.0,28.0,30.03,West,270,6.0,6.0,44,0.00,,SKC,0.00,VWS V14.01,2013-02-11 19:02:00,
2013-02-11 12:03:00,47.0,27.8,30.02,West,270,8.0,8.0,47,0.00,,SKC,0.00,VWS V14.01,2013-02-11 19:03:00,
2013-02-11 12:04:00,47.0,27.3,30.03,WSW,248,6.0,8.0,46,0.00,,SKC,0.00,VWS V14.01,2013-02-11 19:04:00,
2013-02-11 12:05:00,47.0,27.3,30.03,WSW,248,6.0,7.0,46,0.00,,SKC,0.00,VWS V14.01,2013-02-11 19:05:00,
2013-02-11 12:06:00,47.0,27.3,30.02,West,270,5.0,6.0,46,0.00,,SKC,0.00,VWS V14.01,2013-02-11 19:06:00,
2013-02-11 12:07:00,47.0,27.8,30.02,West,270,6.0,8.0,47,0.00,,SKC,0.00,VWS V14.01,2013-02-11 19:07:00,
2013-02-11 12:08:00,47.0,29.3,30.02,West,270,8.0,8.0,50,0.00,,SKC,0.00,VWS V14.01,2013-02-11 19:08:00,
2013-02-11 12:09:00,47.0,28.3,30.02,West,270,7.0,8.0,48,0.00,,SKC,0.00,VWS V14.01,2013-02-11 19:09:00,
2013-02-11 12:10:00,47.0,28.9,30.02,WNW,292,5.0,5.0,49,0.00,,SKC,0.00,VWS V14.01,2013-02-11 19:10:00,
2013-02-11 12:11:00,47.0,29.3,30.03,SW,225,8.0,11.0,50,0.00,,SKC,0.00,VWS V14.01,2013-02-11 19:11:00,
2013-02-11 12:12:00,47.0,29.8,30.02,West,270,10.0,10.0,51,0.00,,SKC,0.00,VWS V14.01,2013-02-11 19:12:00,
2013-02-11 12:13:00,46.0,28.4,30.02,West,270,11.0,19.0,50,0.00,,SKC,0.00,VWS V14.01,2013-02-11 19:13:00,
2013-02-11 12:14:00,46.0,28.9,30.02,West,270,8.0,11.0,51,0.00,,SKC,0.00,VWS V14.01,2013-02-11 19:14:00,
2013-02-11 12:15:00,46.0,28.9,30.02,WNW,292,14.0,14.0,51,0.00,,SKC,0.00,VWS V14.01,2013-02-11 19:15:00,
2013-02-11 12:16:00,46.0,28.4,30.02,West,270,11.0,15.0,50,0.00,,SKC,0.00,VWS V14.01,2013-02-11 19:16:00,
2013-02-11 12:17:00,46.0,28.9,30.02,West,270,9.0,10.0,51,0.00,,SKC,0.00,VWS V14.01,2013-02-11 19:17:00,
2013-02-11 12:18:00,46.0,29.8,30.02,WSW,248,14.0,14.0,53,0.00,,SKC,0.00,VWS V14.01,2013-02-11 19:18:00,
2013-02-11 12:19:00,46.0,29.4,30.02,West,270,12.0,15.0,52,0.00,,SKC,0.00,VWS V14.01,2013-02-11 19:19:00,
2013-02-11 12:20:00,46.0,29.4,30.02,West,270,9.0,13.0,52,0.00,,SKC,0.00,VWS V14.01,2013-02-11 19:20:00,
2013-02-11 12:21:00,46.0,29.8,30.02,WSW,248,9.0,13.0,53,0.00,,SKC,0.00,VWS V14.01,2013-02-11 19:21:00,
2013-02-11 12:22:00,46.0,29.8,30.02,WSW,248,5.0,6.0,53,0.00,,SKC,0.00,VWS V14.01,2013-02-11 19:22:00,
2013-02-11 12:23:00,46.0,29.8,30.02,WSW,248,10.0,12.0,53,0.00,,SKC,0.00,VWS V14.01,2013-02-11 19:23:00,
2013-02-11 12:24:00,46.0,29.8,30.02,SW,225,9.0,11.0,53,0.00,,SKC,0.00,VWS V14.01,2013-02-11 19:24:00,
2013-02-11 12:25:00,46.0,29.8,30.02,WSW,248,10.0,11.0,53,0.00,,SKC,0.00,VWS V14.01,2013-02-11 19:25:00,
2013-02-11 12:26:00,46.0,29.8,30.02,WSW,248,9.0,11.0,53,0.00,,SKC,0.00,VWS V14.01,2013-02-11 19:26:00,
2013-02-11 12:27:00,45.0,29.4,30.02,WNW,292,8.0,10.0,54,0.00,,SKC,0.00,VWS V14.01,2013-02-11 19:27:00,
2013-02-11 12:28:00,44.0,29.8,30.02,West,270,14.0,16.0,57,0.00,,SKC,0.00,VWS V14.01,2013-02-11 19:28:00,
2013-02-11 12:29:00,45.0,31.1,30.02,West,270,13.0,16.0,58,0.00,,SKC,0.00,VWS V14.01,2013-02-11 19:29:00,
2013-02-11 12:30:00,45.0,31.1,30.02,West,270,11.0,17.0,58,0.00,,SKC,0.00,VWS V14.01,2013-02-11 19:30:00,
2013-02-11 12:31:00,45.0,30.7,30.02,West,270,18.0,18.0,57,0.00,,SKC,0.00,VWS V14.01,2013-02-11 19:31:00,
2013-02-11 12:32:00,44.0,29.8,30.02,WSW,248,12.0,12.0,57,0.00,,SKC,0.00,VWS V14.01,2013-02-11 19:32:00,
2013-02-11 12:33:00,45.0,31.5,30.03,WNW,292,12.0,13.0,59,0.00,,SKC,0.00,VWS V14.01,2013-02-11 19:33:00,
2013-02-11 12:34:00,45.0,31.5,30.03,WSW,248,7.0,8.0,59,0.00,,SKC,0.00,VWS V14.01,2013-02-11 19:34:00,
2013-02-11 12:35:00,45.0,31.5,30.03,West,270,10.0,13.0,59,0.00,,SKC,0.00,VWS V14.01,2013-02-11 19:35:00,
2013-02-11 12:36:00,45.0,31.5,30.03,West,270,7.0,8.0,59,0.00,,SKC,0.00,VWS V14.01,2013-02-11 19:36:00,
2013-02-11 12:37:00,45.0,31.5,30.03,WNW,292,10.0,13.0,59,0.00,,SKC,0.00,VWS V14.01,2013-02-11 19:37:00,
2013-02-11 12:38:00,45.0,32.4,30.03,WSW,248,12.0,12.0,61,0.00,,SKC,0.00,VWS V14.01,2013-02-11 19:38:00,
2013-02-11 12:39:00,45.0,31.5,30.03,NW,315,10.0,12.0,59,0.00,,SKC,0.00,VWS V14.01,2013-02-11 19:39:00,
2013-02-11 12:40:00,44.0,31.0,30.03,West,270,9.0,16.0,60,0.00,,SKC,0.00,VWS V14.01,2013-02-11 19:40:00,
2013-02-11 12:41:00,45.0,32.4,30.03,West,270,14.0,14.0,61,0.00,,SKC,0.00,VWS V14.01,2013-02-11 19:41:00,
2013-02-11 12:42:00,44.0,31.0,30.03,West,270,11.0,14.0,60,0.00,,SKC,0.00,VWS V14.01,2013-02-11 19:42:00,
2013-02-11 12:43:00,44.0,31.8,30.03,WNW,292,9.0,9.0,62,0.00,,SKC,0.00,VWS V14.01,2013-02-11 19:43:00,
2013-02-11 12:44:00,44.0,31.8,30.03,WSW,248,11.0,14.0,62,0.00,,SKC,0.00,VWS V14.01,2013-02-11 19:44:00,
2013-02-11 12:45:00,44.0,31.8,30.03,West,270,8.0,8.0,62,0.00,,SKC,0.00,VWS V14.01,2013-02-11 19:45:00,
2013-02-11 12:46:00,44.0,31.8,30.03,West,270,10.0,10.0,62,0.00,,SKC,0.00,VWS V14.01,2013-02-11 19:46:00,
2013-02-11 12:47:00,44.0,31.8,30.03,West,270,8.0,8.0,62,0.00,,SKC,0.00,VWS V14.01,2013-02-11 19:47:00,
2013-02-11 12:48:00,44.0,31.8,30.04,West,270,9.0,12.0,62,0.00,,SKC,0.00,VWS V14.01,2013-02-11 19:48:00,
2013-02-11 12:49:00,44.0,31.8,30.04,WSW,248,10.0,11.0,62,0.00,,SKC,0.00,VWS V14.01,2013-02-11 19:49:00,
2013-02-11 12:50:00,44.0,31.8,30.04,WSW,248,7.0,7.0,62,0.00,,SKC,0.00,VWS V14.01,2013-02-11 19:50:00,
2013-02-11 12:51:00,44.0,31.8,30.04,WSW,248,9.0,10.0,62,0.00,,SKC,0.00,VWS V14.01,2013-02-11 19:51:00,
2013-02-11 12:52:00,44.0,31.8,30.03,WNW,292,4.0,6.0,62,0.00,,SKC,0.00,VWS V14.01,2013-02-11 19:52:00,
2013-02-11 12:53:00,44.0,31.8,30.03,WSW,248,7.0,8.0,62,0.00,,SKC,0.00,VWS V14.01,2013-02-11 19:53:00,
2013-02-11 12:54:00,44.0,32.2,30.03,West,270,9.0,9.0,63,0.00,,SKC,0.00,VWS V14.01,2013-02-11 19:54:00,
2013-02-11 12:55:00,44.0,31.8,30.03,SW,225,8.0,8.0,62,0.00,,SKC,0.00,VWS V14.01,2013-02-11 19:55:00,
2013-02-11 12:56:00,44.0,32.2,30.03,WSW,248,5.0,7.0,63,0.00,,SKC,0.00,VWS V14.01,2013-02-11 19:56:00,
2013-02-11 12:57:00,44.0,32.2,30.03,WSW,248,8.0,9.0,63,0.00,,SKC,0.00,VWS V14.01,2013-02-11 19:57:00,
2013-02-11 12:58:00,44.0,31.8,30.03,WSW,248,7.0,10.0,62,0.00,,SKC,0.00,VWS V14.01,2013-02-11 19:58:00,
2013-02-11 12:59:00,44.0,31.8,30.03,SW,225,10.0,10.0,62,0.00,,SKC,0.00,VWS V14.01,2013-02-11 19:59:00,
2013-02-11 13:00:00,44.0,31.8,30.03,West,270,10.0,11.0,62,0.00,,SKC,0.00,VWS V14.01,2013-02-11 20:00:00,
2013-02-11 13:01:00,44.0,31.8,30.03,WSW,248,7.0,9.0,62,0.00,,SKC,0.00,VWS V14.01,2013-02-11 20:01:00,
2013-02-11 13:02:00,44.0,32.2,30.03,WSW,248,8.0,8.0,63,0.00,,SKC,0.00,VWS V14.01,2013-02-11 20:02:00,
2013-02-11 13:03:00,44.0,32.2,30.03,SW,225,9.0,11.0,63,0.00,,SKC,0.00,VWS V14.01,2013-02-11 20:03:00,
2013-02-11 13:04:00,44.0,31.8,30.03,WSW,248,5.0,6.0,62,0.00,,SKC,0.00,VWS V14.01,2013-02-11 20:04:00,
2013-02-11 13:05:00,44.0,32.2,30.03,South,180,5.0,5.0,63,0.00,,SKC,0.00,VWS V14.01,2013-02-11 20:05:00,
2013-02-11 13:06:00,44.0,32.2,30.03,SW,225,7.0,8.0,63,0.00,,SKC,0.00,VWS V14.01,2013-02-11 20:06:00,
2013-02-11 13:07:00,44.0,32.2,30.03,WSW,248,7.0,8.0,63,0.00,,SKC,0.00,VWS V14.01,2013-02-11 20:07:00,
2013-02-11 13:08:00,44.0,32.2,30.03,WSW,248,5.0,6.0,63,0.00,,SKC,0.00,VWS V14.01,2013-02-11 20:08:00,
2013-02-11 13:09:00,44.0,32.2,30.03,WSW,248,6.0,8.0,63,0.00,,SKC,0.00,VWS V14.01,2013-02-11 20:09:00,
2013-02-11 13:10:00,44.0,32.2,30.03,SW,225,8.0,9.0,63,0.00,,SKC,0.00,VWS V14.01,2013-02-11 20:10:00,
2013-02-11 13:11:00,44.0,32.2,30.03,WSW,248,6.0,7.0,63,0.00,,SKC,0.00,VWS V14.01,2013-02-11 20:11:00,
2013-02-11 13:12:00,44.0,32.2,30.03,WSW,248,8.0,9.0,63,0.00,,SKC,0.00,VWS V14.01,2013-02-11 20:12:00,
2013-02-11 13:13:00,44.0,32.2,30.03,SW,225,3.0,3.0,63,0.00,,SKC,0.00,VWS V14.01,2013-02-11 20:13:00,
2013-02-11 13:14:00,44.0,32.2,30.03,WNW,292,8.0,10.0,63,0.00,,SKC,0.00,VWS V14.01,2013-02-11 20:14:00,
2013-02-11 13:15:00,44.0,32.2,30.03,SW,225,4.0,5.0,63,0.00,,SKC,0.00,VWS V14.01,2013-02-11 20:15:00,
2013-02-11 13:16:00,44.0,32.2,30.03,SW,225,1.0,2.0,63,0.00,,SKC,0.00,VWS V14.01,2013-02-11 20:16:00,
2013-02-11 13:17:00,44.0,32.2,30.03,SW,225,6.0,7.0,63,0.00,,SKC,0.00,VWS V14.01,2013-02-11 20:17:00,
2013-02-11 13:18:00,44.0,31.8,30.03,WSW,248,7.0,7.0,62,0.00,,SKC,0.00,VWS V14.01,2013-02-11 20:18:00,
2013-02-11 13:19:00,44.0,32.2,30.03,WNW,292,6.0,6.0,63,0.00,,SKC,0.00,VWS V14.01,2013-02-11 20:19:00,
2013-02-11 13:20:00,44.0,32.2,30.03,WSW,248,5.0,5.0,63,0.00,,SKC,0.00,VWS V14.01,2013-02-11 20:20:00,
2013-02-11 13:21:00,44.0,31.8,30.03,WSW,248,7.0,8.0,62,0.00,,SKC,0.00,VWS V14.01,2013-02-11 20:21:00,
2013-02-11 13:22:00,44.0,31.8,30.03,West,270,10.0,10.0,62,0.00,,SKC,0.00,VWS V14.01,2013-02-11 20:22:00,
2013-02-11 13:23:00,44.0,31.4,30.03,West,270,5.0,6.0,61,0.00,,SKC,0.00,VWS V14.01,2013-02-11 20:23:00,
2013-02-11 13:24:00,44.0,31.4,30.03,West,270,4.0,5.0,61,0.00,,SKC,0.00,VWS V14.01,2013-02-11 20:24:00,
2013-02-11 13:25:00,44.0,31.8,30.03,WSW,248,8.0,9.0,62,0.00,,SKC,0.00,VWS V14.01,2013-02-11 20:25:00,
2013-02-11 13:26:00,44.0,31.4,30.03,WNW,292,6.0,6.0,61,0.00,,SKC,0.00,VWS V14.01,2013-02-11 20:26:00,
2013-02-11 13:27:00,44.0,31.4,30.03,WNW,292,4.0,5.0,61,0.00,,SKC,0.00,VWS V14.01,2013-02-11 20:27:00,
2013-02-11 13:28:00,44.0,31.0,30.03,NW,315,7.0,7.0,60,0.00,,SKC,0.00,VWS V14.01,2013-02-11 20:28:00,
2013-02-11 13:29:00,44.0,31.4,30.03,NW,315,3.0,5.0,61,0.00,,SKC,0.00,VWS V14.01,2013-02-11 20:29:00,
2013-02-11 13:30:00,44.0,31.4,30.03,WNW,292,4.0,4.0,61,0.00,,SKC,0.00,VWS V14.01,2013-02-11 20:30:00,
2013-02-11 13:31:00,44.0,31.0,30.03,WNW,292,7.0,7.0,60,0.00,,SKC,0.00,VWS V14.01,2013-02-11 20:31:00,
2013-02-11 13:32:00,44.0,31.0,30.03,WSW,248,6.0,6.0,60,0.00,,SKC,0.00,VWS V14.01,2013-02-11 20:32:00,
2013-02-11 13:33:00,44.0,31.0,30.03,WNW,292,7.0,7.0,60,0.00,,SKC,0.00,VWS V14.01,2013-02-11 20:33:00,
2013-02-11 13:34:00,44.0,31.0,30.03,WSW,248,6.0,6.0,60,0.00,,SKC,0.00,VWS V14.01,2013-02-11 20:34:00,
2013-02-11 13:35:00,44.0,31.0,30.03,WSW,248,6.0,6.0,60,0.00,,SKC,0.00,VWS V14.01,2013-02-11 20:35:00,
2013-02-11 13:36:00,44.0,30.6,30.03,West,270,6.0,7.0,59,0.00,,SKC,0.00,VWS V14.01,2013-02-11 20:36:00,
2013-02-11 13:37:00,44.0,30.6,30.03,WNW,292,5.0,6.0,59,0.00,,SKC,0.00,VWS V14.01,2013-02-11 20:37:00,
2013-02-11 13:38:00,44.0,30.6,30.03,WSW,248,5.0,5.0,59,0.00,,SKC,0.00,VWS V14.01,2013-02-11 20:38:00,
2013-02-11 13:39:00,44.0,30.2,30.03,West,270,5.0,5.0,58,0.00,,SKC,0.00,VWS V14.01,2013-02-11 20:39:00,
2013-02-11 13:40:00,44.0,30.2,30.03,WNW,292,5.0,5.0,58,0.00,,SKC,0.00,VWS V14.01,2013-02-11 20:40:00,
2013-02-11 13:41:00,44.0,30.6,30.03,West,270,4.0,5.0,59,0.00,,SKC,0.00,VWS V14.01,2013-02-11 20:41:00,
2013-02-11 13:42:00,44.0,30.2,30.03,WSW,248,11.0,11.0,58,0.00,,SKC,0.00,VWS V14.01,2013-02-11 20:42:00,
2013-02-11 13:43:00,44.0,30.2,30.03,West,270,9.0,12.0,58,0.00,,SKC,0.00,VWS V14.01,2013-02-11 20:43:00,
2013-02-11 13:44:00,44.0,31.0,30.03,WNW,292,11.0,12.0,60,0.00,,SKC,0.00,VWS V14.01,2013-02-11 20:44:00,
2013-02-11 13:45:00,43.0,29.7,30.03,West,270,8.0,9.0,59,0.00,,SKC,0.00,VWS V14.01,2013-02-11 20:45:00,
2013-02-11 13:46:00,44.0,31.0,30.03,WNW,292,11.0,11.0,60,0.00,,SKC,0.00,VWS V14.01,2013-02-11 20:46:00,
2013-02-11 13:47:00,43.0,29.7,30.03,West,270,8.0,10.0,59,0.00,,SKC,0.00,VWS V14.01,2013-02-11 20:47:00,
2013-02-11 13:48:00,43.0,30.1,30.03,West,270,12.0,13.0,60,0.00,,SKC,0.00,VWS V14.01,2013-02-11 20:48:00,
2013-02-11 13:49:00,43.0,30.9,30.03,West,270,8.0,13.0,62,0.00,,SKC,0.00,VWS V14.01,2013-02-11 20:49:00,
2013-02-11 13:50:00,43.0,30.5,30.03,West,270,10.0,10.0,61,0.00,,SKC,0.00,VWS V14.01,2013-02-11 20:50:00,
2013-02-11 13:51:00,43.0,30.9,30.03,West,270,8.0,13.0,62,0.00,,SKC,0.00,VWS V14.01,2013-02-11 20:51:00,
2013-02-11 13:52:00,43.0,30.9,30.03,SW,225,8.0,8.0,62,0.00,,SKC,0.00,VWS V14.01,2013-02-11 20:52:00,
2013-02-11 13:53:00,43.0,31.3,30.03,WSW,248,6.0,6.0,63,0.00,,SKC,0.00,VWS V14.01,2013-02-11 20:53:00,
2013-02-11 13:54:00,43.0,32.1,30.03,West,270,5.0,8.0,65,0.00,,SKC,0.00,VWS V14.01,2013-02-11 20:54:00,
2013-02-11 13:55:00,43.0,32.1,30.03,WNW,292,10.0,10.0,65,0.00,,SKC,0.00,VWS V14.01,2013-02-11 20:55:00,
2013-02-11 13:56:00,43.0,32.1,30.03,West,270,5.0,8.0,65,0.00,,SKC,0.00,VWS V14.01,2013-02-11 20:56:00,
2013-02-11 13:57:00,43.0,32.4,30.03,WNW,292,6.0,7.0,66,0.00,,SKC,0.00,VWS V14.01,2013-02-11 20:57:00,
2013-02-11 13:58:00,42.0,31.9,30.03,NW,315,6.0,7.0,67,0.00,,SKC,0.00,VWS V14.01,2013-02-11 20:58:00,
2013-02-11 13:59:00,42.0,32.2,30.03,WNW,292,4.0,5.0,68,0.00,,SKC,0.00,VWS V14.01,2013-02-11 20:59:00,
2013-02-11 14:00:00,42.0,32.2,30.03,NW,315,5.0,5.0,68,0.00,,SKC,0.00,VWS V14.01,2013-02-11 21:00:00,
2013-02-11 14:01:00,42.0,32.2,30.03,WSW,248,5.0,6.0,68,0.00,,SKC,0.00,VWS V14.01,2013-02-11 21:01:00,
2013-02-11 14:02:00,42.0,32.2,30.03,West,270,6.0,6.0,68,0.00,,SKC,0.00,VWS V14.01,2013-02-11 21:02:00,
2013-02-11 14:03:00,42.0,32.2,30.03,SW,225,7.0,7.0,68,0.00,,SKC,0.00,VWS V14.01,2013-02-11 21:03:00,
2013-02-11 14:04:00,42.0,33.3,30.03,WNW,292,5.0,5.0,71,0.00,,SKC,0.00,VWS V14.01,2013-02-11 21:04:00,
2013-02-11 14:05:00,42.0,33.3,30.03,West,270,6.0,7.0,71,0.00,,SKC,0.00,VWS V14.01,2013-02-11 21:05:00,
2013-02-11 14:06:00,42.0,33.3,30.03,WNW,292,5.0,5.0,71,0.00,,SKC,0.00,VWS V14.01,2013-02-11 21:06:00,
2013-02-11 14:07:00,41.0,32.7,30.04,WSW,248,6.0,6.0,72,0.00,,SKC,0.00,VWS V14.01,2013-02-11 21:07:00,
2013-02-11 14:08:00,41.0,33.4,30.04,NW,315,7.0,8.0,74,0.00,,SKC,0.00,VWS V14.01,2013-02-11 21:08:00,
2013-02-11 14:09:00,41.0,33.7,30.04,WNW,292,5.0,6.0,75,0.00,,SKC,0.00,VWS V14.01,2013-02-11 21:09:00,
2013-02-11 14:10:00,41.0,33.4,30.04,WNW,292,7.0,8.0,74,0.00,,SKC,0.00,VWS V14.01,2013-02-11 21:10:00,
2013-02-11 14:11:00,41.0,33.7,30.04,West,270,5.0,6.0,75,0.00,,SKC,0.00,VWS V14.01,2013-02-11 21:11:00,
2013-02-11 14:12:00,41.0,34.0,30.04,West,270,3.0,5.0,76,0.00,,SKC,0.00,VWS V14.01,2013-02-11 21:12:00,
2013-02-11 14:13:00,41.0,34.0,30.04,NW,315,3.0,3.0,76,0.00,,SKC,0.00,VWS V14.01,2013-02-11 21:13:00,
2013-02-11 14:14:00,40.0,33.4,30.04,SW,225,5.0,7.0,77,0.00,,SKC,0.00,VWS V14.01,2013-02-11 21:14:00,
2013-02-11 14:15:00,41.0,34.3,30.04,SW,225,6.0,7.0,77,0.00,,SKC,0.00,VWS V14.01,2013-02-11 21:15:00,
2013-02-11 14:16:00,40.0,33.4,30.04,WSW,248,6.0,6.0,77,0.00,,SKC,0.00,VWS V14.01,2013-02-11 21:16:00,
2013-02-11 14:17:00,40.0,33.7,30.04,WSW,248,6.0,6.0,78,0.00,,SKC,0.00,VWS V14.01,2013-02-11 21:17:00,
2013-02-11 14:18:00,40.0,34.0,30.04,NW,315,4.0,5.0,79,0.00,,SKC,0.00,VWS V14.01,2013-02-11 21:18:00,
2013-02-11 14:19:00,40.0,34.3,30.04,West,270,3.0,4.0,80,0.00,,SKC,0.00,VWS V14.01,2013-02-11 21:19:00,
2013-02-11 14:20:00,40.0,34.0,30.04,WNW,292,5.0,5.0,79,0.00,,SKC,0.00,VWS V14.01,2013-02-11 21:20:00,
2013-02-11 14:21:00,40.0,34.0,30.04,West,270,5.0,5.0,79,0.00,,SKC,0.00,VWS V14.01,2013-02-11 21:21:00,
2013-02-11 14:22:00,40.0,34.3,30.04,WNW,292,6.0,6.0,80,0.00,,SKC,0.00,VWS V14.01,2013-02-11 21:22:00,
2013-02-11 14:23:00,40.0,34.7,30.04,WNW,292,6.0,10.0,81,0.00,,SKC,0.00,VWS V14.01,2013-02-11 21:23:00,
2013-02-11 14:24:00,40.0,35.0,30.04,NNW,338,4.0,5.0,82,0.01,,SKC,0.01,VWS V14.01,2013-02-11 21:24:00,
2013-02-11 14:25:00,40.0,34.7,30.04,WNW,292,6.0,6.0,81,0.01,,SKC,0.01,VWS V14.01,2013-02-11 21:25:00,
2013-02-11 14:26:00,40.0,35.0,30.04,WNW,292,5.0,5.0,82,0.01,,SKC,0.01,VWS V14.01,2013-02-11 21:26:00,
2013-02-11 14:27:00,40.0,35.3,30.04,NW,315,7.0,8.0,83,0.01,,SKC,0.01,VWS V14.01,2013-02-11 21:27:00,
2013-02-11 14:28:00,39.0,34.3,30.04,WNW,292,5.0,8.0,83,0.01,,SKC,0.01,VWS V14.01,2013-02-11 21:28:00,
2013-02-11 14:29:00,39.0,34.6,30.04,NNW,338,6.0,8.0,84,0.01,,SKC,0.01,VWS V14.01,2013-02-11 21:29:00,
2013-02-11 14:30:00,39.0,34.6,30.04,NW,315,9.0,10.0,84,0.01,,SKC,0.01,VWS V14.01,2013-02-11 21:30:00,
2013-02-11 14:31:00,39.0,34.6,30.04,NW,315,8.0,10.0,84,0.01,,SKC,0.01,VWS V14.01,2013-02-11 21:31:00,
2013-02-11 14:32:00,39.0,34.6,30.04,WNW,292,6.0,8.0,84,0.01,,SKC,0.01,VWS V14.01,2013-02-11 21:32:00,
2013-02-11 14:33:00,39.0,34.9,30.04,WNW,292,6.0,7.0,85,0.01,,SKC,0.01,VWS V14.01,2013-02-11 21:33:00,
2013-02-11 14:34:00,39.0,34.9,30.04,NW,315,5.0,6.0,85,0.01,,SKC,0.01,VWS V14.01,2013-02-11 21:34:00,
2013-02-11 14:35:00,39.0,34.9,30.04,WNW,292,6.0,6.0,85,0.01,,SKC,0.01,VWS V14.01,2013-02-11 21:35:00,
2013-02-11 14:36:00,39.0,34.9,30.04,NW,315,6.0,7.0,85,0.01,,SKC,0.01,VWS V14.01,2013-02-11 21:36:00,
2013-02-11 14:37:00,39.0,34.9,30.04,West,270,5.0,5.0,85,0.01,,SKC,0.01,VWS V14.01,2013-02-11 21:37:00,
2013-02-11 14:38:00,39.0,35.2,30.04,WNW,292,3.0,3.0,86,0.01,,SKC,0.01,VWS V14.01,2013-02-11 21:38:00,
2013-02-11 14:39:00,39.0,35.2,30.04,WNW,292,3.0,3.0,86,0.02,,SKC,0.02,VWS V14.01,2013-02-11 21:39:00,
2013-02-11 14:40:00,39.0,35.2,30.04,NW,315,3.0,4.0,86,0.02,,SKC,0.02,VWS V14.01,2013-02-11 21:40:00,
2013-02-11 14:41:00,39.0,35.2,30.04,WNW,292,3.0,4.0,86,0.02,,SKC,0.02,VWS V14.01,2013-02-11 21:41:00,
2013-02-11 14:42:00,39.0,35.2,30.04,WNW,292,1.0,1.0,86,0.02,,SKC,0.02,VWS V14.01,2013-02-11 21:42:00,
2013-02-11 14:43:00,39.0,35.5,30.04,NW,315,2.0,2.0,87,0.02,,SKC,0.02,VWS V14.01,2013-02-11 21:43:00,
2013-02-11 14:44:00,39.0,35.5,30.04,NW,315,1.0,2.0,87,0.02,,SKC,0.02,VWS V14.01,2013-02-11 21:44:00,
2013-02-11 14:45:00,39.0,35.5,30.04,NW,315,1.0,2.0,87,0.02,,SKC,0.02,VWS V14.01,2013-02-11 21:45:00,
2013-02-11 14:46:00,39.0,35.5,30.04,NW,315,2.0,2.0,87,0.02,,SKC,0.02,VWS V14.01,2013-02-11 21:46:00,
2013-02-11 14:47:00,39.0,35.5,30.04,NW,315,0.0,1.0,87,0.02,,SKC,0.02,VWS V14.01,2013-02-11 21:47:00,
2013-02-11 14:48:00,39.0,35.5,30.04,NW,315,0.0,0.0,87,0.02,,SKC,0.02,VWS V14.01,2013-02-11 21:48:00,
2013-02-11 14:49:00,39.0,35.8,30.04,NW,315,0.0,0.0,88,0.03,,SKC,0.03,VWS V14.01,2013-02-11 21:49:00,
2013-02-11 14:50:00,39.0,35.8,30.04,NW,315,0.0,0.0,88,0.02,,SKC,0.02,VWS V14.01,2013-02-11 21:50:00,
2013-02-11 14:51:00,39.0,35.8,30.04,NW,315,0.0,0.0,88,0.02,,SKC,0.02,VWS V14.01,2013-02-11 21:51:00,
2013-02-11 14:52:00,39.0,35.8,30.04,NW,315,0.0,1.0,88,0.03,,SKC,0.03,VWS V14.01,2013-02-11 21:52:00,
2013-02-11 14:53:00,39.0,35.8,30.04,NW,315,0.0,0.0,88,0.03,,SKC,0.03,VWS V14.01,2013-02-11 21:53:00,
2013-02-11 14:54:00,39.0,35.8,30.04,NE,45,0.0,1.0,88,0.03,,SKC,0.03,VWS V14.01,2013-02-11 21:54:00,
2013-02-11 14:55:00,39.0,35.8,30.04,NE,45,0.0,0.0,88,0.03,,SKC,0.03,VWS V14.01,2013-02-11 21:55:00,
2013-02-11 14:56:00,39.0,35.8,30.04,NE,45,0.0,1.0,88,0.03,,SKC,0.03,VWS V14.01,2013-02-11 21:56:00,
2013-02-11 14:57:00,39.0,35.8,30.04,NE,45,0.0,0.0,88,0.03,,SKC,0.03,VWS V14.01,2013-02-11 21:57:00,
2013-02-11 14:58:00,39.0,35.8,30.04,NE,45,0.0,0.0,88,0.03,,SKC,0.03,VWS V14.01,2013-02-11 21:58:00,
2013-02-11 14:59:00,39.0,35.8,30.04,NE,45,0.0,0.0,88,0.03,,SKC,0.03,VWS V14.01,2013-02-11 21:59:00,
2013-02-11 15:00:00,39.0,35.8,30.04,NE,45,1.0,1.0,88,0.03,,SKC,0.03,VWS V14.01,2013-02-11 22:00:00,
2013-02-11 15:01:00,39.0,35.8,30.04,NE,45,0.0,0.0,88,0.03,,SKC,0.03,VWS V14.01,2013-02-11 22:01:00,
2013-02-11 15:02:00,39.0,35.8,30.04,NE,45,0.0,1.0,88,0.03,,SKC,0.03,VWS V14.01,2013-02-11 22:02:00,
2013-02-11 15:03:00,39.0,35.8,30.04,NE,45,0.0,0.0,88,0.03,,SKC,0.03,VWS V14.01,2013-02-11 22:03:00,
2013-02-11 15:04:00,39.0,36.0,30.04,North,0,1.0,1.0,89,0.03,,SKC,0.03,VWS V14.01,2013-02-11 22:04:00,
2013-02-11 15:05:00,39.0,36.0,30.04,NE,45,0.0,0.0,89,0.03,,SKC,0.03,VWS V14.01,2013-02-11 22:05:00,
2013-02-11 15:06:00,39.0,36.0,30.04,North,0,2.0,3.0,89,0.03,,SKC,0.03,VWS V14.01,2013-02-11 22:06:00,
2013-02-11 15:07:00,39.0,36.0,30.04,North,0,1.0,1.0,89,0.03,,SKC,0.03,VWS V14.01,2013-02-11 22:07:00,
2013-02-11 15:08:00,39.0,36.0,30.04,North,0,0.0,0.0,89,0.03,,SKC,0.03,VWS V14.01,2013-02-11 22:08:00,
2013-02-11 15:09:00,39.0,36.0,30.04,North,0,0.0,0.0,89,0.03,,SKC,0.03,VWS V14.01,2013-02-11 22:09:00,
2013-02-11 15:10:00,39.0,36.0,30.04,North,0,0.0,0.0,89,0.03,,SKC,0.03,VWS V14.01,2013-02-11 22:10:00,
2013-02-11 15:11:00,39.0,36.0,30.04,North,0,0.0,0.0,89,0.03,,SKC,0.03,VWS V14.01,2013-02-11 22:11:00,
2013-02-11 15:12:00,39.0,36.0,30.04,North,0,0.0,0.0,89,0.03,,SKC,0.03,VWS V14.01,2013-02-11 22:12:00,
2013-02-11 15:13:00,39.0,36.0,30.04,North,0,0.0,0.0,89,0.03,,SKC,0.03,VWS V14.01,2013-02-11 22:13:00,
2013-02-11 15:14:00,39.0,36.0,30.04,ENE,68,4.0,5.0,89,0.03,,SKC,0.03,VWS V14.01,2013-02-11 22:14:00,
2013-02-11 15:15:00,38.0,35.0,30.04,ENE,68,3.0,3.0,89,0.03,,SKC,0.03,VWS V14.01,2013-02-11 22:15:00,
2013-02-11 15:16:00,39.0,36.0,30.04,ENE,68,5.0,5.0,89,0.03,,SKC,0.03,VWS V14.01,2013-02-11 22:16:00,
2013-02-11 15:17:00,39.0,36.0,30.04,ENE,68,4.0,4.0,89,0.03,,SKC,0.03,VWS V14.01,2013-02-11 22:17:00,
2013-02-11 15:18:00,39.0,36.3,30.04,NE,45,3.0,4.0,90,0.03,,SKC,0.03,VWS V14.01,2013-02-11 22:18:00,
2013-02-11 15:19:00,39.0,36.3,30.04,NE,45,3.0,3.0,90,0.04,,SKC,0.04,VWS V14.01,2013-02-11 22:19:00,
2013-02-11 15:20:00,39.0,36.3,30.04,ENE,68,5.0,5.0,90,0.04,,SKC,0.04,VWS V14.01,2013-02-11 22:20:00,
2013-02-11 15:21:00,39.0,36.3,30.04,ENE,68,4.0,4.0,90,0.04,,SKC,0.04,VWS V14.01,2013-02-11 22:21:00,
2013-02-11 15:22:00,39.0,36.6,30.04,ENE,68,4.0,5.0,91,0.04,,SKC,0.04,VWS V14.01,2013-02-11 22:22:00,
2013-02-11 15:23:00,39.0,36.6,30.04,ENE,68,3.0,3.0,91,0.04,,SKC,0.04,VWS V14.01,2013-02-11 22:23:00,
2013-02-11 15:24:00,38.0,35.6,30.04,ENE,68,3.0,4.0,91,0.04,,SKC,0.05,VWS V14.01,2013-02-11 22:24:00,
2013-02-11 15:25:00,38.0,35.6,30.04,East,90,4.0,5.0,91,0.05,,SKC,0.05,VWS V14.01,2013-02-11 22:25:00,
2013-02-11 15:26:00,38.0,35.6,30.04,ENE,68,3.0,4.0,91,0.04,,SKC,0.05,VWS V14.01,2013-02-11 22:26:00,
2013-02-11 15:27:00,38.0,35.6,30.04,ENE,68,3.0,3.0,91,0.04,,SKC,0.05,VWS V14.01,2013-02-11 22:27:00,
2013-02-11 15:28:00,38.0,35.6,30.04,ENE,68,1.0,1.0,91,0.04,,SKC,0.05,VWS V14.01,2013-02-11 22:28:00,
2013-02-11 15:29:00,38.0,35.9,30.04,NE,45,1.0,1.0,92,0.04,,SKC,0.05,VWS V14.01,2013-02-11 22:29:00,
2013-02-11 15:30:00,38.0,35.9,30.04,NE,45,1.0,2.0,92,0.04,,SKC,0.05,VWS V14.01,2013-02-11 22:30:00,
2013-02-11 15:31:00,38.0,35.9,30.04,NE,45,1.0,1.0,92,0.04,,SKC,0.05,VWS V14.01,2013-02-11 22:31:00,
2013-02-11 15:32:00,38.0,35.9,30.04,NE,45,1.0,1.0,92,0.04,,SKC,0.05,VWS V14.01,2013-02-11 22:32:00,
2013-02-11 15:33:00,38.0,35.9,30.04,NE,45,2.0,3.0,92,0.04,,SKC,0.05,VWS V14.01,2013-02-11 22:33:00,
2013-02-11 15:34:00,38.0,35.9,30.04,NE,45,0.0,1.0,92,0.05,,SKC,0.06,VWS V14.01,2013-02-11 22:34:00,
2013-02-11 15:35:00,38.0,35.9,30.04,NE,45,1.0,2.0,92,0.05,,SKC,0.06,VWS V14.01,2013-02-11 22:35:00,
2013-02-11 15:36:00,38.0,35.9,30.04,NE,45,1.0,2.0,92,0.05,,SKC,0.06,VWS V14.01,2013-02-11 22:36:00,
2013-02-11 15:37:00,38.0,35.9,30.04,NNE,22,0.0,0.0,92,0.05,,SKC,0.06,VWS V14.01,2013-02-11 22:37:00,
2013-02-11 15:38:00,38.0,35.9,30.04,NNW,338,0.0,0.0,92,0.05,,SKC,0.06,VWS V14.01,2013-02-11 22:38:00,
2013-02-11 15:39:00,38.0,36.2,30.04,NNE,22,2.0,3.0,93,0.04,,SKC,0.06,VWS V14.01,2013-02-11 22:39:00,
2013-02-11 15:40:00,38.0,36.2,30.04,NNW,338,3.0,4.0,93,0.04,,SKC,0.06,VWS V14.01,2013-02-11 22:40:00,
2013-02-11 15:41:00,38.0,36.2,30.04,North,0,2.0,3.0,93,0.04,,SKC,0.06,VWS V14.01,2013-02-11 22:41:00,
2013-02-11 15:42:00,38.0,36.2,30.04,North,0,1.0,1.0,93,0.05,,SKC,0.07,VWS V14.01,2013-02-11 22:42:00,
2013-02-11 15:43:00,38.0,36.2,30.04,NW,315,0.0,0.0,93,0.05,,SKC,0.07,VWS V14.01,2013-02-11 22:43:00,
2013-02-11 15:44:00,38.0,36.2,30.04,North,0,0.0,0.0,93,0.05,,SKC,0.07,VWS V14.01,2013-02-11 22:44:00,
2013-02-11 15:45:00,38.0,36.2,30.04,NNW,338,0.0,0.0,93,0.05,,SKC,0.07,VWS V14.01,2013-02-11 22:45:00,
2013-02-11 15:46:00,38.0,36.2,30.04,North,0,1.0,1.0,93,0.05,,SKC,0.07,VWS V14.01,2013-02-11 22:46:00,
2013-02-11 15:47:00,38.0,36.2,30.04,NNW,338,0.0,1.0,93,0.05,,SKC,0.07,VWS V14.01,2013-02-11 22:47:00,
2013-02-11 15:48:00,38.0,36.2,30.04,NNW,338,3.0,3.0,93,0.05,,SKC,0.07,VWS V14.01,2013-02-11 22:48:00,
2013-02-11 15:49:00,38.0,36.4,30.04,North,0,3.0,3.0,94,0.05,,SKC,0.07,VWS V14.01,2013-02-11 22:49:00,
2013-02-11 15:50:00,38.0,36.4,30.04,NNW,338,3.0,3.0,94,0.05,,SKC,0.07,VWS V14.01,2013-02-11 22:50:00,
2013-02-11 15:51:00,38.0,36.4,30.04,North,0,0.0,1.0,94,0.05,,SKC,0.07,VWS V14.01,2013-02-11 22:51:00,
2013-02-11 15:52:00,38.0,36.4,30.04,NNW,338,3.0,4.0,94,0.05,,SKC,0.07,VWS V14.01,2013-02-11 22:52:00,
2013-02-11 15:53:00,38.0,36.4,30.04,NNE,22,3.0,5.0,94,0.04,,SKC,0.07,VWS V14.01,2013-02-11 22:53:00,
2013-02-11 15:54:00,38.0,36.4,30.04,North,0,3.0,3.0,94,0.05,,SKC,0.08,VWS V14.01,2013-02-11 22:54:00,
2013-02-11 15:55:00,38.0,36.4,30.04,NW,315,0.0,1.0,94,0.04,,SKC,0.07,VWS V14.01,2013-02-11 22:55:00,
2013-02-11 15:56:00,38.0,36.4,30.04,North,0,2.0,2.0,94,0.05,,SKC,0.08,VWS V14.01,2013-02-11 22:56:00,
2013-02-11 15:57:00,38.0,36.4,30.04,North,0,1.0,1.0,94,0.05,,SKC,0.08,VWS V14.01,2013-02-11 22:57:00,
2013-02-11 15:58:00,38.0,36.4,30.04,NNE,22,2.0,2.0,94,0.05,,SKC,0.08,VWS V14.01,2013-02-11 22:58:00,
2013-02-11 15:59:00,38.0,36.4,30.04,NNW,338,0.0,1.0,94,0.06,,SKC,0.09,VWS V14.01,2013-02-11 22:59:00,
2013-02-11 16:00:00,38.0,36.4,30.04,North,0,0.0,1.0,94,0.06,,SKC,0.09,VWS V14.01,2013-02-11 23:00:00,
2013-02-11 16:01:00,38.0,36.4,30.04,NNE,22,1.0,1.0,94,0.06,,SKC,0.09,VWS V14.01,2013-02-11 23:01:00,
2013-02-11 16:02:00,38.0,36.7,30.04,NNE,22,3.0,3.0,95,0.06,,SKC,0.09,VWS V14.01,2013-02-11 23:02:00,
2013-02-11 16:03:00,38.0,36.7,30.04,NNE,22,3.0,3.0,95,0.06,,SKC,0.09,VWS V14.01,2013-02-11 23:03:00,
2013-02-11 16:04:00,37.0,35.7,30.04,NE,45,2.0,3.0,95,0.06,,SKC,0.09,VWS V14.01,2013-02-11 23:04:00,
2013-02-11 16:05:00,37.0,35.4,30.04,NNE,22,1.0,4.0,94,0.06,,SKC,0.09,VWS V14.01,2013-02-11 23:05:00,
2013-02-11 16:06:00,37.0,35.7,30.04,North,0,0.0,1.0,95,0.06,,SKC,0.09,VWS V14.01,2013-02-11 23:06:00,
2013-02-11 16:07:00,37.0,35.7,30.04,NE,45,1.0,2.0,95,0.06,,SKC,0.09,VWS V14.01,2013-02-11 23:07:00,
2013-02-11 16:08:00,37.0,35.7,30.04,NNE,22,1.0,1.0,95,0.06,,SKC,0.09,VWS V14.01,2013-02-11 23:08:00,
2013-02-11 16:09:00,37.0,35.7,30.04,NE,45,0.0,0.0,95,0.06,,SKC,0.09,VWS V14.01,2013-02-11 23:09:00,
2013-02-11 16:10:00,37.0,35.7,30.04,NE,45,2.0,2.0,95,0.06,,SKC,0.09,VWS V14.01,2013-02-11 23:10:00,
2013-02-11 16:11:00,37.0,35.7,30.04,NE,45,0.0,0.0,95,0.06,,SKC,0.09,VWS V14.01,2013-02-11 23:11:00,
2013-02-11 16:12:00,37.0,35.7,30.04,NE,45,0.0,0.0,95,0.06,,SKC,0.09,VWS V14.01,2013-02-11 23:12:00,
2013-02-11 16:13:00,37.0,35.7,30.04,NE,45,0.0,0.0,95,0.06,,SKC,0.09,VWS V14.01,2013-02-11 23:13:00,
2013-02-11 16:14:00,37.0,35.7,30.05,NE,45,0.0,0.0,95,0.06,,SKC,0.09,VWS V14.01,2013-02-11 23:14:00,
2013-02-11 16:15:00,37.0,35.7,30.04,NE,45,0.0,0.0,95,0.06,,SKC,0.09,VWS V14.01,2013-02-11 23:15:00,
2013-02-11 16:16:00,37.0,35.7,30.04,NE,45,1.0,1.0,95,0.06,,SKC,0.09,VWS V14.01,2013-02-11 23:16:00,
2013-02-11 16:17:00,37.0,36.0,30.05,NE,45,0.0,0.0,96,0.06,,SKC,0.09,VWS V14.01,2013-02-11 23:17:00,
2013-02-11 16:18:00,37.0,36.0,30.05,NE,45,0.0,1.0,96,0.06,,SKC,0.09,VWS V14.01,2013-02-11 23:18:00,
2013-02-11 16:19:00,38.0,37.0,30.05,NNE,22,0.0,0.0,96,0.05,,SKC,0.09,VWS V14.01,2013-02-11 23:19:00,
2013-02-11 16:20:00,38.0,37.0,30.05,NNE,22,0.0,0.0,96,0.05,,SKC,0.09,VWS V14.01,2013-02-11 23:20:00,
2013-02-11 16:21:00,38.0,37.0,30.05,NNE,22,0.0,1.0,96,0.05,,SKC,0.09,VWS V14.01,2013-02-11 23:21:00,
2013-02-11 16:22:00,38.0,37.0,30.05,NNW,338,2.0,3.0,96,0.05,,SKC,0.09,VWS V14.01,2013-02-11 23:22:00,
2013-02-11 16:23:00,38.0,37.0,30.05,North,0,1.0,2.0,96,0.05,,SKC,0.09,VWS V14.01,2013-02-11 23:23:00,
2013-02-11 16:24:00,38.0,37.0,30.05,NNE,22,1.0,1.0,96,0.05,,SKC,0.10,VWS V14.01,2013-02-11 23:24:00,
2013-02-11 16:25:00,38.0,37.0,30.05,NNE,22,1.0,2.0,96,0.06,,SKC,0.10,VWS V14.01,2013-02-11 23:25:00,
2013-02-11 16:26:00,38.0,37.0,30.05,NNE,22,3.0,3.0,96,0.05,,SKC,0.10,VWS V14.01,2013-02-11 23:26:00,
2013-02-11 16:27:00,38.0,37.0,30.05,NNE,22,0.0,0.0,96,0.05,,SKC,0.10,VWS V14.01,2013-02-11 23:27:00,
2013-02-11 16:28:00,38.0,37.0,30.05,NNE,22,0.0,0.0,96,0.05,,SKC,0.10,VWS V14.01,2013-02-11 23:28:00,
2013-02-11 16:29:00,38.0,37.0,30.05,NNE,22,1.0,1.0,96,0.05,,SKC,0.10,VWS V14.01,2013-02-11 23:29:00,
2013-02-11 16:30:00,38.0,37.0,30.05,NNE,22,1.0,3.0,96,0.05,,SKC,0.10,VWS V14.01,2013-02-11 23:30:00,
2013-02-11 16:31:00,38.0,37.0,30.05,NNE,22,1.0,1.0,96,0.05,,SKC,0.10,VWS V14.01,2013-02-11 23:31:00,
2013-02-11 16:32:00,38.0,37.0,30.05,NNW,338,2.0,2.0,96,0.05,,SKC,0.10,VWS V14.01,2013-02-11 23:32:00,
2013-02-11 16:33:00,38.0,37.0,30.05,North,0,0.0,0.0,96,0.05,,SKC,0.10,VWS V14.01,2013-02-11 23:33:00,
2013-02-11 16:34:00,38.0,37.0,30.05,NE,45,0.0,1.0,96,0.04,,SKC,0.10,VWS V14.01,2013-02-11 23:34:00,
2013-02-11 16:35:00,38.0,37.0,30.05,NE,45,2.0,3.0,96,0.04,,SKC,0.10,VWS V14.01,2013-02-11 23:35:00,
2013-02-11 16:36:00,38.0,37.0,30.05,NNE,22,2.0,3.0,96,0.04,,SKC,0.10,VWS V14.01,2013-02-11 23:36:00,
2013-02-11 16:37:00,38.0,37.0,30.05,NNE,22,0.0,1.0,96,0.04,,SKC,0.10,VWS V14.01,2013-02-11 23:37:00,
2013-02-11 16:38:00,38.0,37.0,30.05,NE,45,0.0,1.0,96,0.04,,SKC,0.10,VWS V14.01,2013-02-11 23:38:00,
2013-02-11 16:39:00,38.0,37.2,30.05,NE,45,0.0,1.0,97,0.04,,SKC,0.10,VWS V14.01,2013-02-11 23:39:00,
2013-02-11 16:40:00,38.0,37.2,30.05,NE,45,1.0,1.0,97,0.04,,SKC,0.10,VWS V14.01,2013-02-11 23:40:00,
2013-02-11 16:41:00,38.0,37.2,30.05,ENE,68,3.0,3.0,97,0.04,,SKC,0.10,VWS V14.01,2013-02-11 23:41:00,
2013-02-11 16:42:00,38.0,37.2,30.05,NE,45,0.0,0.0,97,0.04,,SKC,0.10,VWS V14.01,2013-02-11 23:42:00,
2013-02-11 16:43:00,38.0,37.2,30.05,NE,45,0.0,1.0,97,0.03,,SKC,0.10,VWS V14.01,2013-02-11 23:43:00,
2013-02-11 16:44:00,38.0,37.2,30.05,NE,45,1.0,3.0,97,0.03,,SKC,0.10,VWS V14.01,2013-02-11 23:44:00,
2013-02-11 16:45:00,38.0,37.2,30.05,NE,45,1.0,3.0,97,0.03,,SKC,0.10,VWS V14.01,2013-02-11 23:45:00,
2013-02-11 16:46:00,38.0,37.2,30.05,NNE,22,1.0,2.0,97,0.03,,SKC,0.10,VWS V14.01,2013-02-11 23:46:00,
2013-02-11 16:47:00,38.0,37.2,30.05,NE,45,1.0,1.0,97,0.03,,SKC,0.10,VWS V14.01,2013-02-11 23:47:00,
2013-02-11 16:48:00,38.0,37.2,30.05,North,0,2.0,4.0,97,0.03,,SKC,0.10,VWS V14.01,2013-02-11 23:48:00,
2013-02-11 16:49:00,38.0,37.2,30.05,NNE,22,2.0,3.0,97,0.03,,SKC,0.10,VWS V14.01,2013-02-11 23:49:00,
2013-02-11 16:50:00,38.0,37.2,30.05,NE,45,3.0,3.0,97,0.03,,SKC,0.10,VWS V14.01,2013-02-11 23:50:00,
2013-02-11 16:51:00,38.0,37.2,30.05,ENE,68,2.0,3.0,97,0.03,,SKC,0.10,VWS V14.01,2013-02-11 23:51:00,
2013-02-11 16:52:00,38.0,37.2,30.05,NE,45,1.0,3.0,97,0.03,,SKC,0.10,VWS V14.01,2013-02-11 23:52:00,
2013-02-11 16:53:00,38.0,37.2,30.05,NE,45,0.0,0.0,97,0.03,,SKC,0.10,VWS V14.01,2013-02-11 23:53:00,
2013-02-11 16:54:00,38.0,37.2,30.05,North,0,3.0,3.0,97,0.02,,SKC,0.10,VWS V14.01,2013-02-11 23:54:00,
2013-02-11 16:55:00,38.0,37.2,30.05,NNE,22,2.0,3.0,97,0.03,,SKC,0.10,VWS V14.01,2013-02-11 23:55:00,
2013-02-11 16:56:00,38.0,37.2,30.05,NE,45,1.0,1.0,97,0.03,,SKC,0.10,VWS V14.01,2013-02-11 23:56:00,
2013-02-11 16:57:00,38.0,37.2,30.05,NE,45,3.0,4.0,97,0.02,,SKC,0.10,VWS V14.01,2013-02-11 23:57:00,
2013-02-11 16:58:00,38.0,37.2,30.05,NE,45,2.0,3.0,97,0.02,,SKC,0.10,VWS V14.01,2013-02-11 23:58:00,
2013-02-11 16:59:00,38.0,37.2,30.04,NE,45,2.0,4.0,97,0.01,,SKC,0.10,VWS V14.01,2013-02-11 23:59:00,
2013-02-11 17:00:00,38.0,37.2,30.04,NE,45,3.0,3.0,97,0.02,,SKC,0.10,VWS V14.01,2013-02-12 00:00:00,
2013-02-11 17:01:00,38.0,37.2,30.04,North,0,7.0,8.0,97,0.01,,SKC,0.10,VWS V14.01,2013-02-12 00:01:00,
2013-02-11 17:02:00,38.0,37.2,30.04,NNE,22,4.0,4.0,97,0.01,,SKC,0.10,VWS V14.01,2013-02-12 00:02:00,
2013-02-11 17:03:00,38.0,37.2,30.04,NNE,22,3.0,4.0,97,0.01,,SKC,0.10,VWS V14.01,2013-02-12 00:03:00,
2013-02-11 17:04:00,38.0,37.2,30.04,NNE,22,3.0,5.0,97,0.01,,SKC,0.10,VWS V14.01,2013-02-12 00:04:00,
2013-02-11 17:05:00,38.0,37.5,30.04,NNE,22,5.0,7.0,98,0.01,,SKC,0.10,VWS V14.01,2013-02-12 00:05:00,
2013-02-11 17:06:00,38.0,37.2,30.04,NE,45,3.0,3.0,97,0.01,,SKC,0.10,VWS V14.01,2013-02-12 00:06:00,
2013-02-11 17:07:00,38.0,37.2,30.04,NE,45,3.0,4.0,97,0.01,,SKC,0.10,VWS V14.01,2013-02-12 00:07:00,
2013-02-11 17:08:00,38.0,37.2,30.04,NNE,22,3.0,4.0,97,0.01,,SKC,0.10,VWS V14.01,2013-02-12 00:08:00,
2013-02-11 17:09:00,38.0,37.5,30.04,North,0,3.0,3.0,98,0.01,,SKC,0.10,VWS V14.01,2013-02-12 00:09:00,
2013-02-11 17:10:00,38.0,37.5,30.04,NE,45,3.0,5.0,98,0.01,,SKC,0.10,VWS V14.01,2013-02-12 00:10:00,
2013-02-11 17:11:00,38.0,37.5,30.04,North,0,4.0,5.0,98,0.01,,SKC,0.10,VWS V14.01,2013-02-12 00:11:00,
2013-02-11 17:12:00,38.0,37.5,30.04,NNE,22,2.0,3.0,98,0.01,,SKC,0.10,VWS V14.01,2013-02-12 00:12:00,
2013-02-11 17:13:00,38.0,37.5,30.04,North,0,2.0,3.0,98,0.01,,SKC,0.10,VWS V14.01,2013-02-12 00:13:00,
2013-02-11 17:14:00,38.0,37.5,30.04,NNE,22,0.0,1.0,98,0.01,,SKC,0.10,VWS V14.01,2013-02-12 00:14:00,
2013-02-11 17:15:00,38.0,37.5,30.04,NE,45,3.0,3.0,98,0.01,,SKC,0.10,VWS V14.01,2013-02-12 00:15:00,
2013-02-11 17:16:00,38.0,37.5,30.04,NE,45,1.0,3.0,98,0.01,,SKC,0.10,VWS V14.01,2013-02-12 00:16:00,
2013-02-11 17:17:00,38.0,37.5,30.04,NNE,22,0.0,0.0,98,0.01,,SKC,0.10,VWS V14.01,2013-02-12 00:17:00,
2013-02-11 17:18:00,38.0,37.5,30.04,NNE,22,2.0,2.0,98,0.01,,SKC,0.10,VWS V14.01,2013-02-12 00:18:00,
2013-02-11 17:19:00,38.0,37.5,30.04,North,0,3.0,3.0,98,0.01,,SKC,0.10,VWS V14.01,2013-02-12 00:19:00,
2013-02-11 17:20:00,38.0,37.5,30.04,NE,45,3.0,6.0,98,0.01,,SKC,0.10,VWS V14.01,2013-02-12 00:20:00,
2013-02-11 17:21:00,38.0,37.5,30.04,NNE,22,3.0,4.0,98,0.01,,SKC,0.10,VWS V14.01,2013-02-12 00:21:00,
2013-02-11 17:22:00,38.0,37.5,30.04,NNE,22,3.0,3.0,98,0.01,,SKC,0.10,VWS V14.01,2013-02-12 00:22:00,
2013-02-11 17:23:00,38.0,37.5,30.04,North,0,0.0,1.0,98,0.01,,SKC,0.10,VWS V14.01,2013-02-12 00:23:00,
2013-02-11 17:24:00,38.0,37.5,30.05,North,0,1.0,3.0,98,0.00,,SKC,0.10,VWS V14.01,2013-02-12 00:24:00,
2013-02-11 17:25:00,38.0,37.5,30.05,NNE,22,0.0,0.0,98,0.01,,SKC,0.10,VWS V14.01,2013-02-12 00:25:00,
2013-02-11 17:26:00,38.0,37.5,30.05,NE,45,2.0,3.0,98,0.00,,SKC,0.10,VWS V14.01,2013-02-12 00:26:00,
2013-02-11 17:27:00,38.0,37.5,30.05,North,0,2.0,2.0,98,0.00,,SKC,0.10,VWS V14.01,2013-02-12 00:27:00,
2013-02-11 17:28:00,38.0,37.5,30.05,NNE,22,1.0,2.0,98,0.00,,SKC,0.10,VWS V14.01,2013-02-12 00:28:00,
2013-02-11 17:29:00,38.0,37.5,30.05,North,0,0.0,0.0,98,0.00,,SKC,0.10,VWS V14.01,2013-02-12 00:29:00,
2013-02-11 17:30:00,38.0,37.5,30.05,North,0,4.0,5.0,98,0.00,,SKC,0.10,VWS V14.01,2013-02-12 00:30:00,
2013-02-11 17:31:00,38.0,37.5,30.05,NNW,338,1.0,3.0,98,0.00,,SKC,0.10,VWS V14.01,2013-02-12 00:31:00,
2013-02-11 17:32:00,38.0,37.5,30.05,North,0,1.0,1.0,98,0.00,,SKC,0.10,VWS V14.01,2013-02-12 00:32:00,
2013-02-11 17:33:00,38.0,37.5,30.05,North,0,0.0,1.0,98,0.00,,SKC,0.10,VWS V14.01,2013-02-12 00:33:00,
2013-02-11 17:34:00,38.0,37.5,30.05,North,0,0.0,0.0,98,0.00,,SKC,0.10,VWS V14.01,2013-02-12 00:34:00,
2013-02-11 17:35:00,38.0,37.5,30.05,NNW,338,0.0,0.0,98,0.00,,SKC,0.10,VWS V14.01,2013-02-12 00:35:00,
2013-02-11 17:36:00,38.0,37.5,30.05,North,0,0.0,1.0,98,0.00,,SKC,0.10,VWS V14.01,2013-02-12 00:36:00,
2013-02-11 17:37:00,38.0,37.5,30.05,North,0,0.0,0.0,98,0.00,,SKC,0.10,VWS V14.01,2013-02-12 00:37:00,
2013-02-11 17:38:00,38.0,37.5,30.05,North,0,1.0,2.0,98,0.00,,SKC,0.10,VWS V14.01,2013-02-12 00:38:00,
2013-02-11 17:39:00,38.0,37.5,30.05,North,0,3.0,3.0,98,0.00,,SKC,0.10,VWS V14.01,2013-02-12 00:39:00,
2013-02-11 17:40:00,38.0,37.5,30.05,North,0,1.0,2.0,98,0.00,,SKC,0.10,VWS V14.01,2013-02-12 00:40:00,
2013-02-11 17:41:00,38.0,37.5,30.05,NNW,338,3.0,4.0,98,0.00,,SKC,0.10,VWS V14.01,2013-02-12 00:41:00,
2013-02-11 17:42:00,38.0,37.5,30.05,NNE,22,3.0,3.0,98,0.00,,SKC,0.10,VWS V14.01,2013-02-12 00:42:00,
2013-02-11 17:43:00,38.0,37.5,30.05,North,0,0.0,0.0,98,0.00,,SKC,0.10,VWS V14.01,2013-02-12 00:43:00,
2013-02-11 17:44:00,38.0,37.5,30.05,North,0,0.0,1.0,98,0.00,,SKC,0.10,VWS V14.01,2013-02-12 00:44:00,
2013-02-11 17:45:00,38.0,37.5,30.05,North,0,0.0,0.0,98,0.00,,SKC,0.10,VWS V14.01,2013-02-12 00:45:00,
2013-02-11 17:46:00,38.0,37.5,30.05,North,0,0.0,1.0,98,0.00,,SKC,0.10,VWS V14.01,2013-02-12 00:46:00,
2013-02-11 17:47:00,38.0,37.5,30.05,North,0,0.0,1.0,98,0.00,,SKC,0.10,VWS V14.01,2013-02-12 00:47:00,
2013-02-11 17:48:00,38.0,37.5,30.05,North,0,0.0,0.0,98,0.00,,SKC,0.10,VWS V14.01,2013-02-12 00:48:00,
2013-02-11 17:49:00,38.0,37.5,30.05,NNW,338,2.0,3.0,98,0.00,,SKC,0.10,VWS V14.01,2013-02-12 00:49:00,
2013-02-11 17:50:00,38.0,37.5,30.05,NW,315,2.0,2.0,98,0.00,,SKC,0.10,VWS V14.01,2013-02-12 00:50:00,
2013-02-11 17:51:00,38.0,37.5,30.05,NW,315,3.0,3.0,98,0.00,,SKC,0.10,VWS V14.01,2013-02-12 00:51:00,
2013-02-11 17:52:00,38.0,37.5,30.05,NW,315,3.0,3.0,98,0.00,,SKC,0.10,VWS V14.01,2013-02-12 00:52:00,
2013-02-11 17:53:00,38.0,37.5,30.05,NW,315,3.0,4.0,98,0.00,,SKC,0.10,VWS V14.01,2013-02-12 00:53:00,
2013-02-11 17:54:00,38.0,37.5,30.05,WNW,292,3.0,3.0,98,0.00,,SKC,0.10,VWS V14.01,2013-02-12 00:54:00,
2013-02-11 17:55:00,38.0,37.5,30.05,NW,315,4.0,5.0,98,0.00,,SKC,0.10,VWS V14.01,2013-02-12 00:55:00,
2013-02-11 17:56:00,38.0,37.5,30.05,NW,315,3.0,4.0,98,0.00,,SKC,0.10,VWS V14.01,2013-02-12 00:56:00,
2013-02-11 17:57:00,38.0,37.5,30.05,WNW,292,3.0,3.0,98,0.00,,SKC,0.10,VWS V14.01,2013-02-12 00:57:00,
2013-02-11 17:58:00,38.0,37.5,30.05,WNW,292,4.0,5.0,98,0.00,,SKC,0.10,VWS V14.01,2013-02-12 00:58:00,
2013-02-11 17:59:00,38.0,37.5,30.05,WNW,292,5.0,5.0,98,0.00,,SKC,0.10,VWS V14.01,2013-02-12 00:59:00,
2013-02-11 18:00:00,38.0,37.5,30.05,WNW,292,3.0,4.0,98,0.00,,SKC,0.10,VWS V14.01,2013-02-12 01:00:00,
2013-02-11 18:01:00,38.0,37.5,30.05,West,270,4.0,4.0,98,0.00,,SKC,0.10,VWS V14.01,2013-02-12 01:01:00,
2013-02-11 18:02:00,38.0,37.5,30.05,WNW,292,3.0,4.0,98,0.00,,SKC,0.10,VWS V14.01,2013-02-12 01:02:00,
2013-02-11 18:03:00,38.0,37.5,30.05,NW,315,4.0,5.0,98,0.00,,SKC,0.10,VWS V14.01,2013-02-12 01:03:00,
2013-02-11 18:04:00,38.0,37.5,30.05,NW,315,5.0,5.0,98,0.00,,SKC,0.10,VWS V14.01,2013-02-12 01:04:00,
2013-02-11 18:05:00,38.0,37.5,30.06,NW,315,4.0,5.0,98,0.00,,SKC,0.10,VWS V14.01,2013-02-12 01:05:00,
2013-02-11 18:06:00,38.0,37.5,30.05,NW,315,4.0,5.0,98,0.00,,SKC,0.10,VWS V14.01,2013-02-12 01:06:00,
2013-02-11 18:07:00,38.0,37.5,30.06,NW,315,4.0,5.0,98,0.00,,SKC,0.10,VWS V14.01,2013-02-12 01:07:00,
2013-02-11 18:08:00,38.0,37.5,30.06,NW,315,5.0,5.0,98,0.00,,SKC,0.10,VWS V14.01,2013-02-12 01:08:00,
2013-02-11 18:09:00,38.0,37.5,30.06,NW,315,4.0,5.0,98,0.00,,SKC,0.10,VWS V14.01,2013-02-12 01:09:00,
2013-02-11 18:10:00,38.0,37.5,30.06,WNW,292,3.0,3.0,98,0.00,,SKC,0.10,VWS V14.01,2013-02-12 01:10:00,
2013-02-11 18:11:00,38.0,37.5,30.06,NW,315,3.0,3.0,98,0.00,,SKC,0.10,VWS V14.01,2013-02-12 01:11:00,
2013-02-11 18:12:00,38.0,37.5,30.06,WNW,292,3.0,3.0,98,0.00,,SKC,0.10,VWS V14.01,2013-02-12 01:12:00,
2013-02-11 18:13:00,38.0,37.5,30.06,WNW,292,3.0,3.0,98,0.00,,SKC,0.10,VWS V14.01,2013-02-12 01:13:00,
2013-02-11 18:14:00,38.0,37.5,30.06,WNW,292,5.0,5.0,98,0.00,,SKC,0.10,VWS V14.01,2013-02-12 01:14:00,
2013-02-11 18:15:00,38.0,37.5,30.06,WNW,292,3.0,4.0,98,0.00,,SKC,0.10,VWS V14.01,2013-02-12 01:15:00,
2013-02-11 18:16:00,38.0,37.5,30.06,WNW,292,4.0,5.0,98,0.00,,SKC,0.10,VWS V14.01,2013-02-12 01:16:00,
2013-02-11 18:17:00,38.0,37.5,30.06,WNW,292,3.0,4.0,98,0.00,,SKC,0.10,VWS V14.01,2013-02-12 01:17:00,
2013-02-11 18:18:00,38.0,37.5,30.06,WNW,292,3.0,3.0,98,0.00,,SKC,0.10,VWS V14.01,2013-02-12 01:18:00,
2013-02-11 18:19:00,38.0,37.5,30.06,WNW,292,3.0,3.0,98,0.00,,SKC,0.10,VWS V14.01,2013-02-12 01:19:00,
2013-02-11 18:20:00,38.0,37.5,30.06,NW,315,3.0,3.0,98,0.00,,SKC,0.10,VWS V14.01,2013-02-12 01:20:00,
2013-02-11 18:21:00,38.0,37.5,30.06,WNW,292,4.0,4.0,98,0.00,,SKC,0.10,VWS V14.01,2013-02-12 01:21:00,
2013-02-11 18:22:00,38.0,37.5,30.06,NW,315,3.0,3.0,98,0.00,,SKC,0.10,VWS V14.01,2013-02-12 01:22:00,
2013-02-11 18:23:00,38.0,37.5,30.06,WNW,292,4.0,5.0,98,0.00,,SKC,0.10,VWS V14.01,2013-02-12 01:23:00,
2013-02-11 18:24:00,38.0,37.5,30.07,WNW,292,3.0,4.0,98,0.00,,SKC,0.10,VWS V14.01,2013-02-12 01:24:00,
2013-02-11 18:25:00,38.0,37.5,30.07,West,270,3.0,4.0,98,0.00,,SKC,0.10,VWS V14.01,2013-02-12 01:25:00,
2013-02-11 18:26:00,38.0,37.5,30.07,WNW,292,5.0,6.0,98,0.00,,SKC,0.10,VWS V14.01,2013-02-12 01:26:00,
2013-02-11 18:27:00,38.0,37.5,30.07,West,270,3.0,4.0,98,0.00,,SKC,0.10,VWS V14.01,2013-02-12 01:27:00,
2013-02-11 18:28:00,38.0,37.7,30.07,WNW,292,5.0,5.0,99,0.00,,SKC,0.10,VWS V14.01,2013-02-12 01:28:00,
2013-02-11 18:29:00,38.0,37.7,30.07,West,270,4.0,5.0,99,0.00,,SKC,0.10,VWS V14.01,2013-02-12 01:29:00,
2013-02-11 18:30:00,38.0,37.7,30.07,WNW,292,3.0,3.0,99,0.00,,SKC,0.10,VWS V14.01,2013-02-12 01:30:00,
2013-02-11 18:31:00,38.0,37.7,30.07,WNW,292,5.0,5.0,99,0.00,,SKC,0.10,VWS V14.01,2013-02-12 01:31:00,
2013-02-11 18:32:00,38.0,37.7,30.07,WNW,292,3.0,3.0,99,0.00,,SKC,0.10,VWS V14.01,2013-02-12 01:32:00,
2013-02-11 18:33:00,38.0,37.7,30.07,West,270,3.0,5.0,99,0.00,,SKC,0.10,VWS V14.01,2013-02-12 01:33:00,
2013-02-11 18:34:00,38.0,37.7,30.07,West,270,2.0,3.0,99,0.00,,SKC,0.10,VWS V14.01,2013-02-12 01:34:00,
2013-02-11 18:35:00,38.0,37.7,30.07,East,90,0.0,0.0,99,0.00,,SKC,0.10,VWS V14.01,2013-02-12 01:35:00,
2013-02-11 18:36:00,38.0,37.7,30.07,East,90,0.0,0.0,99,0.00,,SKC,0.10,VWS V14.01,2013-02-12 01:36:00,
2013-02-11 18:37:00,38.0,37.7,30.07,East,90,0.0,0.0,99,0.00,,SKC,0.10,VWS V14.01,2013-02-12 01:37:00,
2013-02-11 18:38:00,38.0,37.7,30.07,South,180,0.0,0.0,99,0.00,,SKC,0.10,VWS V14.01,2013-02-12 01:38:00,
2013-02-11 18:39:00,38.0,37.7,30.07,South,180,2.0,3.0,99,0.00,,SKC,0.10,VWS V14.01,2013-02-12 01:39:00,
2013-02-11 18:40:00,38.0,37.7,30.07,South,180,4.0,5.0,99,0.00,,SKC,0.10,VWS V14.01,2013-02-12 01:40:00,
2013-02-11 18:41:00,38.0,37.7,30.07,South,180,2.0,3.0,99,0.00,,SKC,0.10,VWS V14.01,2013-02-12 01:41:00,
2013-02-11 18:42:00,38.0,37.7,30.07,South,180,4.0,5.0,99,0.00,,SKC,0.10,VWS V14.01,2013-02-12 01:42:00,
2013-02-11 18:43:00,38.0,37.7,30.07,SW,225,3.0,5.0,99,0.00,,SKC,0.10,VWS V14.01,2013-02-12 01:43:00,
2013-02-11 18:44:00,38.0,37.7,30.07,SSE,158,1.0,3.0,99,0.00,,SKC,0.10,VWS V14.01,2013-02-12 01:44:00,
2013-02-11 18:45:00,38.0,37.7,30.08,SSW,202,0.0,0.0,99,0.00,,SKC,0.10,VWS V14.01,2013-02-12 01:45:00,
2013-02-11 18:46:00,38.0,37.7,30.08,SSW,202,0.0,0.0,99,0.00,,SKC,0.10,VWS V14.01,2013-02-12 01:46:00,
2013-02-11 18:47:00,38.0,37.7,30.08,SSW,202,0.0,0.0,99,0.00,,SKC,0.10,VWS V14.01,2013-02-12 01:47:00,
2013-02-11 18:48:00,38.0,37.7,30.07,SSW,202,0.0,0.0,99,0.00,,SKC,0.10,VWS V14.01,2013-02-12 01:48:00,
2013-02-11 18:49:00,38.0,37.7,30.08,SSE,158,0.0,0.0,99,0.00,,SKC,0.10,VWS V14.01,2013-02-12 01:49:00,
2013-02-11 18:50:00,38.0,37.7,30.08,SSW,202,0.0,0.0,99,0.00,,SKC,0.10,VWS V14.01,2013-02-12 01:50:00,
2013-02-11 18:51:00,38.0,37.7,30.08,SSW,202,0.0,0.0,99,0.00,,SKC,0.10,VWS V14.01,2013-02-12 01:51:00,
2013-02-11 18:52:00,38.0,37.7,30.08,SSE,158,0.0,0.0,99,0.00,,SKC,0.10,VWS V14.01,2013-02-12 01:52:00,
2013-02-11 18:53:00,38.0,37.7,30.08,SSE,158,1.0,3.0,99,0.00,,SKC,0.10,VWS V14.01,2013-02-12 01:53:00,
2013-02-11 18:54:00,38.0,37.7,30.08,South,180,1.0,2.0,99,0.00,,SKC,0.10,VWS V14.01,2013-02-12 01:54:00,
2013-02-11 18:55:00,38.0,37.7,30.09,SSW,202,0.0,1.0,99,0.00,,SKC,0.10,VWS V14.01,2013-02-12 01:55:00,
2013-02-11 18:56:00,38.0,37.7,30.08,South,180,0.0,0.0,99,0.00,,SKC,0.10,VWS V14.01,2013-02-12 01:56:00,
2013-02-11 18:57:00,38.0,37.7,30.09,SSW,202,0.0,1.0,99,0.00,,SKC,0.10,VWS V14.01,2013-02-12 01:57:00,
2013-02-11 18:58:00,38.0,37.7,30.09,SSW,202,0.0,0.0,99,0.00,,SKC,0.10,VWS V14.01,2013-02-12 01:58:00,
2013-02-11 18:59:00,38.0,37.7,30.09,SSW,202,0.0,0.0,99,0.00,,SKC,0.10,VWS V14.01,2013-02-12 01:59:00,
2013-02-11 19:00:00,38.0,37.7,30.09,South,180,0.0,0.0,99,0.00,,SKC,0.10,VWS V14.01,2013-02-12 02:00:00,
2013-02-11 19:01:00,38.0,37.7,30.09,West,270,0.0,0.0,99,0.00,,SKC,0.10,VWS V14.01,2013-02-12 02:01:00,
2013-02-11 19:02:00,38.0,37.7,30.09,South,180,0.0,0.0,99,0.00,,SKC,0.10,VWS V14.01,2013-02-12 02:02:00,
2013-02-11 19:03:00,38.0,37.7,30.09,South,180,0.0,1.0,99,0.00,,SKC,0.10,VWS V14.01,2013-02-12 02:03:00,
2013-02-11 19:04:00,38.0,37.7,30.09,SSE,158,2.0,3.0,99,0.00,,SKC,0.10,VWS V14.01,2013-02-12 02:04:00,
2013-02-11 19:05:00,38.0,37.7,30.09,SSW,202,0.0,1.0,99,0.00,,SKC,0.10,VWS V14.01,2013-02-12 02:05:00,
2013-02-11 19:06:00,38.0,37.7,30.09,SW,225,1.0,1.0,99,0.00,,SKC,0.10,VWS V14.01,2013-02-12 02:06:00,
2013-02-11 19:07:00,38.0,37.7,30.09,SSE,158,2.0,3.0,99,0.00,,SKC,0.10,VWS V14.01,2013-02-12 02:07:00,
2013-02-11 19:08:00,38.0,37.7,30.09,SW,225,4.0,4.0,99,0.00,,SKC,0.10,VWS V14.01,2013-02-12 02:08:00,
2013-02-11 19:09:00,38.0,37.7,30.09,WSW,248,4.0,5.0,99,0.00,,SKC,0.10,VWS V14.01,2013-02-12 02:09:00,
2013-02-11 19:10:00,38.0,37.7,30.09,WSW,248,0.0,0.0,99,0.00,,SKC,0.10,VWS V14.01,2013-02-12 02:10:00,
2013-02-11 19:11:00,38.0,37.7,30.09,WSW,248,0.0,0.0,99,0.00,,SKC,0.10,VWS V14.01,2013-02-12 02:11:00,
2013-02-11 19:12:00,38.0,37.7,30.09,WSW,248,0.0,0.0,99,0.00,,SKC,0.10,VWS V14.01,2013-02-12 02:12:00,
2013-02-11 19:13:00,38.0,38.0,30.09,SW,225,0.0,1.0,100,0.00,,SKC,0.10,VWS V14.01,2013-02-12 02:13:00,
2013-02-11 19:14:00,38.0,38.0,30.10,SW,225,0.0,1.0,100,0.00,,SKC,0.10,VWS V14.01,2013-02-12 02:14:00,
2013-02-11 19:15:00,38.0,38.0,30.10,SW,225,3.0,3.0,100,0.00,,SKC,0.10,VWS V14.01,2013-02-12 02:15:00,
2013-02-11 19:16:00,38.0,38.0,30.10,SW,225,3.0,3.0,100,0.00,,SKC,0.10,VWS V14.01,2013-02-12 02:16:00,
2013-02-11 19:17:00,38.0,38.0,30.10,SW,225,0.0,1.0,100,0.00,,SKC,0.10,VWS V14.01,2013-02-12 02:17:00,
2013-02-11 19:18:00,38.0,38.0,30.10,SW,225,0.0,0.0,100,0.00,,SKC,0.10,VWS V14.01,2013-02-12 02:18:00,
2013-02-11 19:19:00,38.0,38.0,30.10,SW,225,0.0,0.0,100,0.00,,SKC,0.10,VWS V14.01,2013-02-12 02:19:00,
2013-02-11 19:20:00,38.0,38.0,30.10,SW,225,0.0,0.0,100,0.00,,SKC,0.10,VWS V14.01,2013-02-12 02:20:00,
2013-02-11 19:21:00,38.0,38.0,30.10,SW,225,1.0,2.0,100,0.00,,SKC,0.10,VWS V14.01,2013-02-12 02:21:00,
2013-02-11 19:22:00,38.0,38.0,30.10,SW,225,0.0,0.0,100,0.00,,SKC,0.10,VWS V14.01,2013-02-12 02:22:00,
2013-02-11 19:23:00,38.0,38.0,30.10,SW,225,0.0,0.0,100,0.00,,SKC,0.10,VWS V14.01,2013-02-12 02:23:00,
2013-02-11 19:24:00,38.0,38.0,30.10,WSW,248,0.0,0.0,100,0.00,,SKC,0.10,VWS V14.01,2013-02-12 02:24:00,
2013-02-11 19:25:00,38.0,38.0,30.10,WSW,248,0.0,0.0,100,0.00,,SKC,0.10,VWS V14.01,2013-02-12 02:25:00,
2013-02-11 19:26:00,38.0,38.0,30.10,WSW,248,1.0,1.0,100,0.00,,SKC,0.10,VWS V14.01,2013-02-12 02:26:00,
2013-02-11 19:27:00,38.0,38.0,30.10,WSW,248,0.0,0.0,100,0.00,,SKC,0.10,VWS V14.01,2013-02-12 02:27:00,
2013-02-11 19:28:00,38.0,38.0,30.10,WSW,248,0.0,0.0,100,0.00,,SKC,0.10,VWS V14.01,2013-02-12 02:28:00,
2013-02-11 19:29:00,38.0,38.0,30.10,SW,225,2.0,3.0,100,0.00,,SKC,0.10,VWS V14.01,2013-02-12 02:29:00,
2013-02-11 19:30:00,38.0,38.0,30.10,West,270,2.0,3.0,100,0.00,,SKC,0.10,VWS V14.01,2013-02-12 02:30:00,
2013-02-11 19:31:00,38.0,38.0,30.10,SW,225,5.0,5.0,100,0.00,,SKC,0.10,VWS V14.01,2013-02-12 02:31:00,
2013-02-11 19:32:00,38.0,38.0,30.10,SW,225,2.0,3.0,100,0.00,,SKC,0.10,VWS V14.01,2013-02-12 02:32:00,
2013-02-11 19:33:00,38.0,38.0,30.10,SW,225,3.0,4.0,100,0.00,,SKC,0.10,VWS V14.01,2013-02-12 02:33:00,
2013-02-11 19:34:00,38.0,38.0,30.10,SW,225,4.0,4.0,100,0.00,,SKC,0.10,VWS V14.01,2013-02-12 02:34:00,
2013-02-11 19:35:00,38.0,38.0,30.10,SW,225,3.0,3.0,100,0.00,,SKC,0.10,VWS V14.01,2013-02-12 02:35:00,
2013-02-11 19:36:00,38.0,38.0,30.10,SW,225,2.0,2.0,100,0.00,,SKC,0.10,VWS V14.01,2013-02-12 02:36:00,
2013-02-11 19:37:00,38.0,38.0,30.10,SW,225,3.0,4.0,100,0.00,,SKC,0.10,VWS V14.01,2013-02-12 02:37:00,
2013-02-11 19:38:00,38.0,38.0,30.11,SW,225,2.0,3.0,100,0.00,,SKC,0.10,VWS V14.01,2013-02-12 02:38:00,
2013-02-11 19:39:00,38.0,38.0,30.11,WSW,248,2.0,2.0,100,0.00,,SKC,0.10,VWS V14.01,2013-02-12 02:39:00,
2013-02-11 19:40:00,38.0,38.0,30.11,SSE,158,4.0,5.0,100,0.00,,SKC,0.10,VWS V14.01,2013-02-12 02:40:00,
2013-02-11 19:41:00,38.0,38.0,30.11,WSW,248,4.0,5.0,100,0.00,,SKC,0.10,VWS V14.01,2013-02-12 02:41:00,
2013-02-11 19:42:00,38.0,38.0,30.11,SSE,158,4.0,5.0,100,0.00,,SKC,0.10,VWS V14.01,2013-02-12 02:42:00,
2013-02-11 19:43:00,38.0,38.0,30.10,WSW,248,10.0,11.0,100,0.00,,SKC,0.10,VWS V14.01,2013-02-12 02:43:00,
2013-02-11 19:44:00,37.0,37.0,30.11,West,270,6.0,8.0,100,0.00,,SKC,0.10,VWS V14.01,2013-02-12 02:44:00,
2013-02-11 19:45:00,37.0,37.0,30.10,West,270,7.0,9.0,100,0.00,,SKC,0.10,VWS V14.01,2013-02-12 02:45:00,
2013-02-11 19:46:00,37.0,37.0,30.10,WSW,248,5.0,6.0,100,0.00,,SKC,0.10,VWS V14.01,2013-02-12 02:46:00,
2013-02-11 19:47:00,37.0,37.0,30.11,West,270,6.0,8.0,100,0.00,,SKC,0.10,VWS V14.01,2013-02-12 02:47:00,
2013-02-11 19:48:00,37.0,37.0,30.11,WSW,248,5.0,6.0,100,0.00,,SKC,0.10,VWS V14.01,2013-02-12 02:48:00,
2013-02-11 19:49:00,37.0,37.0,30.11,WSW,248,5.0,5.0,100,0.00,,SKC,0.10,VWS V14.01,2013-02-12 02:49:00,
2013-02-11 19:50:00,36.0,36.0,30.11,WNW,292,8.0,11.0,100,0.00,,SKC,0.10,VWS V14.01,2013-02-12 02:50:00,
2013-02-11 19:51:00,36.0,36.0,30.11,WSW,248,7.0,11.0,100,0.00,,SKC,0.10,VWS V14.01,2013-02-12 02:51:00,
2013-02-11 19:52:00,36.0,36.0,30.11,WNW,292,10.0,11.0,100,0.00,,SKC,0.10,VWS V14.01,2013-02-12 02:52:00,
2013-02-11 19:53:00,36.0,36.0,30.11,SW,225,9.0,10.0,100,0.00,,SKC,0.10,VWS V14.01,2013-02-12 02:53:00,
2013-02-11 19:54:00,36.0,36.0,30.11,West,270,10.0,13.0,100,0.00,,SKC,0.10,VWS V14.01,2013-02-12 02:54:00,
2013-02-11 19:55:00,36.0,36.0,30.11,West,270,6.0,6.0,100,0.00,,SKC,0.10,VWS V14.01,2013-02-12 02:55:00,
2013-02-11 19:56:00,36.0,36.0,30.11,West,270,6.0,6.0,100,0.00,,SKC,0.10,VWS V14.01,2013-02-12 02:56:00,
2013-02-11 19:57:00,36.0,36.0,30.11,West,270,6.0,6.0,100,0.00,,SKC,0.10,VWS V14.01,2013-02-12 02:57:00,
2013-02-11 19:58:00,36.0,36.0,30.11,West,270,7.0,7.0,100,0.00,,SKC,0.10,VWS V14.01,2013-02-12 02:58:00,
2013-02-11 19:59:00,36.0,36.0,30.11,WNW,292,4.0,6.0,100,0.00,,SKC,0.10,VWS V14.01,2013-02-12 02:59:00,
2013-02-11 20:00:00,36.0,36.0,30.11,West,270,6.0,7.0,100,0.00,,SKC,0.10,VWS V14.01,2013-02-12 03:00:00,
2013-02-11 20:01:00,36.0,36.0,30.11,West,270,6.0,6.0,100,0.00,,SKC,0.10,VWS V14.01,2013-02-12 03:01:00,
2013-02-11 20:02:00,36.0,36.0,30.11,West,270,6.0,7.0,100,0.00,,SKC,0.10,VWS V14.01,2013-02-12 03:02:00,
2013-02-11 20:03:00,36.0,36.0,30.11,WSW,248,5.0,5.0,100,0.00,,SKC,0.10,VWS V14.01,2013-02-12 03:03:00,
2013-02-11 20:04:00,36.0,36.0,30.11,WNW,292,5.0,5.0,100,0.00,,SKC,0.10,VWS V14.01,2013-02-12 03:04:00,
2013-02-11 20:05:00,36.0,36.0,30.11,WSW,248,4.0,4.0,100,0.00,,SKC,0.10,VWS V14.01,2013-02-12 03:05:00,
2013-02-11 20:06:00,36.0,36.0,30.11,WSW,248,4.0,5.0,100,0.00,,SKC,0.10,VWS V14.01,2013-02-12 03:06:00,
2013-02-11 20:07:00,36.0,36.0,30.11,WSW,248,4.0,4.0,100,0.00,,SKC,0.10,VWS V14.01,2013-02-12 03:07:00,
2013-02-11 20:08:00,36.0,36.0,30.11,WSW,248,6.0,6.0,100,0.00,,SKC,0.10,VWS V14.01,2013-02-12 03:08:00,
2013-02-11 20:09:00,35.0,35.0,30.11,SW,225,6.0,7.0,100,0.00,,SKC,0.10,VWS V14.01,2013-02-12 03:09:00,
2013-02-11 20:10:00,36.0,36.0,30.10,West,270,4.0,4.0,100,0.00,,SKC,0.10,VWS V14.01,2013-02-12 03:10:00,
2013-02-11 20:11:00,36.0,36.0,30.10,WSW,248,5.0,6.0,100,0.00,,SKC,0.10,VWS V14.01,2013-02-12 03:11:00,
2013-02-11 20:12:00,35.0,35.0,30.11,SW,225,5.0,7.0,100,0.00,,SKC,0.10,VWS V14.01,2013-02-12 03:12:00,
2013-02-11 20:13:00,35.0,35.0,30.10,SW,225,5.0,7.0,100,0.00,,SKC,0.10,VWS V14.01,2013-02-12 03:13:00,
2013-02-11 20:14:00,35.0,35.0,30.10,SW,225,5.0,5.0,100,0.00,,SKC,0.10,VWS V14.01,2013-02-12 03:14:00,
2013-02-11 20:15:00,35.0,35.0,30.10,WSW,248,2.0,2.0,100,0.00,,SKC,0.10,VWS V14.01,2013-02-12 03:15:00,
2013-02-11 20:16:00,35.0,35.0,30.10,West,270,5.0,6.0,100,0.00,,SKC,0.10,VWS V14.01,2013-02-12 03:16:00,
2013-02-11 20:17:00,35.0,35.0,30.10,WSW,248,2.0,2.0,100,0.00,,SKC,0.10,VWS V14.01,2013-02-12 03:17:00,
2013-02-11 20:18:00,35.0,35.0,30.10,WNW,292,5.0,5.0,100,0.00,,SKC,0.10,VWS V14.01,2013-02-12 03:18:00,
2013-02-11 20:19:00,35.0,35.0,30.10,WNW,292,5.0,5.0,100,0.00,,SKC,0.10,VWS V14.01,2013-02-12 03:19:00,
2013-02-11 20:20:00,35.0,35.0,30.11,WSW,248,0.0,0.0,100,0.00,,SKC,0.10,VWS V14.01,2013-02-12 03:20:00,
2013-02-11 20:21:00,35.0,35.0,30.11,West,270,3.0,3.0,100,0.00,,SKC,0.10,VWS V14.01,2013-02-12 03:21:00,
2013-02-11 20:22:00,35.0,35.0,30.11,WSW,248,0.0,0.0,100,0.00,,SKC,0.10,VWS V14.01,2013-02-12 03:22:00,
2013-02-11 20:23:00,35.0,35.0,30.11,WNW,292,0.0,0.0,100,0.00,,SKC,0.10,VWS V14.01,2013-02-12 03:23:00,
2013-02-11 20:24:00,35.0,35.0,30.11,NW,315,3.0,3.0,100,0.00,,SKC,0.10,VWS V14.01,2013-02-12 03:24:00,
2013-02-11 20:25:00,35.0,35.0,30.11,West,270,3.0,4.0,100,0.00,,SKC,0.10,VWS V14.01,2013-02-12 03:25:00,
2013-02-11 20:26:00,35.0,35.0,30.11,WNW,292,4.0,5.0,100,0.00,,SKC,0.10,VWS V14.01,2013-02-12 03:26:00,
2013-02-11 20:27:00,35.0,35.0,30.11,West,270,3.0,4.0,100,0.00,,SKC,0.10,VWS V14.01,2013-02-12 03:27:00,
2013-02-11 20:28:00,35.0,35.0,30.11,WNW,292,4.0,4.0,100,0.00,,SKC,0.10,VWS V14.01,2013-02-12 03:28:00,
2013-02-11 20:29:00,35.0,35.0,30.11,NNW,338,2.0,2.0,100,0.00,,SKC,0.10,VWS V14.01,2013-02-12 03:29:00,
2013-02-11 20:30:00,35.0,35.0,30.12,NNW,338,3.0,3.0,100,0.00,,SKC,0.10,VWS V14.01,2013-02-12 03:30:00,
2013-02-11 20:31:00,35.0,35.0,30.12,NW,315,3.0,3.0,100,0.00,,SKC,0.10,VWS V14.01,2013-02-12 03:31:00,
2013-02-11 20:32:00,35.0,35.0,30.12,NNW,338,3.0,3.0,100,0.00,,SKC,0.10,VWS V14.01,2013-02-12 03:32:00,
2013-02-11 20:33:00,35.0,35.0,30.11,NW,315,3.0,5.0,100,0.00,,SKC,0.10,VWS V14.01,2013-02-12 03:33:00,
2013-02-11 20:34:00,35.0,35.0,30.12,NNW,338,3.0,3.0,100,0.00,,SKC,0.10,VWS V14.01,2013-02-12 03:34:00,
2013-02-11 20:35:00,35.0,35.0,30.12,WNW,292,0.0,0.0,100,0.00,,SKC,0.10,VWS V14.01,2013-02-12 03:35:00,
2013-02-11 20:36:00,35.0,35.0,30.11,WNW,292,3.0,3.0,100,0.00,,SKC,0.10,VWS V14.01,2013-02-12 03:36:00,
2013-02-11 20:37:00,35.0,35.0,30.12,WNW,292,0.0,0.0,100,0.00,,SKC,0.10,VWS V14.01,2013-02-12 03:37:00,
2013-02-11 20:38:00,35.0,35.0,30.12,WNW,292,0.0,0.0,100,0.00,,SKC,0.10,VWS V14.01,2013-02-12 03:38:00,
2013-02-11 20:39:00,35.0,35.0,30.12,NW,315,4.0,4.0,100,0.00,,SKC,0.10,VWS V14.01,2013-02-12 03:39:00,
2013-02-11 20:40:00,35.0,35.0,30.12,WNW,292,5.0,5.0,100,0.00,,SKC,0.10,VWS V14.01,2013-02-12 03:40:00,
2013-02-11 20:41:00,35.0,35.0,30.12,WNW,292,3.0,4.0,100,0.00,,SKC,0.10,VWS V14.01,2013-02-12 03:41:00,
2013-02-11 20:42:00,35.0,35.0,30.12,WNW,292,5.0,5.0,100,0.00,,SKC,0.10,VWS V14.01,2013-02-12 03:42:00,
2013-02-11 20:43:00,35.0,35.0,30.12,WNW,292,1.0,2.0,100,0.00,,SKC,0.10,VWS V14.01,2013-02-12 03:43:00,
2013-02-11 20:44:00,35.0,35.0,30.12,WNW,292,1.0,1.0,100,0.00,,SKC,0.10,VWS V14.01,2013-02-12 03:44:00,
2013-02-11 20:45:00,35.0,35.0,30.12,WNW,292,1.0,2.0,100,0.00,,SKC,0.10,VWS V14.01,2013-02-12 03:45:00,
2013-02-11 20:46:00,35.0,35.0,30.12,WNW,292,3.0,3.0,100,0.00,,SKC,0.10,VWS V14.01,2013-02-12 03:46:00,
2013-02-11 20:47:00,35.0,35.0,30.12,WNW,292,1.0,2.0,100,0.00,,SKC,0.10,VWS V14.01,2013-02-12 03:47:00,
2013-02-11 20:48:00,35.0,35.0,30.12,WNW,292,2.0,3.0,100,0.00,,SKC,0.10,VWS V14.01,2013-02-12 03:48:00,
2013-02-11 20:49:00,35.0,35.0,30.12,WNW,292,1.0,1.0,100,0.00,,SKC,0.10,VWS V14.01,2013-02-12 03:49:00,
2013-02-11 20:50:00,35.0,35.0,30.12,WNW,292,3.0,3.0,100,0.00,,SKC,0.10,VWS V14.01,2013-02-12 03:50:00,
2013-02-11 20:51:00,35.0,35.0,30.12,NW,315,2.0,3.0,100,0.00,,SKC,0.10,VWS V14.01,2013-02-12 03:51:00,
2013-02-11 20:52:00,35.0,35.0,30.12,WNW,292,3.0,3.0,100,0.00,,SKC,0.10,VWS V14.01,2013-02-12 03:52:00,
2013-02-11 20:53:00,35.0,35.0,30.12,WNW,292,2.0,3.0,100,0.00,,SKC,0.10,VWS V14.01,2013-02-12 03:53:00,
2013-02-11 20:54:00,35.0,35.0,30.12,WSW,248,0.0,0.0,100,0.00,,SKC,0.10,VWS V14.01,2013-02-12 03:54:00,
2013-02-11 20:55:00,35.0,35.0,30.12,WNW,292,0.0,0.0,100,0.00,,SKC,0.10,VWS V14.01,2013-02-12 03:55:00,
2013-02-11 20:56:00,35.0,35.0,30.12,WNW,292,0.0,0.0,100,0.00,,SKC,0.10,VWS V14.01,2013-02-12 03:56:00,
2013-02-11 20:57:00,35.0,35.0,30.12,WSW,248,0.0,0.0,100,0.00,,SKC,0.10,VWS V14.01,2013-02-12 03:57:00,
2013-02-11 20:58:00,35.0,35.0,30.12,WSW,248,0.0,0.0,100,0.00,,SKC,0.10,VWS V14.01,2013-02-12 03:58:00,
2013-02-11 20:59:00,35.0,35.0,30.12,WNW,292,0.0,0.0,100,0.00,,SKC,0.10,VWS V14.01,2013-02-12 03:59:00,
2013-02-11 21:00:00,35.0,35.0,30.12,WNW,292,0.0,0.0,100,0.00,,SKC,0.10,VWS V14.01,2013-02-12 04:00:00,
2013-02-11 21:01:00,35.0,35.0,30.12,WNW,292,0.0,0.0,100,0.00,,SKC,0.10,VWS V14.01,2013-02-12 04:01:00,
2013-02-11 21:02:00,35.0,35.0,30.12,WNW,292,0.0,0.0,100,0.00,,SKC,0.10,VWS V14.01,2013-02-12 04:02:00,
2013-02-11 21:03:00,35.0,35.0,30.12,WSW,248,0.0,0.0,100,0.00,,SKC,0.10,VWS V14.01,2013-02-12 04:03:00,
2013-02-11 21:04:00,35.0,35.0,30.12,SW,225,0.0,0.0,100,0.00,,SKC,0.10,VWS V14.01,2013-02-12 04:04:00,
2013-02-11 21:05:00,35.0,35.0,30.12,SW,225,0.0,0.0,100,0.00,,SKC,0.10,VWS V14.01,2013-02-12 04:05:00,
2013-02-11 21:06:00,35.0,35.0,30.12,SW,225,0.0,0.0,100,0.00,,SKC,0.10,VWS V14.01,2013-02-12 04:06:00,
2013-02-11 21:07:00,35.0,35.0,30.12,SW,225,0.0,0.0,100,0.00,,SKC,0.10,VWS V14.01,2013-02-12 04:07:00,
2013-02-11 21:08:00,35.0,35.0,30.12,SW,225,0.0,0.0,100,0.00,,SKC,0.10,VWS V14.01,2013-02-12 04:08:00,
2013-02-11 21:09:00,35.0,35.0,30.12,SW,225,0.0,0.0,100,0.00,,SKC,0.10,VWS V14.01,2013-02-12 04:09:00,
2013-02-11 21:10:00,35.0,35.0,30.12,SW,225,0.0,0.0,100,0.00,,SKC,0.10,VWS V14.01,2013-02-12 04:10:00,
2013-02-11 21:11:00,35.0,35.0,30.12,SW,225,0.0,0.0,100,0.00,,SKC,0.10,VWS V14.01,2013-02-12 04:11:00,
2013-02-11 21:12:00,35.0,35.0,30.12,SW,225,0.0,0.0,100,0.00,,SKC,0.10,VWS V14.01,2013-02-12 04:12:00,
2013-02-11 21:13:00,35.0,35.0,30.12,SW,225,0.0,0.0,100,0.00,,SKC,0.10,VWS V14.01,2013-02-12 04:13:00,
2013-02-11 21:14:00,35.0,35.0,30.12,SW,225,0.0,0.0,100,0.00,,SKC,0.10,VWS V14.01,2013-02-12 04:14:00,
2013-02-11 21:15:00,35.0,35.0,30.12,SW,225,0.0,0.0,100,0.00,,SKC,0.10,VWS V14.01,2013-02-12 04:15:00,
2013-02-11 21:16:00,35.0,35.0,30.12,SW,225,0.0,0.0,100,0.00,,SKC,0.10,VWS V14.01,2013-02-12 04:16:00,
2013-02-11 21:17:00,35.0,35.0,30.12,SW,225,0.0,0.0,100,0.00,,SKC,0.10,VWS V14.01,2013-02-12 04:17:00,
2013-02-11 21:18:00,35.0,35.0,30.12,SW,225,0.0,0.0,100,0.00,,SKC,0.10,VWS V14.01,2013-02-12 04:18:00,
2013-02-11 21:19:00,35.0,35.0,30.12,SW,225,0.0,0.0,100,0.00,,SKC,0.10,VWS V14.01,2013-02-12 04:19:00,
2013-02-11 21:20:00,35.0,35.0,30.13,SW,225,0.0,0.0,100,0.00,,SKC,0.10,VWS V14.01,2013-02-12 04:20:00,
2013-02-11 21:21:00,35.0,35.0,30.13,SW,225,0.0,0.0,100,0.00,,SKC,0.10,VWS V14.01,2013-02-12 04:21:00,
2013-02-11 21:22:00,35.0,35.0,30.13,SW,225,0.0,0.0,100,0.00,,SKC,0.10,VWS V14.01,2013-02-12 04:22:00,
2013-02-11 21:23:00,35.0,35.0,30.13,SW,225,0.0,0.0,100,0.00,,SKC,0.10,VWS V14.01,2013-02-12 04:23:00,
2013-02-11 21:24:00,35.0,35.0,30.13,SW,225,0.0,0.0,100,0.00,,SKC,0.10,VWS V14.01,2013-02-12 04:24:00,
2013-02-11 21:25:00,35.0,35.0,30.13,SW,225,0.0,0.0,100,0.00,,SKC,0.10,VWS V14.01,2013-02-12 04:25:00,
2013-02-11 21:26:00,35.0,35.0,30.13,SW,225,0.0,0.0,100,0.00,,SKC,0.10,VWS V14.01,2013-02-12 04:26:00,
2013-02-11 21:27:00,35.0,35.0,30.13,SW,225,0.0,0.0,100,0.00,,SKC,0.10,VWS V14.01,2013-02-12 04:27:00,
2013-02-11 21:28:00,35.0,35.0,30.13,SW,225,0.0,0.0,100,0.00,,SKC,0.10,VWS V14.01,2013-02-12 04:28:00,
2013-02-11 21:29:00,35.0,35.0,30.13,SW,225,0.0,0.0,100,0.00,,SKC,0.10,VWS V14.01,2013-02-12 04:29:00,
2013-02-11 21:30:00,35.0,35.0,30.13,WSW,248,0.0,0.0,100,0.00,,SKC,0.10,VWS V14.01,2013-02-12 04:30:00,
2013-02-11 21:31:00,35.0,35.0,30.13,WSW,248,0.0,0.0,100,0.00,,SKC,0.10,VWS V14.01,2013-02-12 04:31:00,
2013-02-11 21:32:00,35.0,35.0,30.13,WSW,248,0.0,0.0,100,0.00,,SKC,0.10,VWS V14.01,2013-02-12 04:32:00,
2013-02-11 21:33:00,35.0,35.0,30.13,WSW,248,0.0,0.0,100,0.00,,SKC,0.10,VWS V14.01,2013-02-12 04:33:00,
2013-02-11 21:34:00,35.0,35.0,30.13,WSW,248,0.0,0.0,100,0.00,,SKC,0.10,VWS V14.01,2013-02-12 04:34:00,
2013-02-11 21:35:00,35.0,35.0,30.13,WSW,248,0.0,0.0,100,0.00,,SKC,0.10,VWS V14.01,2013-02-12 04:35:00,
2013-02-11 21:36:00,35.0,35.0,30.13,WSW,248,0.0,0.0,100,0.00,,SKC,0.10,VWS V14.01,2013-02-12 04:36:00,
2013-02-11 21:37:00,35.0,35.0,30.13,WSW,248,0.0,0.0,100,0.00,,SKC,0.10,VWS V14.01,2013-02-12 04:37:00,
2013-02-11 21:38:00,35.0,35.0,30.13,WSW,248,0.0,0.0,100,0.00,,SKC,0.10,VWS V14.01,2013-02-12 04:38:00,
2013-02-11 21:39:00,35.0,35.0,30.13,WSW,248,0.0,0.0,100,0.00,,SKC,0.10,VWS V14.01,2013-02-12 04:39:00,
2013-02-11 21:40:00,35.0,35.0,30.13,WSW,248,0.0,0.0,100,0.00,,SKC,0.10,VWS V14.01,2013-02-12 04:40:00,
2013-02-11 21:41:00,35.0,35.0,30.13,WSW,248,0.0,0.0,100,0.00,,SKC,0.10,VWS V14.01,2013-02-12 04:41:00,
2013-02-11 21:42:00,35.0,35.0,30.13,WSW,248,0.0,0.0,100,0.00,,SKC,0.10,VWS V14.01,2013-02-12 04:42:00,
2013-02-11 21:43:00,35.0,35.0,30.13,WSW,248,0.0,0.0,100,0.00,,SKC,0.10,VWS V14.01,2013-02-12 04:43:00,
2013-02-11 21:44:00,35.0,35.0,30.13,WSW,248,0.0,0.0,100,0.00,,SKC,0.10,VWS V14.01,2013-02-12 04:44:00,
2013-02-11 21:45:00,35.0,35.0,30.13,WSW,248,0.0,0.0,100,0.00,,SKC,0.10,VWS V14.01,2013-02-12 04:45:00,
2013-02-11 21:46:00,35.0,35.0,30.13,WSW,248,0.0,0.0,100,0.00,,SKC,0.10,VWS V14.01,2013-02-12 04:46:00,
2013-02-11 21:47:00,35.0,35.0,30.13,WSW,248,0.0,0.0,100,0.00,,SKC,0.10,VWS V14.01,2013-02-12 04:47:00,
2013-02-11 21:48:00,35.0,35.0,30.13,WSW,248,0.0,0.0,100,0.00,,SKC,0.10,VWS V14.01,2013-02-12 04:48:00,
2013-02-11 21:49:00,35.0,35.0,30.13,SW,225,0.0,0.0,100,0.00,,SKC,0.10,VWS V14.01,2013-02-12 04:49:00,
2013-02-11 21:50:00,35.0,35.0,30.13,WSW,248,0.0,0.0,100,0.00,,SKC,0.10,VWS V14.01,2013-02-12 04:50:00,
2013-02-11 21:51:00,35.0,35.0,30.13,SW,225,0.0,1.0,100,0.00,,SKC,0.10,VWS V14.01,2013-02-12 04:51:00,
2013-02-11 21:52:00,35.0,35.0,30.13,SW,225,0.0,0.0,100,0.00,,SKC,0.10,VWS V14.01,2013-02-12 04:52:00,
2013-02-11 21:53:00,35.0,35.0,30.13,SW,225,0.0,0.0,100,0.00,,SKC,0.10,VWS V14.01,2013-02-12 04:53:00,
2013-02-11 21:54:00,35.0,35.0,30.13,SW,225,0.0,0.0,100,0.00,,SKC,0.10,VWS V14.01,2013-02-12 04:54:00,
2013-02-11 21:55:00,35.0,35.0,30.13,SSW,202,0.0,0.0,100,0.00,,SKC,0.10,VWS V14.01,2013-02-12 04:55:00,
2013-02-11 21:56:00,35.0,35.0,30.13,SSW,202,0.0,0.0,100,0.00,,SKC,0.10,VWS V14.01,2013-02-12 04:56:00,
2013-02-11 21:57:00,35.0,35.0,30.13,SSW,202,0.0,0.0,100,0.00,,SKC,0.10,VWS V14.01,2013-02-12 04:57:00,
2013-02-11 21:58:00,35.0,35.0,30.13,SSW,202,0.0,0.0,100,0.00,,SKC,0.10,VWS V14.01,2013-02-12 04:58:00,
2013-02-11 21:59:00,35.0,35.0,30.13,SW,225,0.0,0.0,100,0.00,,SKC,0.10,VWS V14.01,2013-02-12 04:59:00,
2013-02-11 22:00:00,34.0,34.0,30.13,WSW,248,0.0,0.0,100,0.00,,SKC,0.10,VWS V14.01,2013-02-12 05:00:00,
2013-02-11 22:01:00,34.0,34.0,30.13,WSW,248,0.0,1.0,100,0.00,,SKC,0.10,VWS V14.01,2013-02-12 05:01:00,
2013-02-11 22:02:00,34.0,34.0,30.13,WSW,248,0.0,0.0,100,0.00,,SKC,0.10,VWS V14.01,2013-02-12 05:02:00,
2013-02-11 22:03:00,34.0,34.0,30.13,WSW,248,0.0,0.0,100,0.00,,SKC,0.10,VWS V14.01,2013-02-12 05:03:00,
2013-02-11 22:04:00,34.0,34.0,30.14,WSW,248,0.0,0.0,100,0.00,,SKC,0.10,VWS V14.01,2013-02-12 05:04:00,
2013-02-11 22:05:00,35.0,35.0,30.14,WSW,248,0.0,0.0,100,0.00,,SKC,0.10,VWS V14.01,2013-02-12 05:05:00,
2013-02-11 22:06:00,34.0,34.0,30.14,WSW,248,0.0,0.0,100,0.00,,SKC,0.10,VWS V14.01,2013-02-12 05:06:00,
2013-02-11 22:07:00,35.0,35.0,30.14,WSW,248,0.0,0.0,100,0.00,,SKC,0.10,VWS V14.01,2013-02-12 05:07:00,
2013-02-11 22:08:00,35.0,35.0,30.14,WSW,248,0.0,0.0,100,0.00,,SKC,0.10,VWS V14.01,2013-02-12 05:08:00,
2013-02-11 22:09:00,34.0,34.0,30.14,WSW,248,0.0,0.0,100,0.00,,SKC,0.10,VWS V14.01,2013-02-12 05:09:00,
2013-02-11 22:10:00,34.0,34.0,30.14,WSW,248,0.0,0.0,100,0.00,,SKC,0.10,VWS V14.01,2013-02-12 05:10:00,
2013-02-11 22:11:00,34.0,34.0,30.14,WSW,248,0.0,0.0,100,0.00,,SKC,0.10,VWS V14.01,2013-02-12 05:11:00,
2013-02-11 22:12:00,34.0,34.0,30.14,WSW,248,0.0,0.0,100,0.00,,SKC,0.10,VWS V14.01,2013-02-12 05:12:00,
2013-02-11 22:13:00,34.0,34.0,30.14,WSW,248,0.0,0.0,100,0.00,,SKC,0.10,VWS V14.01,2013-02-12 05:13:00,
2013-02-11 22:14:00,34.0,34.0,30.14,WSW,248,0.0,0.0,100,0.00,,SKC,0.10,VWS V14.01,2013-02-12 05:14:00,
2013-02-11 22:15:00,34.0,34.0,30.14,WSW,248,0.0,0.0,100,0.00,,SKC,0.10,VWS V14.01,2013-02-12 05:15:00,
2013-02-11 22:16:00,34.0,34.0,30.14,WSW,248,0.0,0.0,100,0.00,,SKC,0.10,VWS V14.01,2013-02-12 05:16:00,
2013-02-11 22:17:00,34.0,34.0,30.14,WSW,248,0.0,0.0,100,0.00,,SKC,0.10,VWS V14.01,2013-02-12 05:17:00,
2013-02-11 22:18:00,34.0,34.0,30.14,WSW,248,0.0,0.0,100,0.00,,SKC,0.10,VWS V14.01,2013-02-12 05:18:00,
2013-02-11 22:19:00,34.0,34.0,30.14,North,0,0.0,0.0,100,0.00,,SKC,0.10,VWS V14.01,2013-02-12 05:19:00,
2013-02-11 22:20:00,34.0,34.0,30.14,NE,45,0.0,0.0,100,0.00,,SKC,0.10,VWS V14.01,2013-02-12 05:20:00,
2013-02-11 22:21:00,34.0,34.0,30.14,ENE,68,0.0,0.0,100,0.00,,SKC,0.10,VWS V14.01,2013-02-12 05:21:00,
2013-02-11 22:22:00,34.0,34.0,30.14,NE,45,0.0,1.0,100,0.00,,SKC,0.10,VWS V14.01,2013-02-12 05:22:00,
2013-02-11 22:23:00,34.0,34.0,30.14,NE,45,0.0,0.0,100,0.00,,SKC,0.10,VWS V14.01,2013-02-12 05:23:00,
2013-02-11 22:24:00,34.0,34.0,30.14,NE,45,0.0,0.0,100,0.00,,SKC,0.10,VWS V14.01,2013-02-12 05:24:00,
2013-02-11 22:25:00,34.0,34.0,30.14,NE,45,0.0,0.0,100,0.00,,SKC,0.10,VWS V14.01,2013-02-12 05:25:00,
2013-02-11 22:26:00,34.0,34.0,30.14,NE,45,0.0,0.0,100,0.00,,SKC,0.10,VWS V14.01,2013-02-12 05:26:00,
2013-02-11 22:27:00,34.0,34.0,30.14,NE,45,0.0,0.0,100,0.00,,SKC,0.10,VWS V14.01,2013-02-12 05:27:00,
2013-02-11 22:28:00,34.0,34.0,30.14,NE,45,0.0,0.0,100,0.00,,SKC,0.10,VWS V14.01,2013-02-12 05:28:00,
2013-02-11 22:29:00,34.0,34.0,30.14,NE,45,0.0,0.0,100,0.00,,SKC,0.10,VWS V14.01,2013-02-12 05:29:00,
2013-02-11 22:30:00,34.0,34.0,30.14,NE,45,0.0,0.0,100,0.00,,SKC,0.10,VWS V14.01,2013-02-12 05:30:00,
2013-02-11 22:31:00,34.0,34.0,30.14,NE,45,0.0,0.0,100,0.00,,SKC,0.10,VWS V14.01,2013-02-12 05:31:00,
2013-02-11 22:32:00,34.0,34.0,30.14,NE,45,0.0,0.0,100,0.00,,SKC,0.10,VWS V14.01,2013-02-12 05:32:00,
2013-02-11 22:33:00,34.0,34.0,30.14,NE,45,0.0,0.0,100,0.00,,SKC,0.10,VWS V14.01,2013-02-12 05:33:00,
2013-02-11 22:34:00,34.0,34.0,30.14,NW,315,0.0,0.0,100,0.00,,SKC,0.10,VWS V14.01,2013-02-12 05:34:00,
2013-02-11 22:35:00,34.0,34.0,30.15,West,270,0.0,0.0,100,0.00,,SKC,0.10,VWS V14.01,2013-02-12 05:35:00,
2013-02-11 22:36:00,34.0,34.0,30.15,WNW,292,0.0,0.0,100,0.00,,SKC,0.10,VWS V14.01,2013-02-12 05:36:00,
2013-02-11 22:37:00,34.0,34.0,30.15,WNW,292,0.0,0.0,100,0.00,,SKC,0.10,VWS V14.01,2013-02-12 05:37:00,
2013-02-11 22:38:00,34.0,34.0,30.15,West,270,0.0,0.0,100,0.00,,SKC,0.10,VWS V14.01,2013-02-12 05:38:00,
2013-02-11 22:39:00,34.0,34.0,30.15,WNW,292,0.0,0.0,100,0.00,,SKC,0.10,VWS V14.01,2013-02-12 05:39:00,
2013-02-11 22:40:00,34.0,34.0,30.15,WSW,248,1.0,2.0,100,0.00,,SKC,0.10,VWS V14.01,2013-02-12 05:40:00,
2013-02-11 22:41:00,34.0,34.0,30.15,West,270,0.0,0.0,100,0.00,,SKC,0.10,VWS V14.01,2013-02-12 05:41:00,
2013-02-11 22:42:00,34.0,34.0,30.15,WSW,248,3.0,3.0,100,0.00,,SKC,0.10,VWS V14.01,2013-02-12 05:42:00,
2013-02-11 22:43:00,34.0,34.0,30.15,WSW,248,1.0,1.0,100,0.00,,SKC,0.10,VWS V14.01,2013-02-12 05:43:00,
2013-02-11 22:44:00,34.0,34.0,30.15,WSW,248,0.0,0.0,100,0.00,,SKC,0.10,VWS V14.01,2013-02-12 05:44:00,
2013-02-11 22:45:00,34.0,34.0,30.15,WSW,248,0.0,0.0,100,0.00,,SKC,0.10,VWS V14.01,2013-02-12 05:45:00,
2013-02-11 22:46:00,34.0,34.0,30.15,WSW,248,0.0,0.0,100,0.00,,SKC,0.10,VWS V14.01,2013-02-12 05:46:00,
2013-02-11 22:47:00,34.0,34.0,30.15,WSW,248,0.0,0.0,100,0.00,,SKC,0.10,VWS V14.01,2013-02-12 05:47:00,
2013-02-11 22:48:00,34.0,34.0,30.15,WSW,248,0.0,0.0,100,0.00,,SKC,0.10,VWS V14.01,2013-02-12 05:48:00,
2013-02-11 22:49:00,34.0,34.0,30.15,WSW,248,0.0,0.0,100,0.00,,SKC,0.10,VWS V14.01,2013-02-12 05:49:00,
2013-02-11 22:50:00,34.0,34.0,30.14,WSW,248,0.0,0.0,100,0.00,,SKC,0.10,VWS V14.01,2013-02-12 05:50:00,
2013-02-11 22:51:00,34.0,34.0,30.15,WSW,248,0.0,0.0,100,0.00,,SKC,0.10,VWS V14.01,2013-02-12 05:51:00,
2013-02-11 22:52:00,34.0,34.0,30.14,WSW,248,0.0,0.0,100,0.00,,SKC,0.10,VWS V14.01,2013-02-12 05:52:00,
2013-02-11 22:53:00,34.0,34.0,30.14,WSW,248,0.0,0.0,100,0.00,,SKC,0.10,VWS V14.01,2013-02-12 05:53:00,
2013-02-11 22:54:00,34.0,34.0,30.14,ENE,68,0.0,0.0,100,0.00,,SKC,0.10,VWS V14.01,2013-02-12 05:54:00,
2013-02-11 22:55:00,34.0,34.0,30.14,East,90,4.0,5.0,100,0.00,,SKC,0.10,VWS V14.01,2013-02-12 05:55:00,
2013-02-11 22:56:00,34.0,34.0,30.14,ENE,68,3.0,3.0,100,0.00,,SKC,0.10,VWS V14.01,2013-02-12 05:56:00,
2013-02-11 22:57:00,34.0,34.0,30.14,ENE,68,1.0,2.0,100,0.00,,SKC,0.10,VWS V14.01,2013-02-12 05:57:00,
2013-02-11 22:58:00,34.0,34.0,30.14,ENE,68,5.0,6.0,100,0.00,,SKC,0.10,VWS V14.01,2013-02-12 05:58:00,
2013-02-11 22:59:00,34.0,34.0,30.14,ENE,68,5.0,6.0,100,0.00,,SKC,0.10,VWS V14.01,2013-02-12 05:59:00,
2013-02-11 23:00:00,34.0,34.0,30.13,ENE,68,5.0,6.0,100,0.00,,SKC,0.10,VWS V14.01,2013-02-12 06:00:00,
2013-02-11 23:01:00,34.0,34.0,30.13,East,90,4.0,5.0,100,0.00,,SKC,0.10,VWS V14.01,2013-02-12 06:01:00,
2013-02-11 23:02:00,34.0,34.0,30.13,ENE,68,5.0,5.0,100,0.00,,SKC,0.10,VWS V14.01,2013-02-12 06:02:00,
2013-02-11 23:03:00,34.0,34.0,30.13,ENE,68,5.0,5.0,100,0.00,,SKC,0.10,VWS V14.01,2013-02-12 06:03:00,
2013-02-11 23:04:00,34.0,34.0,30.13,ENE,68,4.0,4.0,100,0.00,,SKC,0.10,VWS V14.01,2013-02-12 06:04:00,
2013-02-11 23:05:00,34.0,34.0,30.13,East,90,5.0,5.0,100,0.00,,SKC,0.10,VWS V14.01,2013-02-12 06:05:00,
2013-02-11 23:06:00,34.0,34.0,30.13,ENE,68,2.0,2.0,100,0.00,,SKC,0.10,VWS V14.01,2013-02-12 06:06:00,
2013-02-11 23:07:00,34.0,34.0,30.13,NE,45,3.0,3.0,100,0.00,,SKC,0.10,VWS V14.01,2013-02-12 06:07:00,
2013-02-11 23:08:00,34.0,34.0,30.13,ENE,68,4.0,5.0,100,0.00,,SKC,0.10,VWS V14.01,2013-02-12 06:08:00,
2013-02-11 23:09:00,34.0,34.0,30.13,ENE,68,3.0,3.0,100,0.00,,SKC,0.10,VWS V14.01,2013-02-12 06:09:00,
2013-02-11 23:10:00,34.0,34.0,30.13,ENE,68,5.0,5.0,100,0.00,,SKC,0.10,VWS V14.01,2013-02-12 06:10:00,
2013-02-11 23:11:00,34.0,34.0,30.13,NE,45,1.0,1.0,100,0.00,,SKC,0.10,VWS V14.01,2013-02-12 06:11:00,
2013-02-11 23:12:00,34.0,34.0,30.13,ENE,68,1.0,2.0,100,0.00,,SKC,0.10,VWS V14.01,2013-02-12 06:12:00,
2013-02-11 23:13:00,34.0,34.0,30.13,NE,45,4.0,5.0,100,0.00,,SKC,0.10,VWS V14.01,2013-02-12 06:13:00,
2013-02-11 23:14:00,34.0,34.0,30.13,ENE,68,1.0,1.0,100,0.00,,SKC,0.10,VWS V14.01,2013-02-12 06:14:00,
2013-02-11 23:15:00,34.0,34.0,30.13,NE,45,2.0,2.0,100,0.00,,SKC,0.10,VWS V14.01,2013-02-12 06:15:00,
2013-02-11 23:16:00,34.0,34.0,30.13,NE,45,3.0,5.0,100,0.00,,SKC,0.10,VWS V14.01,2013-02-12 06:16:00,
2013-02-11 23:17:00,34.0,34.0,30.13,ENE,68,4.0,4.0,100,0.00,,SKC,0.10,VWS V14.01,2013-02-12 06:17:00,
2013-02-11 23:18:00,34.0,34.0,30.13,NE,45,1.0,2.0,100,0.00,,SKC,0.10,VWS V14.01,2013-02-12 06:18:00,
2013-02-11 23:19:00,34.0,34.0,30.13,NE,45,2.0,3.0,100,0.00,,SKC,0.10,VWS V14.01,2013-02-12 06:19:00,
2013-02-11 23:20:00,34.0,34.0,30.13,ENE,68,0.0,1.0,100,0.00,,SKC,0.10,VWS V14.01,2013-02-12 06:20:00,
2013-02-11 23:21:00,34.0,34.0,30.13,NE,45,1.0,2.0,100,0.00,,SKC,0.10,VWS V14.01,2013-02-12 06:21:00,
2013-02-11 23:22:00,34.0,34.0,30.13,ENE,68,4.0,4.0,100,0.00,,SKC,0.10,VWS V14.01,2013-02-12 06:22:00,
2013-02-11 23:23:00,34.0,34.0,30.13,ENE,68,0.0,0.0,100,0.00,,SKC,0.10,VWS V14.01,2013-02-12 06:23:00,
2013-02-11 23:24:00,34.0,34.0,30.14,ENE,68,0.0,0.0,100,0.00,,SKC,0.10,VWS V14.01,2013-02-12 06:24:00,
2013-02-11 23:25:00,34.0,34.0,30.14,ENE,68,0.0,0.0,100,0.00,,SKC,0.10,VWS V14.01,2013-02-12 06:25:00,
2013-02-11 23:26:00,34.0,34.0,30.14,ENE,68,0.0,0.0,100,0.00,,SKC,0.10,VWS V14.01,2013-02-12 06:26:00,
2013-02-11 23:27:00,34.0,34.0,30.14,ENE,68,0.0,0.0,100,0.00,,SKC,0.10,VWS V14.01,2013-02-12 06:27:00,
2013-02-11 23:28:00,34.0,34.0,30.14,ENE,68,0.0,0.0,100,0.00,,SKC,0.10,VWS V14.01,2013-02-12 06:28:00,
2013-02-11 23:29:00,34.0,34.0,30.14,ENE,68,3.0,4.0,100,0.00,,SKC,0.10,VWS V14.01,2013-02-12 06:29:00,
2013-02-11 23:30:00,34.0,34.0,30.14,ENE,68,1.0,1.0,100,0.00,,SKC,0.10,VWS V14.01,2013-02-12 06:30:00,
2013-02-11 23:31:00,34.0,34.0,30.14,ENE,68,0.0,1.0,100,0.00,,SKC,0.10,VWS V14.01,2013-02-12 06:31:00,
2013-02-11 23:32:00,34.0,34.0,30.14,ENE,68,0.0,0.0,100,0.00,,SKC,0.10,VWS V14.01,2013-02-12 06:32:00,
2013-02-11 23:33:00,34.0,34.0,30.14,SE,135,1.0,1.0,100,0.00,,SKC,0.10,VWS V14.01,2013-02-12 06:33:00,
2013-02-11 23:34:00,34.0,34.0,30.14,ENE,68,1.0,2.0,100,0.00,,SKC,0.10,VWS V14.01,2013-02-12 06:34:00,
2013-02-11 23:35:00,34.0,34.0,30.14,NNE,22,0.0,0.0,100,0.00,,SKC,0.10,VWS V14.01,2013-02-12 06:35:00,
2013-02-11 23:36:00,34.0,34.0,30.14,ENE,68,0.0,0.0,100,0.00,,SKC,0.10,VWS V14.01,2013-02-12 06:36:00,
2013-02-11 23:37:00,34.0,34.0,30.14,ENE,68,0.0,0.0,100,0.00,,SKC,0.10,VWS V14.01,2013-02-12 06:37:00,
2013-02-11 23:38:00,34.0,34.0,30.14,NNE,22,0.0,0.0,100,0.00,,SKC,0.10,VWS V14.01,2013-02-12 06:38:00,
2013-02-11 23:39:00,34.0,34.0,30.14,NNE,22,0.0,0.0,100,0.00,,SKC,0.10,VWS V14.01,2013-02-12 06:39:00,
2013-02-11 23:40:00,33.0,33.0,30.14,NNE,22,0.0,0.0,100,0.00,,SKC,0.10,VWS V14.01,2013-02-12 06:40:00,
2013-02-11 23:41:00,34.0,34.0,30.14,NNE,22,1.0,1.0,100,0.00,,SKC,0.10,VWS V14.01,2013-02-12 06:41:00,
2013-02-11 23:42:00,34.0,34.0,30.14,NNE,22,0.0,0.0,100,0.00,,SKC,0.10,VWS V14.01,2013-02-12 06:42:00,
2013-02-11 23:43:00,34.0,34.0,30.14,NNE,22,0.0,0.0,100,0.00,,SKC,0.10,VWS V14.01,2013-02-12 06:43:00,
2013-02-11 23:44:00,34.0,34.0,30.14,NNE,22,0.0,0.0,100,0.00,,SKC,0.10,VWS V14.01,2013-02-12 06:44:00,
2013-02-11 23:45:00,33.0,33.0,30.14,North,0,0.0,0.0,100,0.00,,SKC,0.10,VWS V14.01,2013-02-12 06:45:00,
2013-02-11 23:46:00,33.0,33.0,30.14,NNE,22,0.0,0.0,100,0.00,,SKC,0.10,VWS V14.01,2013-02-12 06:46:00,
2013-02-11 23:47:00,33.0,33.0,30.14,NNE,22,0.0,0.0,100,0.00,,SKC,0.10,VWS V14.01,2013-02-12 06:47:00,
2013-02-11 23:48:00,33.0,33.0,30.14,North,0,0.0,0.0,100,0.00,,SKC,0.10,VWS V14.01,2013-02-12 06:48:00,
2013-02-11 23:49:00,33.0,33.0,30.14,NW,315,0.0,0.0,100,0.00,,SKC,0.10,VWS V14.01,2013-02-12 06:49:00,
2013-02-11 23:50:00,33.0,33.0,30.15,WNW,292,0.0,0.0,100,0.00,,SKC,0.10,VWS V14.01,2013-02-12 06:50:00,
2013-02-11 23:51:00,33.0,33.0,30.14,WNW,292,0.0,0.0,100,0.00,,SKC,0.10,VWS V14.01,2013-02-12 06:51:00,
2013-02-11 23:52:00,33.0,33.0,30.14,WNW,292,0.0,0.0,100,0.00,,SKC,0.10,VWS V14.01,2013-02-12 06:52:00,
2013-02-11 23:53:00,33.0,33.0,30.15,WNW,292,0.0,0.0,100,0.00,,SKC,0.10,VWS V14.01,2013-02-12 06:53:00,
2013-02-11 23:54:00,33.0,33.0,30.15,WNW,292,0.0,0.0,100,0.00,,SKC,0.10,VWS V14.01,2013-02-12 06:54:00,
2013-02-11 23:55:00,33.0,33.0,30.15,SSW,202,0.0,1.0,100,0.00,,SKC,0.10,VWS V14.01,2013-02-12 06:55:00,
2013-02-11 23:56:00,33.0,33.0,30.15,SSE,158,0.0,0.0,100,0.00,,SKC,0.10,VWS V14.01,2013-02-12 06:56:00,
2013-02-11 23:57:00,33.0,33.0,30.15,SSE,158,0.0,1.0,100,0.00,,SKC,0.10,VWS V14.01,2013-02-12 06:57:00,
2013-02-11 23:58:00,33.0,33.0,30.15,SSE,158,0.0,0.0,100,0.00,,SKC,0.10,VWS V14.01,2013-02-12 06:58:00,
2013-02-11 23:59:00,33.0,33.0,30.15,South,180,0.0,0.0,100,0.00,,SKC,0.10,VWS V14.01,2013-02-12 06:59:00,